<?xml version="1.0" encoding="UTF-8" standalone="no" ?>
<gpx xmlns="http://www.topografix.com/GPX/1/1" creator="MapSource 6.16.3" version="1.1" xmlns:xsi="http://www.w3.org/2001/XMLSchema-instance" xsi:schemaLocation="http://www.topografix.com/GPX/1/1 http://www.topografix.com/GPX/1/1/gpx.xsd">

  <metadata>
    <link href="http://www.garmin.com">
      <text>Garmin International</text>
    </link>
    <time>2016-09-17T08:05:06Z</time>
    <bounds maxlat="45.884807109832764" maxlon="10.874984264373779" minlat="45.835239887237549" minlon="10.811491012573242"/>
  </metadata>

  <wpt lat="45.883949976414442" lon="10.838700011372566">
    <name>ARRIVO RIVA DEL GARDA</name>
    <cmt>Lago Di Garda</cmt>
    <desc>Lago Di Garda</desc>
    <sym>Diamond, Green</sym>
    <extensions>
      <gpxx:WaypointExtension xmlns:gpxx="http://www.garmin.com/xmlschemas/GpxExtensions/v3">
        <gpxx:DisplayMode>SymbolAndName</gpxx:DisplayMode>
      </gpxx:WaypointExtension>
    </extensions>
  </wpt>

  <wpt lat="45.872233333066106" lon="10.87498334236443">
    <name>PARTENZA TORBOLE</name>
    <cmt>Lago Di Garda</cmt>
    <desc>Lago Di Garda</desc>
    <sym>Trail Head</sym>
    <extensions>
      <gpxx:WaypointExtension xmlns:gpxx="http://www.garmin.com/xmlschemas/GpxExtensions/v3">
        <gpxx:DisplayMode>SymbolAndName</gpxx:DisplayMode>
      </gpxx:WaypointExtension>
    </extensions>
  </wpt>

  <trk>
    <name>ACTIVE LOG</name>
    <trkseg>
      <trkpt lat="45.872232913970947" lon="10.874984264373779">
        <ele>56.8551025390625</ele>
        <time>2006-11-26T09:58:54Z</time>
      </trkpt>
      <trkpt lat="45.872340202331543" lon="10.874941349029541">
        <ele>60.2197265625</ele>
        <time>2006-11-26T09:59:17Z</time>
      </trkpt>
      <trkpt lat="45.872361660003662" lon="10.874941349029541">
        <ele>60.2197265625</ele>
        <time>2006-11-26T09:59:18Z</time>
      </trkpt>
      <trkpt lat="45.872554779052734" lon="10.874662399291992">
        <ele>60.7003173828125</ele>
        <time>2006-11-26T09:59:25Z</time>
      </trkpt>
      <trkpt lat="45.872790813446045" lon="10.874404907226562">
        <ele>60.7003173828125</ele>
        <time>2006-11-26T09:59:33Z</time>
      </trkpt>
      <trkpt lat="45.873198509216309" lon="10.874147415161133">
        <ele>61.6617431640625</ele>
        <time>2006-11-26T09:59:45Z</time>
      </trkpt>
      <trkpt lat="45.87367057800293" lon="10.873911380767822">
        <ele>63.1036376953125</ele>
        <time>2006-11-26T09:59:58Z</time>
      </trkpt>
      <trkpt lat="45.874099731445313" lon="10.873632431030273">
        <ele>65.0263671875</ele>
        <time>2006-11-26T10:00:11Z</time>
      </trkpt>
      <trkpt lat="45.874507427215576" lon="10.873246192932129">
        <ele>66.46826171875</ele>
        <time>2006-11-26T10:00:23Z</time>
      </trkpt>
      <trkpt lat="45.87465763092041" lon="10.873010158538818">
        <ele>66.46826171875</ele>
        <time>2006-11-26T10:00:28Z</time>
      </trkpt>
      <trkpt lat="45.874850749969482" lon="10.872752666473389">
        <ele>66.46826171875</ele>
        <time>2006-11-26T10:00:33Z</time>
      </trkpt>
      <trkpt lat="45.874850749969482" lon="10.872602462768555">
        <ele>66.46826171875</ele>
        <time>2006-11-26T10:00:36Z</time>
      </trkpt>
      <trkpt lat="45.874807834625244" lon="10.872581005096436">
        <ele>66.46826171875</ele>
        <time>2006-11-26T10:00:37Z</time>
      </trkpt>
      <trkpt lat="45.874614715576172" lon="10.87221622467041">
        <ele>66.948974609375</ele>
        <time>2006-11-26T10:00:43Z</time>
      </trkpt>
      <trkpt lat="45.874357223510742" lon="10.871508121490479">
        <ele>66.46826171875</ele>
        <time>2006-11-26T10:00:52Z</time>
      </trkpt>
      <trkpt lat="45.874121189117432" lon="10.870392322540283">
        <ele>65.9876708984375</ele>
        <time>2006-11-26T10:01:05Z</time>
      </trkpt>
      <trkpt lat="45.873949527740479" lon="10.869426727294922">
        <ele>65.507080078125</ele>
        <time>2006-11-26T10:01:16Z</time>
      </trkpt>
      <trkpt lat="45.873842239379883" lon="10.868825912475586">
        <ele>65.0263671875</ele>
        <time>2006-11-26T10:01:25Z</time>
      </trkpt>
      <trkpt lat="45.873713493347168" lon="10.868096351623535">
        <ele>64.545654296875</ele>
        <time>2006-11-26T10:01:35Z</time>
      </trkpt>
      <trkpt lat="45.87367057800293" lon="10.867795944213867">
        <ele>63.5843505859375</ele>
        <time>2006-11-26T10:01:39Z</time>
      </trkpt>
      <trkpt lat="45.873606204986572" lon="10.867280960083008">
        <ele>62.142333984375</ele>
        <time>2006-11-26T10:01:45Z</time>
      </trkpt>
      <trkpt lat="45.873584747314453" lon="10.867087841033936">
        <ele>62.142333984375</ele>
        <time>2006-11-26T10:01:47Z</time>
      </trkpt>
      <trkpt lat="45.873563289642334" lon="10.866744518280029">
        <ele>62.6229248046875</ele>
        <time>2006-11-26T10:01:52Z</time>
      </trkpt>
      <trkpt lat="45.873541831970215" lon="10.866572856903076">
        <ele>62.6229248046875</ele>
        <time>2006-11-26T10:01:55Z</time>
      </trkpt>
      <trkpt lat="45.873606204986572" lon="10.866250991821289">
        <ele>62.142333984375</ele>
        <time>2006-11-26T10:02:02Z</time>
      </trkpt>
      <trkpt lat="45.873777866363525" lon="10.865950584411621">
        <ele>62.142333984375</ele>
        <time>2006-11-26T10:02:10Z</time>
      </trkpt>
      <trkpt lat="45.87390661239624" lon="10.866014957427979">
        <ele>62.142333984375</ele>
        <time>2006-11-26T10:02:14Z</time>
      </trkpt>
      <trkpt lat="45.874013900756836" lon="10.866186618804932">
        <ele>62.142333984375</ele>
        <time>2006-11-26T10:02:18Z</time>
      </trkpt>
      <trkpt lat="45.874207019805908" lon="10.866358280181885">
        <ele>62.6229248046875</ele>
        <time>2006-11-26T10:02:23Z</time>
      </trkpt>
      <trkpt lat="45.874249935150146" lon="10.86646556854248">
        <ele>62.6229248046875</ele>
        <time>2006-11-26T10:02:25Z</time>
      </trkpt>
      <trkpt lat="45.874485969543457" lon="10.867023468017578">
        <ele>63.1036376953125</ele>
        <time>2006-11-26T10:02:34Z</time>
      </trkpt>
      <trkpt lat="45.87465763092041" lon="10.867109298706055">
        <ele>64.545654296875</ele>
        <time>2006-11-26T10:02:38Z</time>
      </trkpt>
      <trkpt lat="45.874743461608887" lon="10.867087841033936">
        <ele>64.545654296875</ele>
        <time>2006-11-26T10:02:40Z</time>
      </trkpt>
      <trkpt lat="45.874893665313721" lon="10.867044925689697">
        <ele>63.5843505859375</ele>
        <time>2006-11-26T10:02:43Z</time>
      </trkpt>
      <trkpt lat="45.875494480133057" lon="10.867044925689697">
        <ele>62.142333984375</ele>
        <time>2006-11-26T10:02:52Z</time>
      </trkpt>
      <trkpt lat="45.875966548919678" lon="10.866572856903076">
        <ele>62.142333984375</ele>
        <time>2006-11-26T10:03:01Z</time>
      </trkpt>
      <trkpt lat="45.876374244689941" lon="10.866100788116455">
        <ele>62.6229248046875</ele>
        <time>2006-11-26T10:03:09Z</time>
      </trkpt>
      <trkpt lat="45.876739025115967" lon="10.865607261657715">
        <ele>63.5843505859375</ele>
        <time>2006-11-26T10:03:17Z</time>
      </trkpt>
      <trkpt lat="45.876889228820801" lon="10.865263938903809">
        <ele>63.5843505859375</ele>
        <time>2006-11-26T10:03:22Z</time>
      </trkpt>
      <trkpt lat="45.877017974853516" lon="10.865027904510498">
        <ele>63.5843505859375</ele>
        <time>2006-11-26T10:03:26Z</time>
      </trkpt>
      <trkpt lat="45.87716817855835" lon="10.864598751068115">
        <ele>65.0263671875</ele>
        <time>2006-11-26T10:03:33Z</time>
      </trkpt>
      <trkpt lat="45.87714672088623" lon="10.86423397064209">
        <ele>64.0650634765625</ele>
        <time>2006-11-26T10:03:39Z</time>
      </trkpt>
      <trkpt lat="45.877060890197754" lon="10.863869190216064">
        <ele>65.0263671875</ele>
        <time>2006-11-26T10:03:46Z</time>
      </trkpt>
      <trkpt lat="45.876932144165039" lon="10.863418579101563">
        <ele>65.0263671875</ele>
        <time>2006-11-26T10:03:54Z</time>
      </trkpt>
      <trkpt lat="45.876781940460205" lon="10.862796306610107">
        <ele>65.9876708984375</ele>
        <time>2006-11-26T10:04:04Z</time>
      </trkpt>
      <trkpt lat="45.876674652099609" lon="10.861766338348389">
        <ele>66.948974609375</ele>
        <time>2006-11-26T10:04:17Z</time>
      </trkpt>
      <trkpt lat="45.876610279083252" lon="10.861165523529053">
        <ele>67.4296875</ele>
        <time>2006-11-26T10:04:24Z</time>
      </trkpt>
      <trkpt lat="45.876588821411133" lon="10.860800743103027">
        <ele>67.4296875</ele>
        <time>2006-11-26T10:04:28Z</time>
      </trkpt>
      <trkpt lat="45.876460075378418" lon="10.8599853515625">
        <ele>66.948974609375</ele>
        <time>2006-11-26T10:04:38Z</time>
      </trkpt>
      <trkpt lat="45.876331329345703" lon="10.859298706054688">
        <ele>65.9876708984375</ele>
        <time>2006-11-26T10:04:47Z</time>
      </trkpt>
      <trkpt lat="45.876374244689941" lon="10.858805179595947">
        <ele>65.9876708984375</ele>
        <time>2006-11-26T10:04:53Z</time>
      </trkpt>
      <trkpt lat="45.876481533050537" lon="10.858461856842041">
        <ele>65.507080078125</ele>
        <time>2006-11-26T10:04:59Z</time>
      </trkpt>
      <trkpt lat="45.876674652099609" lon="10.857968330383301">
        <ele>63.1036376953125</ele>
        <time>2006-11-26T10:05:07Z</time>
      </trkpt>
      <trkpt lat="45.876803398132324" lon="10.857582092285156">
        <ele>60.7003173828125</ele>
        <time>2006-11-26T10:05:12Z</time>
      </trkpt>
      <trkpt lat="45.876975059509277" lon="10.857324600219727">
        <ele>61.1810302734375</ele>
        <time>2006-11-26T10:05:16Z</time>
      </trkpt>
      <trkpt lat="45.877211093902588" lon="10.857131481170654">
        <ele>61.1810302734375</ele>
        <time>2006-11-26T10:05:21Z</time>
      </trkpt>
      <trkpt lat="45.877339839935303" lon="10.857131481170654">
        <ele>61.1810302734375</ele>
        <time>2006-11-26T10:05:23Z</time>
      </trkpt>
      <trkpt lat="45.877790451049805" lon="10.857388973236084">
        <ele>63.1036376953125</ele>
        <time>2006-11-26T10:05:31Z</time>
      </trkpt>
      <trkpt lat="45.878219604492188" lon="10.857303142547607">
        <ele>62.6229248046875</ele>
        <time>2006-11-26T10:05:38Z</time>
      </trkpt>
      <trkpt lat="45.878713130950928" lon="10.857152938842773">
        <ele>63.5843505859375</ele>
        <time>2006-11-26T10:05:47Z</time>
      </trkpt>
      <trkpt lat="45.878734588623047" lon="10.857174396514893">
        <ele>64.0650634765625</ele>
        <time>2006-11-26T10:05:49Z</time>
      </trkpt>
      <trkpt lat="45.878884792327881" lon="10.857152938842773">
        <ele>64.0650634765625</ele>
        <time>2006-11-26T10:05:55Z</time>
      </trkpt>
      <trkpt lat="45.878884792327881" lon="10.857002735137939">
        <ele>65.0263671875</ele>
        <time>2006-11-26T10:06:01Z</time>
      </trkpt>
      <trkpt lat="45.878841876983643" lon="10.856959819793701">
        <ele>65.0263671875</ele>
        <time>2006-11-26T10:06:03Z</time>
      </trkpt>
      <trkpt lat="45.878756046295166" lon="10.856916904449463">
        <ele>64.545654296875</ele>
        <time>2006-11-26T10:06:05Z</time>
      </trkpt>
      <trkpt lat="45.878691673278809" lon="10.85674524307251">
        <ele>64.0650634765625</ele>
        <time>2006-11-26T10:06:08Z</time>
      </trkpt>
      <trkpt lat="45.878670215606689" lon="10.856530666351318">
        <ele>64.0650634765625</ele>
        <time>2006-11-26T10:06:11Z</time>
      </trkpt>
      <trkpt lat="45.878798961639404" lon="10.856337547302246">
        <ele>64.0650634765625</ele>
        <time>2006-11-26T10:06:15Z</time>
      </trkpt>
      <trkpt lat="45.878777503967285" lon="10.856208801269531">
        <ele>64.0650634765625</ele>
        <time>2006-11-26T10:06:17Z</time>
      </trkpt>
      <trkpt lat="45.878670215606689" lon="10.855607986450195">
        <ele>64.545654296875</ele>
        <time>2006-11-26T10:06:25Z</time>
      </trkpt>
      <trkpt lat="45.878691673278809" lon="10.855393409729004">
        <ele>64.0650634765625</ele>
        <time>2006-11-26T10:06:29Z</time>
      </trkpt>
      <trkpt lat="45.878734588623047" lon="10.855307579040527">
        <ele>64.0650634765625</ele>
        <time>2006-11-26T10:06:30Z</time>
      </trkpt>
      <trkpt lat="45.878884792327881" lon="10.855007171630859">
        <ele>62.6229248046875</ele>
        <time>2006-11-26T10:06:35Z</time>
      </trkpt>
      <trkpt lat="45.878927707672119" lon="10.854771137237549">
        <ele>62.142333984375</ele>
        <time>2006-11-26T10:06:39Z</time>
      </trkpt>
      <trkpt lat="45.878949165344238" lon="10.854599475860596">
        <ele>62.142333984375</ele>
        <time>2006-11-26T10:06:42Z</time>
      </trkpt>
      <trkpt lat="45.879120826721191" lon="10.854020118713379">
        <ele>62.142333984375</ele>
        <time>2006-11-26T10:06:51Z</time>
      </trkpt>
      <trkpt lat="45.879271030426025" lon="10.853548049926758">
        <ele>62.142333984375</ele>
        <time>2006-11-26T10:06:58Z</time>
      </trkpt>
      <trkpt lat="45.879356861114502" lon="10.85299015045166">
        <ele>62.6229248046875</ele>
        <time>2006-11-26T10:07:06Z</time>
      </trkpt>
      <trkpt lat="45.87939977645874" lon="10.852861404418945">
        <ele>63.1036376953125</ele>
        <time>2006-11-26T10:07:08Z</time>
      </trkpt>
      <trkpt lat="45.879571437835693" lon="10.852518081665039">
        <ele>62.6229248046875</ele>
        <time>2006-11-26T10:07:14Z</time>
      </trkpt>
      <trkpt lat="45.879635810852051" lon="10.852389335632324">
        <ele>63.5843505859375</ele>
        <time>2006-11-26T10:07:18Z</time>
      </trkpt>
      <trkpt lat="45.879700183868408" lon="10.85223913192749">
        <ele>63.1036376953125</ele>
        <time>2006-11-26T10:07:24Z</time>
      </trkpt>
      <trkpt lat="45.879700183868408" lon="10.852217674255371">
        <ele>62.6229248046875</ele>
        <time>2006-11-26T10:07:25Z</time>
      </trkpt>
      <trkpt lat="45.879764556884766" lon="10.852046012878418">
        <ele>62.142333984375</ele>
        <time>2006-11-26T10:07:30Z</time>
      </trkpt>
      <trkpt lat="45.879807472229004" lon="10.851981639862061">
        <ele>61.6617431640625</ele>
        <time>2006-11-26T10:07:32Z</time>
      </trkpt>
      <trkpt lat="45.880000591278076" lon="10.851573944091797">
        <ele>61.6617431640625</ele>
        <time>2006-11-26T10:07:40Z</time>
      </trkpt>
      <trkpt lat="45.880064964294434" lon="10.851380825042725">
        <ele>61.6617431640625</ele>
        <time>2006-11-26T10:07:43Z</time>
      </trkpt>
      <trkpt lat="45.880064964294434" lon="10.851080417633057">
        <ele>62.142333984375</ele>
        <time>2006-11-26T10:07:47Z</time>
      </trkpt>
      <trkpt lat="45.88015079498291" lon="10.850608348846436">
        <ele>62.6229248046875</ele>
        <time>2006-11-26T10:07:53Z</time>
      </trkpt>
      <trkpt lat="45.880279541015625" lon="10.850329399108887">
        <ele>62.6229248046875</ele>
        <time>2006-11-26T10:07:57Z</time>
      </trkpt>
      <trkpt lat="45.880472660064697" lon="10.850028991699219">
        <ele>62.6229248046875</ele>
        <time>2006-11-26T10:08:02Z</time>
      </trkpt>
      <trkpt lat="45.88064432144165" lon="10.84975004196167">
        <ele>63.1036376953125</ele>
        <time>2006-11-26T10:08:07Z</time>
      </trkpt>
      <trkpt lat="45.880815982818604" lon="10.849685668945313">
        <ele>63.1036376953125</ele>
        <time>2006-11-26T10:08:11Z</time>
      </trkpt>
      <trkpt lat="45.881073474884033" lon="10.849685668945313">
        <ele>63.1036376953125</ele>
        <time>2006-11-26T10:08:18Z</time>
      </trkpt>
      <trkpt lat="45.881094932556152" lon="10.849642753601074">
        <ele>63.1036376953125</ele>
        <time>2006-11-26T10:08:19Z</time>
      </trkpt>
      <trkpt lat="45.881245136260986" lon="10.849428176879883">
        <ele>63.1036376953125</ele>
        <time>2006-11-26T10:08:25Z</time>
      </trkpt>
      <trkpt lat="45.881309509277344" lon="10.849342346191406">
        <ele>62.6229248046875</ele>
        <time>2006-11-26T10:08:27Z</time>
      </trkpt>
      <trkpt lat="45.881438255310059" lon="10.849235057830811">
        <ele>62.6229248046875</ele>
        <time>2006-11-26T10:08:30Z</time>
      </trkpt>
      <trkpt lat="45.881502628326416" lon="10.849084854125977">
        <ele>62.6229248046875</ele>
        <time>2006-11-26T10:08:33Z</time>
      </trkpt>
      <trkpt lat="45.881588459014893" lon="10.848698616027832">
        <ele>63.5843505859375</ele>
        <time>2006-11-26T10:08:40Z</time>
      </trkpt>
      <trkpt lat="45.881588459014893" lon="10.848655700683594">
        <ele>63.5843505859375</ele>
        <time>2006-11-26T10:08:41Z</time>
      </trkpt>
      <trkpt lat="45.881567001342773" lon="10.848462581634521">
        <ele>63.5843505859375</ele>
        <time>2006-11-26T10:08:44Z</time>
      </trkpt>
      <trkpt lat="45.881631374359131" lon="10.848076343536377">
        <ele>63.1036376953125</ele>
        <time>2006-11-26T10:08:50Z</time>
      </trkpt>
      <trkpt lat="45.881717205047607" lon="10.847454071044922">
        <ele>62.6229248046875</ele>
        <time>2006-11-26T10:08:59Z</time>
      </trkpt>
      <trkpt lat="45.881760120391846" lon="10.846703052520752">
        <ele>62.6229248046875</ele>
        <time>2006-11-26T10:09:10Z</time>
      </trkpt>
      <trkpt lat="45.881717205047607" lon="10.846209526062012">
        <ele>63.1036376953125</ele>
        <time>2006-11-26T10:09:17Z</time>
      </trkpt>
      <trkpt lat="45.881717205047607" lon="10.845866203308105">
        <ele>63.5843505859375</ele>
        <time>2006-11-26T10:09:23Z</time>
      </trkpt>
      <trkpt lat="45.881717205047607" lon="10.845694541931152">
        <ele>64.0650634765625</ele>
        <time>2006-11-26T10:09:27Z</time>
      </trkpt>
      <trkpt lat="45.881738662719727" lon="10.845522880554199">
        <ele>63.5843505859375</ele>
        <time>2006-11-26T10:09:30Z</time>
      </trkpt>
      <trkpt lat="45.881845951080322" lon="10.845522880554199">
        <ele>61.6617431640625</ele>
        <time>2006-11-26T10:09:33Z</time>
      </trkpt>
      <trkpt lat="45.88214635848999" lon="10.845651626586914">
        <ele>59.7391357421875</ele>
        <time>2006-11-26T10:09:38Z</time>
      </trkpt>
      <trkpt lat="45.882618427276611" lon="10.845844745635986">
        <ele>59.2584228515625</ele>
        <time>2006-11-26T10:09:46Z</time>
      </trkpt>
      <trkpt lat="45.882833003997803" lon="10.845737457275391">
        <ele>59.7391357421875</ele>
        <time>2006-11-26T10:09:50Z</time>
      </trkpt>
      <trkpt lat="45.88289737701416" lon="10.845630168914795">
        <ele>59.2584228515625</ele>
        <time>2006-11-26T10:09:52Z</time>
      </trkpt>
      <trkpt lat="45.883004665374756" lon="10.845479965209961">
        <ele>59.7391357421875</ele>
        <time>2006-11-26T10:09:55Z</time>
      </trkpt>
      <trkpt lat="45.883197784423828" lon="10.845029354095459">
        <ele>60.7003173828125</ele>
        <time>2006-11-26T10:10:04Z</time>
      </trkpt>
      <trkpt lat="45.883219242095947" lon="10.84500789642334">
        <ele>60.2197265625</ele>
        <time>2006-11-26T10:10:08Z</time>
      </trkpt>
      <trkpt lat="45.883197784423828" lon="10.84500789642334">
        <ele>62.142333984375</ele>
        <time>2006-11-26T10:10:27Z</time>
      </trkpt>
      <trkpt lat="45.883240699768066" lon="10.84500789642334">
        <ele>60.7003173828125</ele>
        <time>2006-11-26T10:12:39Z</time>
      </trkpt>
      <trkpt lat="45.883240699768066" lon="10.84500789642334">
        <ele>67.4296875</ele>
        <time>2006-11-26T10:13:16Z</time>
      </trkpt>
      <trkpt lat="45.883262157440186" lon="10.844793319702148">
        <ele>67.9102783203125</ele>
        <time>2006-11-26T10:13:23Z</time>
      </trkpt>
      <trkpt lat="45.8833909034729" lon="10.844643115997314">
        <ele>67.9102783203125</ele>
        <time>2006-11-26T10:13:28Z</time>
      </trkpt>
      <trkpt lat="45.883626937866211" lon="10.844471454620361">
        <ele>68.390869140625</ele>
        <time>2006-11-26T10:13:35Z</time>
      </trkpt>
      <trkpt lat="45.883862972259521" lon="10.844471454620361">
        <ele>69.352294921875</ele>
        <time>2006-11-26T10:13:41Z</time>
      </trkpt>
      <trkpt lat="45.884099006652832" lon="10.844299793243408">
        <ele>69.352294921875</ele>
        <time>2006-11-26T10:13:47Z</time>
      </trkpt>
      <trkpt lat="45.884099006652832" lon="10.844235420227051">
        <ele>69.352294921875</ele>
        <time>2006-11-26T10:13:48Z</time>
      </trkpt>
      <trkpt lat="45.884120464324951" lon="10.843398571014404">
        <ele>69.352294921875</ele>
        <time>2006-11-26T10:13:59Z</time>
      </trkpt>
      <trkpt lat="45.884270668029785" lon="10.843183994293213">
        <ele>68.87158203125</ele>
        <time>2006-11-26T10:14:04Z</time>
      </trkpt>
      <trkpt lat="45.884463787078857" lon="10.843033790588379">
        <ele>68.87158203125</ele>
        <time>2006-11-26T10:14:09Z</time>
      </trkpt>
      <trkpt lat="45.884721279144287" lon="10.84301233291626">
        <ele>68.390869140625</ele>
        <time>2006-11-26T10:14:14Z</time>
      </trkpt>
      <trkpt lat="45.884785652160645" lon="10.842862129211426">
        <ele>68.87158203125</ele>
        <time>2006-11-26T10:14:18Z</time>
      </trkpt>
      <trkpt lat="45.884807109832764" lon="10.842218399047852">
        <ele>69.8328857421875</ele>
        <time>2006-11-26T10:14:28Z</time>
      </trkpt>
      <trkpt lat="45.884785652160645" lon="10.841875076293945">
        <ele>70.3134765625</ele>
        <time>2006-11-26T10:14:33Z</time>
      </trkpt>
      <trkpt lat="45.88465690612793" lon="10.841681957244873">
        <ele>70.794189453125</ele>
        <time>2006-11-26T10:14:37Z</time>
      </trkpt>
      <trkpt lat="45.884571075439453" lon="10.841639041900635">
        <ele>70.794189453125</ele>
        <time>2006-11-26T10:14:39Z</time>
      </trkpt>
      <trkpt lat="45.884442329406738" lon="10.841488838195801">
        <ele>70.794189453125</ele>
        <time>2006-11-26T10:14:43Z</time>
      </trkpt>
      <trkpt lat="45.884463787078857" lon="10.841188430786133">
        <ele>70.794189453125</ele>
        <time>2006-11-26T10:14:48Z</time>
      </trkpt>
      <trkpt lat="45.8843994140625" lon="10.84101676940918">
        <ele>70.3134765625</ele>
        <time>2006-11-26T10:14:51Z</time>
      </trkpt>
      <trkpt lat="45.884120464324951" lon="10.840716361999512">
        <ele>69.8328857421875</ele>
        <time>2006-11-26T10:15:00Z</time>
      </trkpt>
      <trkpt lat="45.884034633636475" lon="10.840694904327393">
        <ele>69.352294921875</ele>
        <time>2006-11-26T10:15:03Z</time>
      </trkpt>
      <trkpt lat="45.884013175964355" lon="10.840394496917725">
        <ele>69.352294921875</ele>
        <time>2006-11-26T10:15:09Z</time>
      </trkpt>
      <trkpt lat="45.884120464324951" lon="10.839965343475342">
        <ele>68.87158203125</ele>
        <time>2006-11-26T10:15:16Z</time>
      </trkpt>
      <trkpt lat="45.884206295013428" lon="10.83975076675415">
        <ele>68.87158203125</ele>
        <time>2006-11-26T10:15:20Z</time>
      </trkpt>
      <trkpt lat="45.884420871734619" lon="10.839643478393555">
        <ele>68.87158203125</ele>
        <time>2006-11-26T10:15:25Z</time>
      </trkpt>
      <trkpt lat="45.88465690612793" lon="10.83951473236084">
        <ele>67.4296875</ele>
        <time>2006-11-26T10:15:31Z</time>
      </trkpt>
      <trkpt lat="45.88465690612793" lon="10.839407444000244">
        <ele>67.4296875</ele>
        <time>2006-11-26T10:15:33Z</time>
      </trkpt>
      <trkpt lat="45.88465690612793" lon="10.8390212059021">
        <ele>66.948974609375</ele>
        <time>2006-11-26T10:15:40Z</time>
      </trkpt>
      <trkpt lat="45.884463787078857" lon="10.838828086853027">
        <ele>67.4296875</ele>
        <time>2006-11-26T10:15:46Z</time>
      </trkpt>
      <trkpt lat="45.884420871734619" lon="10.838849544525146">
        <ele>66.948974609375</ele>
        <time>2006-11-26T10:15:47Z</time>
      </trkpt>
      <trkpt lat="45.884034633636475" lon="10.838892459869385">
        <ele>66.948974609375</ele>
        <time>2006-11-26T10:15:56Z</time>
      </trkpt>
      <trkpt lat="45.883927345275879" lon="10.838892459869385">
        <ele>65.9876708984375</ele>
        <time>2006-11-26T10:15:59Z</time>
      </trkpt>
      <trkpt lat="45.883691310882568" lon="10.838720798492432">
        <ele>66.46826171875</ele>
        <time>2006-11-26T10:16:06Z</time>
      </trkpt>
      <trkpt lat="45.88364839553833" lon="10.838634967803955">
        <ele>66.948974609375</ele>
        <time>2006-11-26T10:16:10Z</time>
      </trkpt>
      <trkpt lat="45.883626937866211" lon="10.838613510131836">
        <ele>68.390869140625</ele>
        <time>2006-11-26T10:16:16Z</time>
      </trkpt>
      <trkpt lat="45.883519649505615" lon="10.838570594787598">
        <ele>68.390869140625</ele>
        <time>2006-11-26T10:16:21Z</time>
      </trkpt>
      <trkpt lat="45.883176326751709" lon="10.838463306427002">
        <ele>68.390869140625</ele>
        <time>2006-11-26T10:16:30Z</time>
      </trkpt>
      <trkpt lat="45.882468223571777" lon="10.838227272033691">
        <ele>67.9102783203125</ele>
        <time>2006-11-26T10:16:46Z</time>
      </trkpt>
      <trkpt lat="45.881974697113037" lon="10.838119983673096">
        <ele>69.352294921875</ele>
        <time>2006-11-26T10:16:57Z</time>
      </trkpt>
      <trkpt lat="45.881352424621582" lon="10.838055610656738">
        <ele>70.794189453125</ele>
        <time>2006-11-26T10:17:10Z</time>
      </trkpt>
      <trkpt lat="45.88064432144165" lon="10.837948322296143">
        <ele>73.1976318359375</ele>
        <time>2006-11-26T10:17:24Z</time>
      </trkpt>
      <trkpt lat="45.880043506622314" lon="10.837798118591309">
        <ele>74.6395263671875</ele>
        <time>2006-11-26T10:17:38Z</time>
      </trkpt>
      <trkpt lat="45.879786014556885" lon="10.837690830230713">
        <ele>76.0814208984375</ele>
        <time>2006-11-26T10:17:46Z</time>
      </trkpt>
      <trkpt lat="45.879614353179932" lon="10.837626457214355">
        <ele>78.0040283203125</ele>
        <time>2006-11-26T10:17:55Z</time>
      </trkpt>
      <trkpt lat="45.879485607147217" lon="10.837647914886475">
        <ele>81.3687744140625</ele>
        <time>2006-11-26T10:18:03Z</time>
      </trkpt>
      <trkpt lat="45.879335403442383" lon="10.837712287902832">
        <ele>82.330078125</ele>
        <time>2006-11-26T10:18:11Z</time>
      </trkpt>
      <trkpt lat="45.879228115081787" lon="10.837776660919189">
        <ele>83.2913818359375</ele>
        <time>2006-11-26T10:18:18Z</time>
      </trkpt>
      <trkpt lat="45.87916374206543" lon="10.83775520324707">
        <ele>83.2913818359375</ele>
        <time>2006-11-26T10:18:22Z</time>
      </trkpt>
      <trkpt lat="45.879056453704834" lon="10.83775520324707">
        <ele>82.810791015625</ele>
        <time>2006-11-26T10:18:31Z</time>
      </trkpt>
      <trkpt lat="45.879034996032715" lon="10.837798118591309">
        <ele>83.77197265625</ele>
        <time>2006-11-26T10:18:37Z</time>
      </trkpt>
      <trkpt lat="45.878949165344238" lon="10.837798118591309">
        <ele>80.88818359375</ele>
        <time>2006-11-26T10:18:51Z</time>
      </trkpt>
      <trkpt lat="45.878756046295166" lon="10.837841033935547">
        <ele>82.330078125</ele>
        <time>2006-11-26T10:18:59Z</time>
      </trkpt>
      <trkpt lat="45.878541469573975" lon="10.837926864624023">
        <ele>84.7333984375</ele>
        <time>2006-11-26T10:19:08Z</time>
      </trkpt>
      <trkpt lat="45.878262519836426" lon="10.838119983673096">
        <ele>88.0980224609375</ele>
        <time>2006-11-26T10:19:22Z</time>
      </trkpt>
      <trkpt lat="45.878005027770996" lon="10.83827018737793">
        <ele>88.5787353515625</ele>
        <time>2006-11-26T10:19:34Z</time>
      </trkpt>
      <trkpt lat="45.877790451049805" lon="10.838377475738525">
        <ele>88.5787353515625</ele>
        <time>2006-11-26T10:19:44Z</time>
      </trkpt>
      <trkpt lat="45.877575874328613" lon="10.838463306427002">
        <ele>88.5787353515625</ele>
        <time>2006-11-26T10:19:53Z</time>
      </trkpt>
      <trkpt lat="45.876717567443848" lon="10.838828086853027">
        <ele>93.8658447265625</ele>
        <time>2006-11-26T10:20:32Z</time>
      </trkpt>
      <trkpt lat="45.876588821411133" lon="10.838892459869385">
        <ele>95.7884521484375</ele>
        <time>2006-11-26T10:20:38Z</time>
      </trkpt>
      <trkpt lat="45.876395702362061" lon="10.83876371383667">
        <ele>100.114501953125</ele>
        <time>2006-11-26T10:20:49Z</time>
      </trkpt>
      <trkpt lat="45.876245498657227" lon="10.838613510131836">
        <ele>102.037109375</ele>
        <time>2006-11-26T10:20:58Z</time>
      </trkpt>
      <trkpt lat="45.876052379608154" lon="10.838141441345215">
        <ele>102.5177001953125</ele>
        <time>2006-11-26T10:21:17Z</time>
      </trkpt>
      <trkpt lat="45.875880718231201" lon="10.8380126953125">
        <ele>102.998291015625</ele>
        <time>2006-11-26T10:21:27Z</time>
      </trkpt>
      <trkpt lat="45.875558853149414" lon="10.837926864624023">
        <ele>104.9210205078125</ele>
        <time>2006-11-26T10:21:41Z</time>
      </trkpt>
      <trkpt lat="45.875258445739746" lon="10.837626457214355">
        <ele>105.4017333984375</ele>
        <time>2006-11-26T10:21:58Z</time>
      </trkpt>
      <trkpt lat="45.875086784362793" lon="10.837583541870117">
        <ele>108.28564453125</ele>
        <time>2006-11-26T10:22:06Z</time>
      </trkpt>
      <trkpt lat="45.874807834625244" lon="10.837368965148926">
        <ele>109.7276611328125</ele>
        <time>2006-11-26T10:22:21Z</time>
      </trkpt>
      <trkpt lat="45.874722003936768" lon="10.837368965148926">
        <ele>110.6888427734375</ele>
        <time>2006-11-26T10:22:25Z</time>
      </trkpt>
      <trkpt lat="45.874550342559814" lon="10.837497711181641">
        <ele>112.611572265625</ele>
        <time>2006-11-26T10:22:33Z</time>
      </trkpt>
      <trkpt lat="45.874292850494385" lon="10.837497711181641">
        <ele>112.611572265625</ele>
        <time>2006-11-26T10:22:43Z</time>
      </trkpt>
      <trkpt lat="45.873777866363525" lon="10.83726167678833">
        <ele>112.1309814453125</ele>
        <time>2006-11-26T10:23:07Z</time>
      </trkpt>
      <trkpt lat="45.873498916625977" lon="10.837154388427734">
        <ele>112.611572265625</ele>
        <time>2006-11-26T10:23:20Z</time>
      </trkpt>
      <trkpt lat="45.873391628265381" lon="10.8370041847229">
        <ele>114.5341796875</ele>
        <time>2006-11-26T10:23:28Z</time>
      </trkpt>
      <trkpt lat="45.873177051544189" lon="10.83676815032959">
        <ele>117.8988037109375</ele>
        <time>2006-11-26T10:23:40Z</time>
      </trkpt>
      <trkpt lat="45.872983932495117" lon="10.836746692657471">
        <ele>118.37939453125</ele>
        <time>2006-11-26T10:23:49Z</time>
      </trkpt>
      <trkpt lat="45.872747898101807" lon="10.836832523345947">
        <ele>118.860107421875</ele>
        <time>2006-11-26T10:23:58Z</time>
      </trkpt>
      <trkpt lat="45.872511863708496" lon="10.836875438690186">
        <ele>118.860107421875</ele>
        <time>2006-11-26T10:24:08Z</time>
      </trkpt>
      <trkpt lat="45.871760845184326" lon="10.836660861968994">
        <ele>120.7828369140625</ele>
        <time>2006-11-26T10:24:39Z</time>
      </trkpt>
      <trkpt lat="45.871739387512207" lon="10.836639404296875">
        <ele>120.7828369140625</ele>
        <time>2006-11-26T10:24:40Z</time>
      </trkpt>
      <trkpt lat="45.871524810791016" lon="10.836811065673828">
        <ele>124.1473388671875</ele>
        <time>2006-11-26T10:24:50Z</time>
      </trkpt>
      <trkpt lat="45.871331691741943" lon="10.836918354034424">
        <ele>128.473388671875</ele>
        <time>2006-11-26T10:24:58Z</time>
      </trkpt>
      <trkpt lat="45.871245861053467" lon="10.836811065673828">
        <ele>130.39599609375</ele>
        <time>2006-11-26T10:25:03Z</time>
      </trkpt>
      <trkpt lat="45.871202945709229" lon="10.836682319641113">
        <ele>132.318603515625</ele>
        <time>2006-11-26T10:25:10Z</time>
      </trkpt>
      <trkpt lat="45.871181488037109" lon="10.836660861968994">
        <ele>134.2412109375</ele>
        <time>2006-11-26T10:25:18Z</time>
      </trkpt>
      <trkpt lat="45.871224403381348" lon="10.836596488952637">
        <ele>139.5284423828125</ele>
        <time>2006-11-26T10:26:35Z</time>
      </trkpt>
      <trkpt lat="45.871181488037109" lon="10.836446285247803">
        <ele>140.0091552734375</ele>
        <time>2006-11-26T10:26:44Z</time>
      </trkpt>
      <trkpt lat="45.871117115020752" lon="10.83625316619873">
        <ele>140.4898681640625</ele>
        <time>2006-11-26T10:26:50Z</time>
      </trkpt>
      <trkpt lat="45.870838165283203" lon="10.835502147674561">
        <ele>141.4510498046875</ele>
        <time>2006-11-26T10:27:12Z</time>
      </trkpt>
      <trkpt lat="45.870559215545654" lon="10.83477258682251">
        <ele>141.4510498046875</ele>
        <time>2006-11-26T10:27:42Z</time>
      </trkpt>
      <trkpt lat="45.871052742004395" lon="10.83427906036377">
        <ele>141.4510498046875</ele>
        <time>2006-11-26T10:27:45Z</time>
      </trkpt>
      <trkpt lat="45.870859622955322" lon="10.834321975708008">
        <ele>141.4510498046875</ele>
        <time>2006-11-26T10:27:55Z</time>
      </trkpt>
      <trkpt lat="45.870709419250488" lon="10.834171772003174">
        <ele>143.8543701171875</ele>
        <time>2006-11-26T10:28:01Z</time>
      </trkpt>
      <trkpt lat="45.870687961578369" lon="10.834150314331055">
        <ele>144.335205078125</ele>
        <time>2006-11-26T10:28:02Z</time>
      </trkpt>
      <trkpt lat="45.87066650390625" lon="10.833957195281982">
        <ele>146.2578125</ele>
        <time>2006-11-26T10:28:08Z</time>
      </trkpt>
      <trkpt lat="45.870687961578369" lon="10.833313465118408">
        <ele>146.7384033203125</ele>
        <time>2006-11-26T10:28:26Z</time>
      </trkpt>
      <trkpt lat="45.870709419250488" lon="10.832948684692383">
        <ele>149.1416015625</ele>
        <time>2006-11-26T10:28:38Z</time>
      </trkpt>
      <trkpt lat="45.870559215545654" lon="10.832798480987549">
        <ele>149.622314453125</ele>
        <time>2006-11-26T10:28:44Z</time>
      </trkpt>
      <trkpt lat="45.870387554168701" lon="10.832691192626953">
        <ele>150.5836181640625</ele>
        <time>2006-11-26T10:28:51Z</time>
      </trkpt>
      <trkpt lat="45.870151519775391" lon="10.832798480987549">
        <ele>151.064208984375</ele>
        <time>2006-11-26T10:28:58Z</time>
      </trkpt>
      <trkpt lat="45.869958400726318" lon="10.832991600036621">
        <ele>151.544921875</ele>
        <time>2006-11-26T10:29:06Z</time>
      </trkpt>
      <trkpt lat="45.869700908660889" lon="10.83327054977417">
        <ele>151.544921875</ele>
        <time>2006-11-26T10:29:16Z</time>
      </trkpt>
      <trkpt lat="45.869443416595459" lon="10.8335280418396">
        <ele>151.544921875</ele>
        <time>2006-11-26T10:29:26Z</time>
      </trkpt>
      <trkpt lat="45.869228839874268" lon="10.833742618560791">
        <ele>151.544921875</ele>
        <time>2006-11-26T10:29:35Z</time>
      </trkpt>
      <trkpt lat="45.86890697479248" lon="10.834064483642578">
        <ele>151.544921875</ele>
        <time>2006-11-26T10:29:48Z</time>
      </trkpt>
      <trkpt lat="45.868735313415527" lon="10.83427906036377">
        <ele>154.428955078125</ele>
        <time>2006-11-26T10:29:57Z</time>
      </trkpt>
      <trkpt lat="45.868499279022217" lon="10.834450721740723">
        <ele>158.274169921875</ele>
        <time>2006-11-26T10:30:07Z</time>
      </trkpt>
      <trkpt lat="45.868327617645264" lon="10.83451509475708">
        <ele>162.1195068359375</ele>
        <time>2006-11-26T10:30:15Z</time>
      </trkpt>
      <trkpt lat="45.868263244628906" lon="10.834236145019531">
        <ele>164.0421142578125</ele>
        <time>2006-11-26T10:30:22Z</time>
      </trkpt>
      <trkpt lat="45.868155956268311" lon="10.83402156829834">
        <ele>164.522705078125</ele>
        <time>2006-11-26T10:30:30Z</time>
      </trkpt>
      <trkpt lat="45.867598056793213" lon="10.833635330200195">
        <ele>164.522705078125</ele>
        <time>2006-11-26T10:31:05Z</time>
      </trkpt>
      <trkpt lat="45.867362022399902" lon="10.834343433380127">
        <ele>165.00341796875</ele>
        <time>2006-11-26T10:31:09Z</time>
      </trkpt>
      <trkpt lat="45.867383480072021" lon="10.834386348724365">
        <ele>165.484130859375</ele>
        <time>2006-11-26T10:31:50Z</time>
      </trkpt>
      <trkpt lat="45.867254734039307" lon="10.834321975708008">
        <ele>167.40673828125</ele>
        <time>2006-11-26T10:31:58Z</time>
      </trkpt>
      <trkpt lat="45.866954326629639" lon="10.83425760269165">
        <ele>169.3294677734375</ele>
        <time>2006-11-26T10:32:14Z</time>
      </trkpt>
      <trkpt lat="45.866847038269043" lon="10.834300518035889">
        <ele>172.2132568359375</ele>
        <time>2006-11-26T10:32:20Z</time>
      </trkpt>
      <trkpt lat="45.866568088531494" lon="10.834107398986816">
        <ele>175.0972900390625</ele>
        <time>2006-11-26T10:32:35Z</time>
      </trkpt>
      <trkpt lat="45.865902900695801" lon="10.8335280418396">
        <ele>175.0972900390625</ele>
        <time>2006-11-26T10:33:17Z</time>
      </trkpt>
      <trkpt lat="45.865902900695801" lon="10.833141803741455">
        <ele>177.981201171875</ele>
        <time>2006-11-26T10:33:22Z</time>
      </trkpt>
      <trkpt lat="45.865538120269775" lon="10.833249092102051">
        <ele>179.90380859375</ele>
        <time>2006-11-26T10:33:36Z</time>
      </trkpt>
      <trkpt lat="45.865323543548584" lon="10.833313465118408">
        <ele>180.384521484375</ele>
        <time>2006-11-26T10:33:45Z</time>
      </trkpt>
      <trkpt lat="45.86517333984375" lon="10.834171772003174">
        <ele>211.146728515625</ele>
        <time>2006-11-26T10:33:53Z</time>
      </trkpt>
      <trkpt lat="45.865023136138916" lon="10.834236145019531">
        <ele>202.9754638671875</ele>
        <time>2006-11-26T10:34:02Z</time>
      </trkpt>
      <trkpt lat="45.864894390106201" lon="10.834150314331055">
        <ele>207.3013916015625</ele>
        <time>2006-11-26T10:34:10Z</time>
      </trkpt>
      <trkpt lat="45.864701271057129" lon="10.833935737609863">
        <ele>208.2628173828125</ele>
        <time>2006-11-26T10:34:22Z</time>
      </trkpt>
      <trkpt lat="45.864508152008057" lon="10.833871364593506">
        <ele>209.22412109375</ele>
        <time>2006-11-26T10:34:32Z</time>
      </trkpt>
      <trkpt lat="45.864250659942627" lon="10.833635330200195">
        <ele>210.1854248046875</ele>
        <time>2006-11-26T10:34:47Z</time>
      </trkpt>
      <trkpt lat="45.863113403320312" lon="10.832283496856689">
        <ele>210.1854248046875</ele>
        <time>2006-11-26T10:36:05Z</time>
      </trkpt>
      <trkpt lat="45.862598419189453" lon="10.832905769348145">
        <ele>209.704833984375</ele>
        <time>2006-11-26T10:36:15Z</time>
      </trkpt>
      <trkpt lat="45.862555503845215" lon="10.832927227020264">
        <ele>209.704833984375</ele>
        <time>2006-11-26T10:36:17Z</time>
      </trkpt>
      <trkpt lat="45.8624267578125" lon="10.83277702331543">
        <ele>209.704833984375</ele>
        <time>2006-11-26T10:36:25Z</time>
      </trkpt>
      <trkpt lat="45.862255096435547" lon="10.832626819610596">
        <ele>209.704833984375</ele>
        <time>2006-11-26T10:36:35Z</time>
      </trkpt>
      <trkpt lat="45.862019062042236" lon="10.832412242889404">
        <ele>210.666015625</ele>
        <time>2006-11-26T10:36:49Z</time>
      </trkpt>
      <trkpt lat="45.86193323135376" lon="10.832219123840332">
        <ele>213.0693359375</ele>
        <time>2006-11-26T10:37:02Z</time>
      </trkpt>
      <trkpt lat="45.861890316009521" lon="10.832004547119141">
        <ele>216.9146728515625</ele>
        <time>2006-11-26T10:37:15Z</time>
      </trkpt>
      <trkpt lat="45.861911773681641" lon="10.831747055053711">
        <ele>220.7598876953125</ele>
        <time>2006-11-26T10:37:27Z</time>
      </trkpt>
      <trkpt lat="45.861911773681641" lon="10.831553936004639">
        <ele>220.7598876953125</ele>
        <time>2006-11-26T10:37:35Z</time>
      </trkpt>
      <trkpt lat="45.861911773681641" lon="10.83127498626709">
        <ele>220.2791748046875</ele>
        <time>2006-11-26T10:37:47Z</time>
      </trkpt>
      <trkpt lat="45.861997604370117" lon="10.830953121185303">
        <ele>220.2791748046875</ele>
        <time>2006-11-26T10:38:02Z</time>
      </trkpt>
      <trkpt lat="45.862126350402832" lon="10.830695629119873">
        <ele>220.7598876953125</ele>
        <time>2006-11-26T10:38:15Z</time>
      </trkpt>
      <trkpt lat="45.862276554107666" lon="10.830309391021729">
        <ele>220.7598876953125</ele>
        <time>2006-11-26T10:38:34Z</time>
      </trkpt>
      <trkpt lat="45.862319469451904" lon="10.830051898956299">
        <ele>222.2017822265625</ele>
        <time>2006-11-26T10:38:45Z</time>
      </trkpt>
      <trkpt lat="45.862405300140381" lon="10.829858779907227">
        <ele>225.5665283203125</ele>
        <time>2006-11-26T10:38:55Z</time>
      </trkpt>
      <trkpt lat="45.862383842468262" lon="10.829579830169678">
        <ele>228.450439453125</ele>
        <time>2006-11-26T10:39:06Z</time>
      </trkpt>
      <trkpt lat="45.862190723419189" lon="10.829257965087891">
        <ele>231.3343505859375</ele>
        <time>2006-11-26T10:39:17Z</time>
      </trkpt>
      <trkpt lat="45.862019062042236" lon="10.82902193069458">
        <ele>231.3343505859375</ele>
        <time>2006-11-26T10:39:25Z</time>
      </trkpt>
      <trkpt lat="45.861868858337402" lon="10.828227996826172">
        <ele>232.7764892578125</ele>
        <time>2006-11-26T10:39:45Z</time>
      </trkpt>
      <trkpt lat="45.861761569976807" lon="10.828077793121338">
        <ele>232.2957763671875</ele>
        <time>2006-11-26T10:39:51Z</time>
      </trkpt>
      <trkpt lat="45.86167573928833" lon="10.828142166137695">
        <ele>232.2957763671875</ele>
        <time>2006-11-26T10:39:55Z</time>
      </trkpt>
      <trkpt lat="45.861504077911377" lon="10.828399658203125">
        <ele>232.2957763671875</ele>
        <time>2006-11-26T10:40:06Z</time>
      </trkpt>
      <trkpt lat="45.861289501190186" lon="10.828678607940674">
        <ele>232.2957763671875</ele>
        <time>2006-11-26T10:40:20Z</time>
      </trkpt>
      <trkpt lat="45.861096382141113" lon="10.828807353973389">
        <ele>232.2957763671875</ele>
        <time>2006-11-26T10:40:30Z</time>
      </trkpt>
      <trkpt lat="45.861053466796875" lon="10.829086303710938">
        <ele>235.1796875</ele>
        <time>2006-11-26T10:40:40Z</time>
      </trkpt>
      <trkpt lat="45.86092472076416" lon="10.82927942276001">
        <ele>238.5443115234375</ele>
        <time>2006-11-26T10:40:50Z</time>
      </trkpt>
      <trkpt lat="45.860753059387207" lon="10.829429626464844">
        <ele>238.5443115234375</ele>
        <time>2006-11-26T10:41:03Z</time>
      </trkpt>
      <trkpt lat="45.86066722869873" lon="10.829644203186035">
        <ele>240.467041015625</ele>
        <time>2006-11-26T10:41:14Z</time>
      </trkpt>
      <trkpt lat="45.860559940338135" lon="10.829923152923584">
        <ele>246.23486328125</ele>
        <time>2006-11-26T10:41:29Z</time>
      </trkpt>
      <trkpt lat="45.860517024993896" lon="10.830008983612061">
        <ele>247.196044921875</ele>
        <time>2006-11-26T10:41:35Z</time>
      </trkpt>
      <trkpt lat="45.860366821289063" lon="10.830051898956299">
        <ele>250.560791015625</ele>
        <time>2006-11-26T10:41:46Z</time>
      </trkpt>
      <trkpt lat="45.860216617584229" lon="10.830051898956299">
        <ele>254.406005859375</ele>
        <time>2006-11-26T10:41:58Z</time>
      </trkpt>
      <trkpt lat="45.860066413879395" lon="10.830180644989014">
        <ele>255.8480224609375</ele>
        <time>2006-11-26T10:42:08Z</time>
      </trkpt>
      <trkpt lat="45.860023498535156" lon="10.830223560333252">
        <ele>256.3287353515625</ele>
        <time>2006-11-26T10:42:11Z</time>
      </trkpt>
      <trkpt lat="45.860002040863037" lon="10.83026647567749">
        <ele>255.8480224609375</ele>
        <time>2006-11-26T10:42:15Z</time>
      </trkpt>
      <trkpt lat="45.859894752502441" lon="10.830502510070801">
        <ele>258.73193359375</ele>
        <time>2006-11-26T10:42:26Z</time>
      </trkpt>
      <trkpt lat="45.859851837158203" lon="10.830566883087158">
        <ele>259.693359375</ele>
        <time>2006-11-26T10:42:30Z</time>
      </trkpt>
      <trkpt lat="45.859701633453369" lon="10.830695629119873">
        <ele>263.53857421875</ele>
        <time>2006-11-26T10:42:40Z</time>
      </trkpt>
      <trkpt lat="45.859637260437012" lon="10.830845832824707">
        <ele>263.057861328125</ele>
        <time>2006-11-26T10:42:48Z</time>
      </trkpt>
      <trkpt lat="45.859551429748535" lon="10.831124782562256">
        <ele>267.3839111328125</ele>
        <time>2006-11-26T10:43:01Z</time>
      </trkpt>
      <trkpt lat="45.859465599060059" lon="10.831210613250732">
        <ele>269.3065185546875</ele>
        <time>2006-11-26T10:43:08Z</time>
      </trkpt>
      <trkpt lat="45.859336853027344" lon="10.831146240234375">
        <ele>271.709716796875</ele>
        <time>2006-11-26T10:43:17Z</time>
      </trkpt>
      <trkpt lat="45.859229564666748" lon="10.83101749420166">
        <ele>273.6324462890625</ele>
        <time>2006-11-26T10:43:26Z</time>
      </trkpt>
      <trkpt lat="45.859122276306152" lon="10.830802917480469">
        <ele>274.113037109375</ele>
        <time>2006-11-26T10:43:37Z</time>
      </trkpt>
      <trkpt lat="45.859036445617676" lon="10.830631256103516">
        <ele>276.516357421875</ele>
        <time>2006-11-26T10:43:47Z</time>
      </trkpt>
      <trkpt lat="45.858864784240723" lon="10.830502510070801">
        <ele>276.9970703125</ele>
        <time>2006-11-26T10:43:58Z</time>
      </trkpt>
      <trkpt lat="45.858714580535889" lon="10.830373764038086">
        <ele>277.958251953125</ele>
        <time>2006-11-26T10:44:09Z</time>
      </trkpt>
      <trkpt lat="45.858564376831055" lon="10.830309391021729">
        <ele>278.43896484375</ele>
        <time>2006-11-26T10:44:19Z</time>
      </trkpt>
      <trkpt lat="45.85843563079834" lon="10.830330848693848">
        <ele>280.3616943359375</ele>
        <time>2006-11-26T10:44:27Z</time>
      </trkpt>
      <trkpt lat="45.858263969421387" lon="10.830395221710205">
        <ele>282.2843017578125</ele>
        <time>2006-11-26T10:44:38Z</time>
      </trkpt>
      <trkpt lat="45.858199596405029" lon="10.830352306365967">
        <ele>284.2069091796875</ele>
        <time>2006-11-26T10:44:42Z</time>
      </trkpt>
      <trkpt lat="45.858328342437744" lon="10.830245018005371">
        <ele>284.6876220703125</ele>
        <time>2006-11-26T10:44:51Z</time>
      </trkpt>
      <trkpt lat="45.858500003814697" lon="10.830202102661133">
        <ele>287.5714111328125</ele>
        <time>2006-11-26T10:45:02Z</time>
      </trkpt>
      <trkpt lat="45.85867166519165" lon="10.830180644989014">
        <ele>289.494140625</ele>
        <time>2006-11-26T10:45:12Z</time>
      </trkpt>
      <trkpt lat="45.858843326568604" lon="10.830287933349609">
        <ele>290.9361572265625</ele>
        <time>2006-11-26T10:45:23Z</time>
      </trkpt>
      <trkpt lat="45.859079360961914" lon="10.830373764038086">
        <ele>292.378173828125</ele>
        <time>2006-11-26T10:45:37Z</time>
      </trkpt>
      <trkpt lat="45.859208106994629" lon="10.830502510070801">
        <ele>294.30078125</ele>
        <time>2006-11-26T10:45:46Z</time>
      </trkpt>
      <trkpt lat="45.859315395355225" lon="10.830631256103516">
        <ele>296.2235107421875</ele>
        <time>2006-11-26T10:45:55Z</time>
      </trkpt>
      <trkpt lat="45.859401226043701" lon="10.83052396774292">
        <ele>297.6654052734375</ele>
        <time>2006-11-26T10:46:02Z</time>
      </trkpt>
      <trkpt lat="45.859529972076416" lon="10.830309391021729">
        <ele>300.0687255859375</ele>
        <time>2006-11-26T10:46:14Z</time>
      </trkpt>
      <trkpt lat="45.859615802764893" lon="10.830180644989014">
        <ele>300.54931640625</ele>
        <time>2006-11-26T10:46:23Z</time>
      </trkpt>
      <trkpt lat="45.859572887420654" lon="10.830159187316895">
        <ele>301.0299072265625</ele>
        <time>2006-11-26T10:46:31Z</time>
      </trkpt>
      <trkpt lat="45.859444141387939" lon="10.830245018005371">
        <ele>305.836669921875</ele>
        <time>2006-11-26T10:46:39Z</time>
      </trkpt>
      <trkpt lat="45.859293937683105" lon="10.830159187316895">
        <ele>309.201171875</ele>
        <time>2006-11-26T10:46:49Z</time>
      </trkpt>
      <trkpt lat="45.859100818634033" lon="10.830116271972656">
        <ele>312.085205078125</ele>
        <time>2006-11-26T10:47:00Z</time>
      </trkpt>
      <trkpt lat="45.859036445617676" lon="10.830116271972656">
        <ele>314.0078125</ele>
        <time>2006-11-26T10:47:04Z</time>
      </trkpt>
      <trkpt lat="45.858907699584961" lon="10.830051898956299">
        <ele>314.4884033203125</ele>
        <time>2006-11-26T10:47:14Z</time>
      </trkpt>
      <trkpt lat="45.858821868896484" lon="10.829944610595703">
        <ele>314.4884033203125</ele>
        <time>2006-11-26T10:47:24Z</time>
      </trkpt>
      <trkpt lat="45.858714580535889" lon="10.829880237579346">
        <ele>314.4884033203125</ele>
        <time>2006-11-26T10:47:35Z</time>
      </trkpt>
      <trkpt lat="45.858607292175293" lon="10.829858779907227">
        <ele>317.85302734375</ele>
        <time>2006-11-26T10:47:47Z</time>
      </trkpt>
      <trkpt lat="45.858500003814697" lon="10.829837322235107">
        <ele>320.737060546875</ele>
        <time>2006-11-26T10:47:57Z</time>
      </trkpt>
      <trkpt lat="45.858414173126221" lon="10.829794406890869">
        <ele>322.178955078125</ele>
        <time>2006-11-26T10:48:07Z</time>
      </trkpt>
      <trkpt lat="45.858285427093506" lon="10.829815864562988">
        <ele>326.5048828125</ele>
        <time>2006-11-26T10:48:19Z</time>
      </trkpt>
      <trkpt lat="45.85817813873291" lon="10.829858779907227">
        <ele>330.8309326171875</ele>
        <time>2006-11-26T10:48:29Z</time>
      </trkpt>
      <trkpt lat="45.858070850372314" lon="10.829901695251465">
        <ele>333.7147216796875</ele>
        <time>2006-11-26T10:48:38Z</time>
      </trkpt>
      <trkpt lat="45.85792064666748" lon="10.829923152923584">
        <ele>332.2728271484375</ele>
        <time>2006-11-26T10:48:50Z</time>
      </trkpt>
      <trkpt lat="45.857770442962646" lon="10.829966068267822">
        <ele>332.2728271484375</ele>
        <time>2006-11-26T10:49:01Z</time>
      </trkpt>
      <trkpt lat="45.85768461227417" lon="10.830094814300537">
        <ele>332.2728271484375</ele>
        <time>2006-11-26T10:49:12Z</time>
      </trkpt>
      <trkpt lat="45.857641696929932" lon="10.83026647567749">
        <ele>333.7147216796875</ele>
        <time>2006-11-26T10:49:23Z</time>
      </trkpt>
      <trkpt lat="45.857641696929932" lon="10.83026647567749">
        <ele>333.7147216796875</ele>
        <time>2006-11-26T10:49:24Z</time>
      </trkpt>
      <trkpt lat="45.857641696929932" lon="10.830330848693848">
        <ele>334.1954345703125</ele>
        <time>2006-11-26T10:49:28Z</time>
      </trkpt>
      <trkpt lat="45.857620239257813" lon="10.830545425415039">
        <ele>333.7147216796875</ele>
        <time>2006-11-26T10:49:42Z</time>
      </trkpt>
      <trkpt lat="45.857577323913574" lon="10.830588340759277">
        <ele>333.7147216796875</ele>
        <time>2006-11-26T10:49:47Z</time>
      </trkpt>
      <trkpt lat="45.857555866241455" lon="10.830481052398682">
        <ele>334.1954345703125</ele>
        <time>2006-11-26T10:49:55Z</time>
      </trkpt>
      <trkpt lat="45.857555866241455" lon="10.830438137054443">
        <ele>334.6761474609375</ele>
        <time>2006-11-26T10:49:57Z</time>
      </trkpt>
      <trkpt lat="45.857598781585693" lon="10.830202102661133">
        <ele>336.1181640625</ele>
        <time>2006-11-26T10:50:12Z</time>
      </trkpt>
      <trkpt lat="45.857577323913574" lon="10.83003044128418">
        <ele>337.56005859375</ele>
        <time>2006-11-26T10:50:22Z</time>
      </trkpt>
      <trkpt lat="45.857555866241455" lon="10.829944610595703">
        <ele>338.521484375</ele>
        <time>2006-11-26T10:50:28Z</time>
      </trkpt>
      <trkpt lat="45.857620239257813" lon="10.829730033874512">
        <ele>338.040771484375</ele>
        <time>2006-11-26T10:50:41Z</time>
      </trkpt>
      <trkpt lat="45.85768461227417" lon="10.829644203186035">
        <ele>338.521484375</ele>
        <time>2006-11-26T10:50:48Z</time>
      </trkpt>
      <trkpt lat="45.857834815979004" lon="10.829665660858154">
        <ele>339.0020751953125</ele>
        <time>2006-11-26T10:51:00Z</time>
      </trkpt>
      <trkpt lat="45.857963562011719" lon="10.829687118530273">
        <ele>341.4052734375</ele>
        <time>2006-11-26T10:51:12Z</time>
      </trkpt>
      <trkpt lat="45.858113765716553" lon="10.829665660858154">
        <ele>342.36669921875</ele>
        <time>2006-11-26T10:51:24Z</time>
      </trkpt>
      <trkpt lat="45.858263969421387" lon="10.829558372497559">
        <ele>342.8472900390625</ele>
        <time>2006-11-26T10:51:38Z</time>
      </trkpt>
      <trkpt lat="45.858371257781982" lon="10.829451084136963">
        <ele>342.8472900390625</ele>
        <time>2006-11-26T10:51:51Z</time>
      </trkpt>
      <trkpt lat="45.858414173126221" lon="10.829472541809082">
        <ele>342.8472900390625</ele>
        <time>2006-11-26T10:51:53Z</time>
      </trkpt>
      <trkpt lat="45.858521461486816" lon="10.829601287841797">
        <ele>344.2894287109375</ele>
        <time>2006-11-26T10:52:06Z</time>
      </trkpt>
      <trkpt lat="45.858628749847412" lon="10.829579830169678">
        <ele>346.2120361328125</ele>
        <time>2006-11-26T10:52:16Z</time>
      </trkpt>
      <trkpt lat="45.858757495880127" lon="10.829601287841797">
        <ele>348.1346435546875</ele>
        <time>2006-11-26T10:52:27Z</time>
      </trkpt>
      <trkpt lat="45.858843326568604" lon="10.829708576202393">
        <ele>349.0958251953125</ele>
        <time>2006-11-26T10:52:36Z</time>
      </trkpt>
      <trkpt lat="45.858864784240723" lon="10.829708576202393">
        <ele>349.5765380859375</ele>
        <time>2006-11-26T10:52:38Z</time>
      </trkpt>
      <trkpt lat="45.858907699584961" lon="10.829708576202393">
        <ele>350.0572509765625</ele>
        <time>2006-11-26T10:52:42Z</time>
      </trkpt>
      <trkpt lat="45.85892915725708" lon="10.829558372497559">
        <ele>350.537841796875</ele>
        <time>2006-11-26T10:52:52Z</time>
      </trkpt>
      <trkpt lat="45.858886241912842" lon="10.82951545715332">
        <ele>351.9798583984375</ele>
        <time>2006-11-26T10:52:56Z</time>
      </trkpt>
      <trkpt lat="45.858714580535889" lon="10.829493999481201">
        <ele>353.421875</ele>
        <time>2006-11-26T10:53:08Z</time>
      </trkpt>
      <trkpt lat="45.85869312286377" lon="10.829493999481201">
        <ele>353.902587890625</ele>
        <time>2006-11-26T10:53:11Z</time>
      </trkpt>
      <trkpt lat="45.858585834503174" lon="10.829472541809082">
        <ele>355.344482421875</ele>
        <time>2006-11-26T10:53:19Z</time>
      </trkpt>
      <trkpt lat="45.858542919158936" lon="10.829451084136963">
        <ele>355.8251953125</ele>
        <time>2006-11-26T10:53:23Z</time>
      </trkpt>
      <trkpt lat="45.85843563079834" lon="10.829343795776367">
        <ele>357.26708984375</ele>
        <time>2006-11-26T10:53:33Z</time>
      </trkpt>
      <trkpt lat="45.858328342437744" lon="10.82927942276001">
        <ele>357.26708984375</ele>
        <time>2006-11-26T10:53:43Z</time>
      </trkpt>
      <trkpt lat="45.858221054077148" lon="10.829343795776367">
        <ele>359.67041015625</ele>
        <time>2006-11-26T10:53:54Z</time>
      </trkpt>
      <trkpt lat="45.858070850372314" lon="10.829365253448486">
        <ele>360.6317138671875</ele>
        <time>2006-11-26T10:54:06Z</time>
      </trkpt>
      <trkpt lat="45.8579421043396" lon="10.829386711120605">
        <ele>363.5157470703125</ele>
        <time>2006-11-26T10:54:18Z</time>
      </trkpt>
      <trkpt lat="45.857770442962646" lon="10.829343795776367">
        <ele>363.996337890625</ele>
        <time>2006-11-26T10:54:33Z</time>
      </trkpt>
      <trkpt lat="45.857598781585693" lon="10.829386711120605">
        <ele>366.3995361328125</ele>
        <time>2006-11-26T10:54:46Z</time>
      </trkpt>
      <trkpt lat="45.857491493225098" lon="10.829365253448486">
        <ele>367.3609619140625</ele>
        <time>2006-11-26T10:54:55Z</time>
      </trkpt>
      <trkpt lat="45.857276916503906" lon="10.829322338104248">
        <ele>367.841552734375</ele>
        <time>2006-11-26T10:55:13Z</time>
      </trkpt>
      <trkpt lat="45.857169628143311" lon="10.829429626464844">
        <ele>370.244873046875</ele>
        <time>2006-11-26T10:55:24Z</time>
      </trkpt>
      <trkpt lat="45.857062339782715" lon="10.829558372497559">
        <ele>372.648193359375</ele>
        <time>2006-11-26T10:55:35Z</time>
      </trkpt>
      <trkpt lat="45.856997966766357" lon="10.829751491546631">
        <ele>374.090087890625</ele>
        <time>2006-11-26T10:55:47Z</time>
      </trkpt>
      <trkpt lat="45.857019424438477" lon="10.829944610595703">
        <ele>375.051513671875</ele>
        <time>2006-11-26T10:55:58Z</time>
      </trkpt>
      <trkpt lat="45.857062339782715" lon="10.830137729644775">
        <ele>376.9742431640625</ele>
        <time>2006-11-26T10:56:09Z</time>
      </trkpt>
      <trkpt lat="45.857019424438477" lon="10.830287933349609">
        <ele>378.4161376953125</ele>
        <time>2006-11-26T10:56:19Z</time>
      </trkpt>
      <trkpt lat="45.856955051422119" lon="10.830223560333252">
        <ele>379.8580322265625</ele>
        <time>2006-11-26T10:56:26Z</time>
      </trkpt>
      <trkpt lat="45.856912136077881" lon="10.830008983612061">
        <ele>381.7806396484375</ele>
        <time>2006-11-26T10:56:39Z</time>
      </trkpt>
      <trkpt lat="45.856847763061523" lon="10.829837322235107">
        <ele>383.22265625</ele>
        <time>2006-11-26T10:56:50Z</time>
      </trkpt>
      <trkpt lat="45.856826305389404" lon="10.829730033874512">
        <ele>383.22265625</ele>
        <time>2006-11-26T10:56:57Z</time>
      </trkpt>
      <trkpt lat="45.856869220733643" lon="10.82951545715332">
        <ele>384.18408203125</ele>
        <time>2006-11-26T10:57:10Z</time>
      </trkpt>
      <trkpt lat="45.856997966766357" lon="10.829322338104248">
        <ele>387.0679931640625</ele>
        <time>2006-11-26T10:57:23Z</time>
      </trkpt>
      <trkpt lat="45.857040882110596" lon="10.82927942276001">
        <ele>388.029296875</ele>
        <time>2006-11-26T10:57:27Z</time>
      </trkpt>
      <trkpt lat="45.857062339782715" lon="10.829172134399414">
        <ele>389.951904296875</ele>
        <time>2006-11-26T10:57:40Z</time>
      </trkpt>
      <trkpt lat="45.857040882110596" lon="10.829193592071533">
        <ele>386.58740234375</ele>
        <time>2006-11-26T10:58:36Z</time>
      </trkpt>
      <trkpt lat="45.856976509094238" lon="10.829193592071533">
        <ele>387.0679931640625</ele>
        <time>2006-11-26T10:58:40Z</time>
      </trkpt>
      <trkpt lat="45.856869220733643" lon="10.829343795776367">
        <ele>388.510009765625</ele>
        <time>2006-11-26T10:58:50Z</time>
      </trkpt>
      <trkpt lat="45.856783390045166" lon="10.829472541809082">
        <ele>389.951904296875</ele>
        <time>2006-11-26T10:58:58Z</time>
      </trkpt>
      <trkpt lat="45.85667610168457" lon="10.829644203186035">
        <ele>392.3553466796875</ele>
        <time>2006-11-26T10:59:07Z</time>
      </trkpt>
      <trkpt lat="45.856525897979736" lon="10.829901695251465">
        <ele>394.758544921875</ele>
        <time>2006-11-26T10:59:20Z</time>
      </trkpt>
      <trkpt lat="45.856525897979736" lon="10.830245018005371">
        <ele>396.2005615234375</ele>
        <time>2006-11-26T10:59:33Z</time>
      </trkpt>
      <trkpt lat="45.856525897979736" lon="10.830330848693848">
        <ele>396.68115234375</ele>
        <time>2006-11-26T10:59:37Z</time>
      </trkpt>
      <trkpt lat="45.856504440307617" lon="10.830416679382324">
        <ele>397.1617431640625</ele>
        <time>2006-11-26T10:59:40Z</time>
      </trkpt>
      <trkpt lat="45.856611728668213" lon="10.83052396774292">
        <ele>396.68115234375</ele>
        <time>2006-11-26T10:59:47Z</time>
      </trkpt>
      <trkpt lat="45.856633186340332" lon="10.830545425415039">
        <ele>396.68115234375</ele>
        <time>2006-11-26T10:59:48Z</time>
      </trkpt>
      <trkpt lat="45.85667610168457" lon="10.83052396774292">
        <ele>396.2005615234375</ele>
        <time>2006-11-26T10:59:55Z</time>
      </trkpt>
      <trkpt lat="45.85667610168457" lon="10.83052396774292">
        <ele>397.6424560546875</ele>
        <time>2006-11-26T11:00:17Z</time>
      </trkpt>
      <trkpt lat="45.856654644012451" lon="10.83052396774292">
        <ele>402.9296875</ele>
        <time>2006-11-26T11:04:56Z</time>
      </trkpt>
      <trkpt lat="45.856654644012451" lon="10.83052396774292">
        <ele>403.410400390625</ele>
        <time>2006-11-26T11:05:08Z</time>
      </trkpt>
      <trkpt lat="45.856568813323975" lon="10.830459594726563">
        <ele>403.89111328125</ele>
        <time>2006-11-26T11:05:15Z</time>
      </trkpt>
      <trkpt lat="45.856525897979736" lon="10.830459594726563">
        <ele>403.89111328125</ele>
        <time>2006-11-26T11:05:18Z</time>
      </trkpt>
      <trkpt lat="45.856482982635498" lon="10.830373764038086">
        <ele>404.3717041015625</ele>
        <time>2006-11-26T11:05:22Z</time>
      </trkpt>
      <trkpt lat="45.85644006729126" lon="10.830159187316895">
        <ele>405.3330078125</ele>
        <time>2006-11-26T11:05:31Z</time>
      </trkpt>
      <trkpt lat="45.856311321258545" lon="10.829987525939941">
        <ele>405.3330078125</ele>
        <time>2006-11-26T11:05:42Z</time>
      </trkpt>
      <trkpt lat="45.856161117553711" lon="10.829880237579346">
        <ele>407.255615234375</ele>
        <time>2006-11-26T11:05:52Z</time>
      </trkpt>
      <trkpt lat="45.855989456176758" lon="10.829815864562988">
        <ele>409.6590576171875</ele>
        <time>2006-11-26T11:06:02Z</time>
      </trkpt>
      <trkpt lat="45.855860710144043" lon="10.829730033874512">
        <ele>409.6590576171875</ele>
        <time>2006-11-26T11:06:10Z</time>
      </trkpt>
      <trkpt lat="45.85568904876709" lon="10.829708576202393">
        <ele>410.6202392578125</ele>
        <time>2006-11-26T11:06:21Z</time>
      </trkpt>
      <trkpt lat="45.855517387390137" lon="10.829687118530273">
        <ele>411.1009521484375</ele>
        <time>2006-11-26T11:06:31Z</time>
      </trkpt>
      <trkpt lat="45.855388641357422" lon="10.829622745513916">
        <ele>412.5428466796875</ele>
        <time>2006-11-26T11:06:41Z</time>
      </trkpt>
      <trkpt lat="45.855216979980469" lon="10.829451084136963">
        <ele>413.0235595703125</ele>
        <time>2006-11-26T11:06:53Z</time>
      </trkpt>
      <trkpt lat="45.855045318603516" lon="10.829257965087891">
        <ele>413.5042724609375</ele>
        <time>2006-11-26T11:07:06Z</time>
      </trkpt>
      <trkpt lat="45.854916572570801" lon="10.829129219055176">
        <ele>416.38818359375</ele>
        <time>2006-11-26T11:07:16Z</time>
      </trkpt>
      <trkpt lat="45.854723453521729" lon="10.829064846038818">
        <ele>418.79150390625</ele>
        <time>2006-11-26T11:07:28Z</time>
      </trkpt>
      <trkpt lat="45.854487419128418" lon="10.82902193069458">
        <ele>419.272216796875</ele>
        <time>2006-11-26T11:07:42Z</time>
      </trkpt>
      <trkpt lat="45.854358673095703" lon="10.828979015350342">
        <ele>420.2333984375</ele>
        <time>2006-11-26T11:07:50Z</time>
      </trkpt>
      <trkpt lat="45.85418701171875" lon="10.828871726989746">
        <ele>421.6754150390625</ele>
        <time>2006-11-26T11:08:02Z</time>
      </trkpt>
      <trkpt lat="45.854015350341797" lon="10.82876443862915">
        <ele>423.5980224609375</ele>
        <time>2006-11-26T11:08:14Z</time>
      </trkpt>
      <trkpt lat="45.853843688964844" lon="10.828657150268555">
        <ele>426.4820556640625</ele>
        <time>2006-11-26T11:08:26Z</time>
      </trkpt>
      <trkpt lat="45.85369348526001" lon="10.828571319580078">
        <ele>429.8465576171875</ele>
        <time>2006-11-26T11:08:37Z</time>
      </trkpt>
      <trkpt lat="45.853564739227295" lon="10.828442573547363">
        <ele>429.8465576171875</ele>
        <time>2006-11-26T11:08:49Z</time>
      </trkpt>
      <trkpt lat="45.85343599319458" lon="10.828313827514648">
        <ele>429.8465576171875</ele>
        <time>2006-11-26T11:09:00Z</time>
      </trkpt>
      <trkpt lat="45.853350162506104" lon="10.828142166137695">
        <ele>430.8079833984375</ele>
        <time>2006-11-26T11:09:11Z</time>
      </trkpt>
      <trkpt lat="45.853221416473389" lon="10.8280348777771">
        <ele>431.28857421875</ele>
        <time>2006-11-26T11:09:23Z</time>
      </trkpt>
      <trkpt lat="45.853049755096436" lon="10.828077793121338">
        <ele>434.6533203125</ele>
        <time>2006-11-26T11:09:35Z</time>
      </trkpt>
      <trkpt lat="45.852878093719482" lon="10.828099250793457">
        <ele>437.0565185546875</ele>
        <time>2006-11-26T11:09:47Z</time>
      </trkpt>
      <trkpt lat="45.852727890014648" lon="10.828077793121338">
        <ele>438.49853515625</ele>
        <time>2006-11-26T11:09:58Z</time>
      </trkpt>
      <trkpt lat="45.852599143981934" lon="10.8280348777771">
        <ele>440.4212646484375</ele>
        <time>2006-11-26T11:10:08Z</time>
      </trkpt>
      <trkpt lat="45.852513313293457" lon="10.827991962432861">
        <ele>442.3438720703125</ele>
        <time>2006-11-26T11:10:16Z</time>
      </trkpt>
      <trkpt lat="45.852363109588623" lon="10.827820301055908">
        <ele>445.2276611328125</ele>
        <time>2006-11-26T11:10:29Z</time>
      </trkpt>
      <trkpt lat="45.852255821228027" lon="10.827648639678955">
        <ele>444.2664794921875</ele>
        <time>2006-11-26T11:10:41Z</time>
      </trkpt>
      <trkpt lat="45.852127075195313" lon="10.827584266662598">
        <ele>446.1890869140625</ele>
        <time>2006-11-26T11:10:50Z</time>
      </trkpt>
      <trkpt lat="45.851998329162598" lon="10.827541351318359">
        <ele>446.669677734375</ele>
        <time>2006-11-26T11:11:00Z</time>
      </trkpt>
      <trkpt lat="45.851869583129883" lon="10.82751989364624">
        <ele>448.11181640625</ele>
        <time>2006-11-26T11:11:10Z</time>
      </trkpt>
      <trkpt lat="45.851762294769287" lon="10.827412605285645">
        <ele>450.034423828125</ele>
        <time>2006-11-26T11:11:19Z</time>
      </trkpt>
      <trkpt lat="45.851719379425049" lon="10.827262401580811">
        <ele>451.476318359375</ele>
        <time>2006-11-26T11:11:28Z</time>
      </trkpt>
      <trkpt lat="45.851676464080811" lon="10.827112197875977">
        <ele>453.879638671875</ele>
        <time>2006-11-26T11:11:36Z</time>
      </trkpt>
      <trkpt lat="45.851590633392334" lon="10.826940536499023">
        <ele>456.7635498046875</ele>
        <time>2006-11-26T11:11:47Z</time>
      </trkpt>
      <trkpt lat="45.851483345031738" lon="10.826854705810547">
        <ele>459.6475830078125</ele>
        <time>2006-11-26T11:11:57Z</time>
      </trkpt>
      <trkpt lat="45.851354598999023" lon="10.826833248138428">
        <ele>462.05078125</ele>
        <time>2006-11-26T11:12:06Z</time>
      </trkpt>
      <trkpt lat="45.851204395294189" lon="10.826919078826904">
        <ele>464.934814453125</ele>
        <time>2006-11-26T11:12:17Z</time>
      </trkpt>
      <trkpt lat="45.851032733917236" lon="10.827004909515381">
        <ele>467.338134765625</ele>
        <time>2006-11-26T11:12:29Z</time>
      </trkpt>
      <trkpt lat="45.850925445556641" lon="10.827090740203857">
        <ele>468.29931640625</ele>
        <time>2006-11-26T11:12:37Z</time>
      </trkpt>
      <trkpt lat="45.850753784179688" lon="10.827069282531738">
        <ele>470.221923828125</ele>
        <time>2006-11-26T11:12:48Z</time>
      </trkpt>
      <trkpt lat="45.850646495819092" lon="10.826919078826904">
        <ele>471.183349609375</ele>
        <time>2006-11-26T11:12:58Z</time>
      </trkpt>
      <trkpt lat="45.850625038146973" lon="10.826747417449951">
        <ele>471.6639404296875</ele>
        <time>2006-11-26T11:13:07Z</time>
      </trkpt>
      <trkpt lat="45.850710868835449" lon="10.826554298400879">
        <ele>472.1446533203125</ele>
        <time>2006-11-26T11:13:17Z</time>
      </trkpt>
      <trkpt lat="45.850861072540283" lon="10.826468467712402">
        <ele>474.0672607421875</ele>
        <time>2006-11-26T11:13:28Z</time>
      </trkpt>
      <trkpt lat="45.851011276245117" lon="10.826339721679687">
        <ele>475.50927734375</ele>
        <time>2006-11-26T11:13:40Z</time>
      </trkpt>
      <trkpt lat="45.851140022277832" lon="10.826168060302734">
        <ele>475.9898681640625</ele>
        <time>2006-11-26T11:13:52Z</time>
      </trkpt>
      <trkpt lat="45.851225852966309" lon="10.825974941253662">
        <ele>476.9512939453125</ele>
        <time>2006-11-26T11:14:03Z</time>
      </trkpt>
      <trkpt lat="45.851397514343262" lon="10.825889110565186">
        <ele>480.31591796875</ele>
        <time>2006-11-26T11:14:14Z</time>
      </trkpt>
      <trkpt lat="45.851547718048096" lon="10.825974941253662">
        <ele>481.2772216796875</ele>
        <time>2006-11-26T11:14:25Z</time>
      </trkpt>
      <trkpt lat="45.851740837097168" lon="10.826103687286377">
        <ele>482.238525390625</ele>
        <time>2006-11-26T11:14:38Z</time>
      </trkpt>
      <trkpt lat="45.851848125457764" lon="10.826168060302734">
        <ele>483.680419921875</ele>
        <time>2006-11-26T11:14:45Z</time>
      </trkpt>
      <trkpt lat="45.852019786834717" lon="10.826296806335449">
        <ele>484.641845703125</ele>
        <time>2006-11-26T11:14:57Z</time>
      </trkpt>
      <trkpt lat="45.85219144821167" lon="10.826425552368164">
        <ele>485.1224365234375</ele>
        <time>2006-11-26T11:15:10Z</time>
      </trkpt>
      <trkpt lat="45.852363109588623" lon="10.82653284072876">
        <ele>486.564453125</ele>
        <time>2006-11-26T11:15:21Z</time>
      </trkpt>
      <trkpt lat="45.852470397949219" lon="10.826575756072998">
        <ele>488.0064697265625</ele>
        <time>2006-11-26T11:15:30Z</time>
      </trkpt>
      <trkpt lat="45.852491855621338" lon="10.826575756072998">
        <ele>488.0064697265625</ele>
        <time>2006-11-26T11:15:32Z</time>
      </trkpt>
      <trkpt lat="45.852470397949219" lon="10.826404094696045">
        <ele>486.564453125</ele>
        <time>2006-11-26T11:15:41Z</time>
      </trkpt>
      <trkpt lat="45.852320194244385" lon="10.826232433319092">
        <ele>487.0450439453125</ele>
        <time>2006-11-26T11:15:54Z</time>
      </trkpt>
      <trkpt lat="45.852277278900146" lon="10.82603931427002">
        <ele>487.525634765625</ele>
        <time>2006-11-26T11:16:03Z</time>
      </trkpt>
      <trkpt lat="45.85219144821167" lon="10.825760364532471">
        <ele>488.0064697265625</ele>
        <time>2006-11-26T11:16:17Z</time>
      </trkpt>
      <trkpt lat="45.852105617523193" lon="10.825545787811279">
        <ele>489.4483642578125</ele>
        <time>2006-11-26T11:16:29Z</time>
      </trkpt>
      <trkpt lat="45.851998329162598" lon="10.825374126434326">
        <ele>493.2935791015625</ele>
        <time>2006-11-26T11:16:39Z</time>
      </trkpt>
      <trkpt lat="45.851826667785645" lon="10.825223922729492">
        <ele>496.6583251953125</ele>
        <time>2006-11-26T11:16:51Z</time>
      </trkpt>
      <trkpt lat="45.85169792175293" lon="10.825116634368896">
        <ele>499.0615234375</ele>
        <time>2006-11-26T11:17:02Z</time>
      </trkpt>
      <trkpt lat="45.851547718048096" lon="10.825052261352539">
        <ele>500.984130859375</ele>
        <time>2006-11-26T11:17:12Z</time>
      </trkpt>
      <trkpt lat="45.851418972015381" lon="10.824987888336182">
        <ele>501.46484375</ele>
        <time>2006-11-26T11:17:21Z</time>
      </trkpt>
      <trkpt lat="45.851290225982666" lon="10.824880599975586">
        <ele>502.4261474609375</ele>
        <time>2006-11-26T11:17:32Z</time>
      </trkpt>
      <trkpt lat="45.851225852966309" lon="10.824837684631348">
        <ele>502.4261474609375</ele>
        <time>2006-11-26T11:17:36Z</time>
      </trkpt>
      <trkpt lat="45.851161479949951" lon="10.824751853942871">
        <ele>503.8681640625</ele>
        <time>2006-11-26T11:17:42Z</time>
      </trkpt>
      <trkpt lat="45.851054191589355" lon="10.824623107910156">
        <ele>505.7908935546875</ele>
        <time>2006-11-26T11:17:51Z</time>
      </trkpt>
      <trkpt lat="45.850925445556641" lon="10.824494361877441">
        <ele>507.2327880859375</ele>
        <time>2006-11-26T11:18:01Z</time>
      </trkpt>
      <trkpt lat="45.85094690322876" lon="10.824387073516846">
        <ele>508.194091796875</ele>
        <time>2006-11-26T11:18:06Z</time>
      </trkpt>
      <trkpt lat="45.851032733917236" lon="10.824451446533203">
        <ele>510.11669921875</ele>
        <time>2006-11-26T11:18:13Z</time>
      </trkpt>
      <trkpt lat="45.85118293762207" lon="10.82453727722168">
        <ele>512.0394287109375</ele>
        <time>2006-11-26T11:18:24Z</time>
      </trkpt>
      <trkpt lat="45.851247310638428" lon="10.824494361877441">
        <ele>513.000732421875</ele>
        <time>2006-11-26T11:18:30Z</time>
      </trkpt>
      <trkpt lat="45.851397514343262" lon="10.824258327484131">
        <ele>515.404052734375</ele>
        <time>2006-11-26T11:18:44Z</time>
      </trkpt>
      <trkpt lat="45.851397514343262" lon="10.82427978515625">
        <ele>515.404052734375</ele>
        <time>2006-11-26T11:18:52Z</time>
      </trkpt>
      <trkpt lat="45.851397514343262" lon="10.824322700500488">
        <ele>519.249267578125</ele>
        <time>2006-11-26T11:20:18Z</time>
      </trkpt>
      <trkpt lat="45.8514404296875" lon="10.824258327484131">
        <ele>518.7685546875</ele>
        <time>2006-11-26T11:20:22Z</time>
      </trkpt>
      <trkpt lat="45.8514404296875" lon="10.824193954467773">
        <ele>519.249267578125</ele>
        <time>2006-11-26T11:20:25Z</time>
      </trkpt>
      <trkpt lat="45.8514404296875" lon="10.824043750762939">
        <ele>520.2105712890625</ele>
        <time>2006-11-26T11:20:33Z</time>
      </trkpt>
      <trkpt lat="45.851333141326904" lon="10.823979377746582">
        <ele>520.2105712890625</ele>
        <time>2006-11-26T11:20:45Z</time>
      </trkpt>
      <trkpt lat="45.851268768310547" lon="10.823893547058105">
        <ele>522.6138916015625</ele>
        <time>2006-11-26T11:20:53Z</time>
      </trkpt>
      <trkpt lat="45.851161479949951" lon="10.82378625869751">
        <ele>524.0557861328125</ele>
        <time>2006-11-26T11:21:04Z</time>
      </trkpt>
      <trkpt lat="45.851054191589355" lon="10.823700428009033">
        <ele>525.0172119140625</ele>
        <time>2006-11-26T11:21:16Z</time>
      </trkpt>
      <trkpt lat="45.850903987884521" lon="10.823657512664795">
        <ele>527.42041015625</ele>
        <time>2006-11-26T11:21:29Z</time>
      </trkpt>
      <trkpt lat="45.850775241851807" lon="10.823657512664795">
        <ele>530.304443359375</ele>
        <time>2006-11-26T11:21:39Z</time>
      </trkpt>
      <trkpt lat="45.850603580474854" lon="10.823678970336914">
        <ele>531.746337890625</ele>
        <time>2006-11-26T11:21:52Z</time>
      </trkpt>
      <trkpt lat="45.850474834442139" lon="10.823678970336914">
        <ele>532.707763671875</ele>
        <time>2006-11-26T11:22:03Z</time>
      </trkpt>
      <trkpt lat="45.850367546081543" lon="10.823636054992676">
        <ele>534.63037109375</ele>
        <time>2006-11-26T11:22:13Z</time>
      </trkpt>
      <trkpt lat="45.850217342376709" lon="10.82352876663208">
        <ele>534.63037109375</ele>
        <time>2006-11-26T11:22:24Z</time>
      </trkpt>
      <trkpt lat="45.850110054016113" lon="10.823314189910889">
        <ele>535.591552734375</ele>
        <time>2006-11-26T11:22:34Z</time>
      </trkpt>
      <trkpt lat="45.850002765655518" lon="10.823142528533936">
        <ele>537.03369140625</ele>
        <time>2006-11-26T11:22:44Z</time>
      </trkpt>
      <trkpt lat="45.849831104278564" lon="10.82303524017334">
        <ele>538.956298828125</ele>
        <time>2006-11-26T11:22:55Z</time>
      </trkpt>
      <trkpt lat="45.849637985229492" lon="10.822949409484863">
        <ele>538.4757080078125</ele>
        <time>2006-11-26T11:23:07Z</time>
      </trkpt>
      <trkpt lat="45.849530696868896" lon="10.822885036468506">
        <ele>538.4757080078125</ele>
        <time>2006-11-26T11:23:16Z</time>
      </trkpt>
      <trkpt lat="45.849423408508301" lon="10.822799205780029">
        <ele>538.956298828125</ele>
        <time>2006-11-26T11:23:24Z</time>
      </trkpt>
      <trkpt lat="45.849208831787109" lon="10.822756290435791">
        <ele>540.3983154296875</ele>
        <time>2006-11-26T11:23:36Z</time>
      </trkpt>
      <trkpt lat="45.849015712738037" lon="10.822756290435791">
        <ele>541.3594970703125</ele>
        <time>2006-11-26T11:23:48Z</time>
      </trkpt>
      <trkpt lat="45.848865509033203" lon="10.822799205780029">
        <ele>542.3209228515625</ele>
        <time>2006-11-26T11:23:57Z</time>
      </trkpt>
      <trkpt lat="45.848736763000488" lon="10.82277774810791">
        <ele>544.7242431640625</ele>
        <time>2006-11-26T11:24:07Z</time>
      </trkpt>
      <trkpt lat="45.848586559295654" lon="10.822756290435791">
        <ele>547.12744140625</ele>
        <time>2006-11-26T11:24:17Z</time>
      </trkpt>
      <trkpt lat="45.848414897918701" lon="10.822691917419434">
        <ele>548.5693359375</ele>
        <time>2006-11-26T11:24:28Z</time>
      </trkpt>
      <trkpt lat="45.848329067230225" lon="10.822563171386719">
        <ele>549.53076171875</ele>
        <time>2006-11-26T11:24:36Z</time>
      </trkpt>
      <trkpt lat="45.848329067230225" lon="10.822391510009766">
        <ele>551.93408203125</ele>
        <time>2006-11-26T11:24:45Z</time>
      </trkpt>
      <trkpt lat="45.848350524902344" lon="10.822134017944336">
        <ele>554.33740234375</ele>
        <time>2006-11-26T11:24:56Z</time>
      </trkpt>
      <trkpt lat="45.848286151885986" lon="10.821769237518311">
        <ele>555.779296875</ele>
        <time>2006-11-26T11:25:09Z</time>
      </trkpt>
      <trkpt lat="45.848264694213867" lon="10.821747779846191">
        <ele>556.260009765625</ele>
        <time>2006-11-26T11:25:10Z</time>
      </trkpt>
      <trkpt lat="45.848114490509033" lon="10.821661949157715">
        <ele>555.779296875</ele>
        <time>2006-11-26T11:25:17Z</time>
      </trkpt>
      <trkpt lat="45.848135948181152" lon="10.821340084075928">
        <ele>556.74072265625</ele>
        <time>2006-11-26T11:25:28Z</time>
      </trkpt>
      <trkpt lat="45.848028659820557" lon="10.821189880371094">
        <ele>556.260009765625</ele>
        <time>2006-11-26T11:25:35Z</time>
      </trkpt>
      <trkpt lat="45.847878456115723" lon="10.821146965026855">
        <ele>555.298583984375</ele>
        <time>2006-11-26T11:25:42Z</time>
      </trkpt>
      <trkpt lat="45.847663879394531" lon="10.82127571105957">
        <ele>553.856689453125</ele>
        <time>2006-11-26T11:25:54Z</time>
      </trkpt>
      <trkpt lat="45.847470760345459" lon="10.821340084075928">
        <ele>554.81787109375</ele>
        <time>2006-11-26T11:26:04Z</time>
      </trkpt>
      <trkpt lat="45.847277641296387" lon="10.821382999420166">
        <ele>555.779296875</ele>
        <time>2006-11-26T11:26:15Z</time>
      </trkpt>
      <trkpt lat="45.847063064575195" lon="10.821490287780762">
        <ele>556.74072265625</ele>
        <time>2006-11-26T11:26:30Z</time>
      </trkpt>
      <trkpt lat="45.84693431854248" lon="10.821511745452881">
        <ele>557.221435546875</ele>
        <time>2006-11-26T11:26:39Z</time>
      </trkpt>
      <trkpt lat="45.846827030181885" lon="10.821554660797119">
        <ele>559.624755859375</ele>
        <time>2006-11-26T11:26:51Z</time>
      </trkpt>
      <trkpt lat="45.846762657165527" lon="10.821597576141357">
        <ele>561.54736328125</ele>
        <time>2006-11-26T11:26:59Z</time>
      </trkpt>
      <trkpt lat="45.846719741821289" lon="10.821619033813477">
        <ele>562.508544921875</ele>
        <time>2006-11-26T11:27:03Z</time>
      </trkpt>
      <trkpt lat="45.846590995788574" lon="10.821597576141357">
        <ele>564.43115234375</ele>
        <time>2006-11-26T11:27:15Z</time>
      </trkpt>
      <trkpt lat="45.846505165100098" lon="10.821576118469238">
        <ele>566.83447265625</ele>
        <time>2006-11-26T11:27:24Z</time>
      </trkpt>
      <trkpt lat="45.84644079208374" lon="10.821576118469238">
        <ele>568.757080078125</ele>
        <time>2006-11-26T11:27:31Z</time>
      </trkpt>
      <trkpt lat="45.846397876739502" lon="10.821576118469238">
        <ele>569.718505859375</ele>
        <time>2006-11-26T11:27:36Z</time>
      </trkpt>
      <trkpt lat="45.846333503723145" lon="10.821640491485596">
        <ele>570.6796875</ele>
        <time>2006-11-26T11:27:45Z</time>
      </trkpt>
      <trkpt lat="45.846226215362549" lon="10.821726322174072">
        <ele>574.04443359375</ele>
        <time>2006-11-26T11:27:58Z</time>
      </trkpt>
      <trkpt lat="45.846140384674072" lon="10.821769237518311">
        <ele>575.967041015625</ele>
        <time>2006-11-26T11:28:08Z</time>
      </trkpt>
      <trkpt lat="45.846118927001953" lon="10.821769237518311">
        <ele>576.44775390625</ele>
        <time>2006-11-26T11:28:11Z</time>
      </trkpt>
      <trkpt lat="45.846054553985596" lon="10.821747779846191">
        <ele>579.33154296875</ele>
        <time>2006-11-26T11:28:21Z</time>
      </trkpt>
      <trkpt lat="45.846033096313477" lon="10.821640491485596">
        <ele>581.25439453125</ele>
        <time>2006-11-26T11:28:31Z</time>
      </trkpt>
      <trkpt lat="45.846097469329834" lon="10.821619033813477">
        <ele>581.25439453125</ele>
        <time>2006-11-26T11:28:39Z</time>
      </trkpt>
      <trkpt lat="45.846140384674072" lon="10.821554660797119">
        <ele>581.73486328125</ele>
        <time>2006-11-26T11:28:48Z</time>
      </trkpt>
      <trkpt lat="45.846140384674072" lon="10.821533203125">
        <ele>581.73486328125</ele>
        <time>2006-11-26T11:28:51Z</time>
      </trkpt>
      <trkpt lat="45.846097469329834" lon="10.821490287780762">
        <ele>582.215576171875</ele>
        <time>2006-11-26T11:28:56Z</time>
      </trkpt>
      <trkpt lat="45.846076011657715" lon="10.821468830108643">
        <ele>582.6962890625</ele>
        <time>2006-11-26T11:28:59Z</time>
      </trkpt>
      <trkpt lat="45.845990180969238" lon="10.821490287780762">
        <ele>583.1767578125</ele>
        <time>2006-11-26T11:29:09Z</time>
      </trkpt>
      <trkpt lat="45.845925807952881" lon="10.821468830108643">
        <ele>585.099609375</ele>
        <time>2006-11-26T11:29:18Z</time>
      </trkpt>
      <trkpt lat="45.845839977264404" lon="10.821468830108643">
        <ele>585.580078125</ele>
        <time>2006-11-26T11:29:28Z</time>
      </trkpt>
      <trkpt lat="45.845775604248047" lon="10.821490287780762">
        <ele>585.580078125</ele>
        <time>2006-11-26T11:29:38Z</time>
      </trkpt>
      <trkpt lat="45.845732688903809" lon="10.821490287780762">
        <ele>585.580078125</ele>
        <time>2006-11-26T11:29:46Z</time>
      </trkpt>
      <trkpt lat="45.845732688903809" lon="10.821490287780762">
        <ele>585.580078125</ele>
        <time>2006-11-26T11:29:47Z</time>
      </trkpt>
      <trkpt lat="45.845668315887451" lon="10.821404457092285">
        <ele>587.02197265625</ele>
        <time>2006-11-26T11:29:57Z</time>
      </trkpt>
      <trkpt lat="45.845539569854736" lon="10.821382999420166">
        <ele>589.90625</ele>
        <time>2006-11-26T11:30:09Z</time>
      </trkpt>
      <trkpt lat="45.845432281494141" lon="10.821382999420166">
        <ele>591.34814453125</ele>
        <time>2006-11-26T11:30:18Z</time>
      </trkpt>
      <trkpt lat="45.845410823822021" lon="10.821382999420166">
        <ele>591.34814453125</ele>
        <time>2006-11-26T11:30:21Z</time>
      </trkpt>
      <trkpt lat="45.845303535461426" lon="10.821340084075928">
        <ele>594.712646484375</ele>
        <time>2006-11-26T11:30:32Z</time>
      </trkpt>
      <trkpt lat="45.845239162445068" lon="10.821254253387451">
        <ele>596.15478515625</ele>
        <time>2006-11-26T11:30:40Z</time>
      </trkpt>
      <trkpt lat="45.84519624710083" lon="10.821125507354736">
        <ele>597.115966796875</ele>
        <time>2006-11-26T11:30:50Z</time>
      </trkpt>
      <trkpt lat="45.845131874084473" lon="10.820996761322021">
        <ele>598.557861328125</ele>
        <time>2006-11-26T11:31:01Z</time>
      </trkpt>
      <trkpt lat="45.845046043395996" lon="10.820803642272949">
        <ele>600</ele>
        <time>2006-11-26T11:31:15Z</time>
      </trkpt>
      <trkpt lat="45.84496021270752" lon="10.820674896240234">
        <ele>600.480712890625</ele>
        <time>2006-11-26T11:31:26Z</time>
      </trkpt>
      <trkpt lat="45.844831466674805" lon="10.820589065551758">
        <ele>600.961181640625</ele>
        <time>2006-11-26T11:31:37Z</time>
      </trkpt>
      <trkpt lat="45.844767093658447" lon="10.820503234863281">
        <ele>604.326171875</ele>
        <time>2006-11-26T11:31:47Z</time>
      </trkpt>
      <trkpt lat="45.844638347625732" lon="10.820395946502686">
        <ele>604.326171875</ele>
        <time>2006-11-26T11:31:59Z</time>
      </trkpt>
      <trkpt lat="45.844616889953613" lon="10.820374488830566">
        <ele>604.806640625</ele>
        <time>2006-11-26T11:32:01Z</time>
      </trkpt>
      <trkpt lat="45.844595432281494" lon="10.820374488830566">
        <ele>605.76806640625</ele>
        <time>2006-11-26T11:32:04Z</time>
      </trkpt>
      <trkpt lat="45.844552516937256" lon="10.820460319519043">
        <ele>608.65185546875</ele>
        <time>2006-11-26T11:32:11Z</time>
      </trkpt>
      <trkpt lat="45.844595432281494" lon="10.820631980895996">
        <ele>611.05517578125</ele>
        <time>2006-11-26T11:32:23Z</time>
      </trkpt>
      <trkpt lat="45.844659805297852" lon="10.820803642272949">
        <ele>612.0166015625</ele>
        <time>2006-11-26T11:32:35Z</time>
      </trkpt>
      <trkpt lat="45.844659805297852" lon="10.820910930633545">
        <ele>613.45849609375</ele>
        <time>2006-11-26T11:32:42Z</time>
      </trkpt>
      <trkpt lat="45.844595432281494" lon="10.820868015289307">
        <ele>615.86181640625</ele>
        <time>2006-11-26T11:32:51Z</time>
      </trkpt>
      <trkpt lat="45.844552516937256" lon="10.820739269256592">
        <ele>618.264892578125</ele>
        <time>2006-11-26T11:33:01Z</time>
      </trkpt>
      <trkpt lat="45.844488143920898" lon="10.820674896240234">
        <ele>619.70703125</ele>
        <time>2006-11-26T11:33:09Z</time>
      </trkpt>
      <trkpt lat="45.844402313232422" lon="10.820610523223877">
        <ele>621.149169921875</ele>
        <time>2006-11-26T11:33:20Z</time>
      </trkpt>
      <trkpt lat="45.844337940216064" lon="10.820567607879639">
        <ele>624.513671875</ele>
        <time>2006-11-26T11:33:30Z</time>
      </trkpt>
      <trkpt lat="45.844273567199707" lon="10.820567607879639">
        <ele>625.95556640625</ele>
        <time>2006-11-26T11:33:37Z</time>
      </trkpt>
      <trkpt lat="45.84418773651123" lon="10.82054615020752">
        <ele>629.80078125</ele>
        <time>2006-11-26T11:33:48Z</time>
      </trkpt>
      <trkpt lat="45.844101905822754" lon="10.82054615020752">
        <ele>633.64599609375</ele>
        <time>2006-11-26T11:33:58Z</time>
      </trkpt>
      <trkpt lat="45.843994617462158" lon="10.82054615020752">
        <ele>637.0107421875</ele>
        <time>2006-11-26T11:34:08Z</time>
      </trkpt>
      <trkpt lat="45.843887329101563" lon="10.820503234863281">
        <ele>639.4140625</ele>
        <time>2006-11-26T11:34:20Z</time>
      </trkpt>
      <trkpt lat="45.843822956085205" lon="10.820481777191162">
        <ele>640.37548828125</ele>
        <time>2006-11-26T11:34:28Z</time>
      </trkpt>
      <trkpt lat="45.843801498413086" lon="10.820460319519043">
        <ele>640.85595703125</ele>
        <time>2006-11-26T11:34:32Z</time>
      </trkpt>
      <trkpt lat="45.843715667724609" lon="10.820353031158447">
        <ele>641.336669921875</ele>
        <time>2006-11-26T11:34:43Z</time>
      </trkpt>
      <trkpt lat="45.843651294708252" lon="10.820267200469971">
        <ele>641.8173828125</ele>
        <time>2006-11-26T11:34:53Z</time>
      </trkpt>
      <trkpt lat="45.843565464019775" lon="10.820202827453613">
        <ele>642.298095703125</ele>
        <time>2006-11-26T11:35:02Z</time>
      </trkpt>
      <trkpt lat="45.843501091003418" lon="10.820181369781494">
        <ele>642.77880859375</ele>
        <time>2006-11-26T11:35:09Z</time>
      </trkpt>
      <trkpt lat="45.843436717987061" lon="10.820159912109375">
        <ele>643.25927734375</ele>
        <time>2006-11-26T11:35:17Z</time>
      </trkpt>
      <trkpt lat="45.843393802642822" lon="10.820159912109375">
        <ele>643.739990234375</ele>
        <time>2006-11-26T11:35:22Z</time>
      </trkpt>
      <trkpt lat="45.843329429626465" lon="10.820116996765137">
        <ele>646.143310546875</ele>
        <time>2006-11-26T11:35:30Z</time>
      </trkpt>
      <trkpt lat="45.843243598937988" lon="10.820074081420898">
        <ele>647.585205078125</ele>
        <time>2006-11-26T11:35:39Z</time>
      </trkpt>
      <trkpt lat="45.843179225921631" lon="10.820009708404541">
        <ele>647.585205078125</ele>
        <time>2006-11-26T11:35:47Z</time>
      </trkpt>
      <trkpt lat="45.843093395233154" lon="10.819966793060303">
        <ele>649.988525390625</ele>
        <time>2006-11-26T11:35:59Z</time>
      </trkpt>
      <trkpt lat="45.843007564544678" lon="10.819902420043945">
        <ele>652.391845703125</ele>
        <time>2006-11-26T11:36:11Z</time>
      </trkpt>
      <trkpt lat="45.842900276184082" lon="10.819859504699707">
        <ele>656.237060546875</ele>
        <time>2006-11-26T11:36:23Z</time>
      </trkpt>
      <trkpt lat="45.842792987823486" lon="10.819838047027588">
        <ele>658.640380859375</ele>
        <time>2006-11-26T11:36:40Z</time>
      </trkpt>
      <trkpt lat="45.842792987823486" lon="10.819838047027588">
        <ele>659.601806640625</ele>
        <time>2006-11-26T11:37:08Z</time>
      </trkpt>
      <trkpt lat="45.842599868774414" lon="10.81977367401123">
        <ele>660.082275390625</ele>
        <time>2006-11-26T11:37:27Z</time>
      </trkpt>
      <trkpt lat="45.842471122741699" lon="10.819687843322754">
        <ele>661.5244140625</ele>
        <time>2006-11-26T11:37:42Z</time>
      </trkpt>
      <trkpt lat="45.842406749725342" lon="10.819580554962158">
        <ele>664.408203125</ele>
        <time>2006-11-26T11:37:54Z</time>
      </trkpt>
      <trkpt lat="45.842320919036865" lon="10.819430351257324">
        <ele>666.330810546875</ele>
        <time>2006-11-26T11:38:09Z</time>
      </trkpt>
      <trkpt lat="45.842256546020508" lon="10.819344520568848">
        <ele>667.292236328125</ele>
        <time>2006-11-26T11:38:20Z</time>
      </trkpt>
      <trkpt lat="45.842256546020508" lon="10.819237232208252">
        <ele>668.734375</ele>
        <time>2006-11-26T11:38:32Z</time>
      </trkpt>
      <trkpt lat="45.84219217300415" lon="10.819129943847656">
        <ele>670.17626953125</ele>
        <time>2006-11-26T11:38:46Z</time>
      </trkpt>
      <trkpt lat="45.842127799987793" lon="10.81904411315918">
        <ele>671.6181640625</ele>
        <time>2006-11-26T11:38:57Z</time>
      </trkpt>
      <trkpt lat="45.842063426971436" lon="10.818958282470703">
        <ele>674.021484375</ele>
        <time>2006-11-26T11:39:09Z</time>
      </trkpt>
      <trkpt lat="45.842020511627197" lon="10.818872451782227">
        <ele>675.944091796875</ele>
        <time>2006-11-26T11:39:19Z</time>
      </trkpt>
      <trkpt lat="45.84195613861084" lon="10.81878662109375">
        <ele>678.347412109375</ele>
        <time>2006-11-26T11:39:33Z</time>
      </trkpt>
      <trkpt lat="45.841913223266602" lon="10.818743705749512">
        <ele>681.7119140625</ele>
        <time>2006-11-26T11:39:42Z</time>
      </trkpt>
      <trkpt lat="45.841827392578125" lon="10.818657875061035">
        <ele>682.67333984375</ele>
        <time>2006-11-26T11:39:55Z</time>
      </trkpt>
      <trkpt lat="45.841741561889648" lon="10.818572044372559">
        <ele>685.076904296875</ele>
        <time>2006-11-26T11:40:07Z</time>
      </trkpt>
      <trkpt lat="45.84169864654541" lon="10.818507671356201">
        <ele>686.518798828125</ele>
        <time>2006-11-26T11:40:22Z</time>
      </trkpt>
      <trkpt lat="45.841634273529053" lon="10.818421840667725">
        <ele>688.922119140625</ele>
        <time>2006-11-26T11:40:36Z</time>
      </trkpt>
      <trkpt lat="45.841548442840576" lon="10.818357467651367">
        <ele>691.3251953125</ele>
        <time>2006-11-26T11:40:48Z</time>
      </trkpt>
      <trkpt lat="45.8414626121521" lon="10.818357467651367">
        <ele>693.247802734375</ele>
        <time>2006-11-26T11:41:00Z</time>
      </trkpt>
      <trkpt lat="45.841376781463623" lon="10.818357467651367">
        <ele>696.612548828125</ele>
        <time>2006-11-26T11:41:14Z</time>
      </trkpt>
      <trkpt lat="45.841312408447266" lon="10.818314552307129">
        <ele>699.015625</ele>
        <time>2006-11-26T11:41:25Z</time>
      </trkpt>
      <trkpt lat="45.841269493103027" lon="10.81829309463501">
        <ele>693.728515625</ele>
        <time>2006-11-26T11:41:58Z</time>
      </trkpt>
      <trkpt lat="45.841312408447266" lon="10.818185806274414">
        <ele>696.1318359375</ele>
        <time>2006-11-26T11:42:07Z</time>
      </trkpt>
      <trkpt lat="45.841376781463623" lon="10.818121433258057">
        <ele>697.57373046875</ele>
        <time>2006-11-26T11:42:16Z</time>
      </trkpt>
      <trkpt lat="45.841591358184814" lon="10.817992687225342">
        <ele>699.015625</ele>
        <time>2006-11-26T11:42:36Z</time>
      </trkpt>
      <trkpt lat="45.841720104217529" lon="10.817928314208984">
        <ele>700.9384765625</ele>
        <time>2006-11-26T11:42:50Z</time>
      </trkpt>
      <trkpt lat="45.841848850250244" lon="10.817735195159912">
        <ele>701.419189453125</ele>
        <time>2006-11-26T11:43:09Z</time>
      </trkpt>
      <trkpt lat="45.841913223266602" lon="10.817606449127197">
        <ele>702.861083984375</ele>
        <time>2006-11-26T11:43:23Z</time>
      </trkpt>
      <trkpt lat="45.84195613861084" lon="10.817391872406006">
        <ele>702.38037109375</ele>
        <time>2006-11-26T11:43:45Z</time>
      </trkpt>
      <trkpt lat="45.841934680938721" lon="10.817391872406006">
        <ele>701.89990234375</ele>
        <time>2006-11-26T11:43:51Z</time>
      </trkpt>
      <trkpt lat="45.841827392578125" lon="10.817434787750244">
        <ele>705.264404296875</ele>
        <time>2006-11-26T11:44:04Z</time>
      </trkpt>
      <trkpt lat="45.841677188873291" lon="10.817434787750244">
        <ele>706.706298828125</ele>
        <time>2006-11-26T11:44:22Z</time>
      </trkpt>
      <trkpt lat="45.841612815856934" lon="10.817477703094482">
        <ele>707.18701171875</ele>
        <time>2006-11-26T11:44:31Z</time>
      </trkpt>
      <trkpt lat="45.841548442840576" lon="10.817348957061768">
        <ele>710.551513671875</ele>
        <time>2006-11-26T11:44:43Z</time>
      </trkpt>
      <trkpt lat="45.841526985168457" lon="10.81728458404541">
        <ele>713.435546875</ele>
        <time>2006-11-26T11:44:54Z</time>
      </trkpt>
      <trkpt lat="45.8414626121521" lon="10.817198753356934">
        <ele>715.8388671875</ele>
        <time>2006-11-26T11:45:11Z</time>
      </trkpt>
      <trkpt lat="45.8414626121521" lon="10.817177295684814">
        <ele>716.80029296875</ele>
        <time>2006-11-26T11:45:13Z</time>
      </trkpt>
      <trkpt lat="45.841419696807861" lon="10.816962718963623">
        <ele>717.281005859375</ele>
        <time>2006-11-26T11:45:28Z</time>
      </trkpt>
      <trkpt lat="45.841355323791504" lon="10.81679105758667">
        <ele>722.08740234375</ele>
        <time>2006-11-26T11:45:41Z</time>
      </trkpt>
      <trkpt lat="45.841312408447266" lon="10.816705226898193">
        <ele>724.010009765625</ele>
        <time>2006-11-26T11:45:51Z</time>
      </trkpt>
      <trkpt lat="45.841226577758789" lon="10.816597938537598">
        <ele>728.816650390625</ele>
        <time>2006-11-26T11:46:02Z</time>
      </trkpt>
      <trkpt lat="45.841162204742432" lon="10.816490650177002">
        <ele>730.258544921875</ele>
        <time>2006-11-26T11:46:12Z</time>
      </trkpt>
      <trkpt lat="45.841119289398193" lon="10.816383361816406">
        <ele>732.181396484375</ele>
        <time>2006-11-26T11:46:24Z</time>
      </trkpt>
      <trkpt lat="45.841033458709717" lon="10.816254615783691">
        <ele>733.623291015625</ele>
        <time>2006-11-26T11:46:43Z</time>
      </trkpt>
      <trkpt lat="45.840883255004883" lon="10.816190242767334">
        <ele>735.5458984375</ele>
        <time>2006-11-26T11:47:05Z</time>
      </trkpt>
      <trkpt lat="45.840775966644287" lon="10.816276073455811">
        <ele>737.468505859375</ele>
        <time>2006-11-26T11:47:18Z</time>
      </trkpt>
      <trkpt lat="45.840647220611572" lon="10.816512107849121">
        <ele>739.871826171875</ele>
        <time>2006-11-26T11:47:37Z</time>
      </trkpt>
      <trkpt lat="45.840647220611572" lon="10.816555023193359">
        <ele>740.8330078125</ele>
        <time>2006-11-26T11:47:40Z</time>
      </trkpt>
      <trkpt lat="45.840539932250977" lon="10.816726684570313">
        <ele>743.236328125</ele>
        <time>2006-11-26T11:47:54Z</time>
      </trkpt>
      <trkpt lat="45.840518474578857" lon="10.816726684570313">
        <ele>742.755859375</ele>
        <time>2006-11-26T11:47:57Z</time>
      </trkpt>
      <trkpt lat="45.840411186218262" lon="10.816619396209717">
        <ele>744.19775390625</ele>
        <time>2006-11-26T11:48:10Z</time>
      </trkpt>
      <trkpt lat="45.840368270874023" lon="10.816490650177002">
        <ele>747.08154296875</ele>
        <time>2006-11-26T11:48:20Z</time>
      </trkpt>
      <trkpt lat="45.840346813201904" lon="10.816383361816406">
        <ele>746.60107421875</ele>
        <time>2006-11-26T11:48:38Z</time>
      </trkpt>
      <trkpt lat="45.840303897857666" lon="10.816233158111572">
        <ele>749.00439453125</ele>
        <time>2006-11-26T11:48:51Z</time>
      </trkpt>
      <trkpt lat="45.840260982513428" lon="10.816104412078857">
        <ele>750.446533203125</ele>
        <time>2006-11-26T11:49:02Z</time>
      </trkpt>
      <trkpt lat="45.840218067169189" lon="10.815954208374023">
        <ele>751.888427734375</ele>
        <time>2006-11-26T11:49:15Z</time>
      </trkpt>
      <trkpt lat="45.840132236480713" lon="10.815761089324951">
        <ele>753.330322265625</ele>
        <time>2006-11-26T11:49:31Z</time>
      </trkpt>
      <trkpt lat="45.840132236480713" lon="10.81554651260376">
        <ele>754.772216796875</ele>
        <time>2006-11-26T11:49:47Z</time>
      </trkpt>
      <trkpt lat="45.840110778808594" lon="10.815417766571045">
        <ele>757.175537109375</ele>
        <time>2006-11-26T11:49:59Z</time>
      </trkpt>
      <trkpt lat="45.840089321136475" lon="10.815224647521973">
        <ele>759.09814453125</ele>
        <time>2006-11-26T11:50:15Z</time>
      </trkpt>
      <trkpt lat="45.839982032775879" lon="10.815095901489258">
        <ele>763.424072265625</ele>
        <time>2006-11-26T11:50:28Z</time>
      </trkpt>
      <trkpt lat="45.839917659759521" lon="10.815095901489258">
        <ele>763.904541015625</ele>
        <time>2006-11-26T11:50:35Z</time>
      </trkpt>
      <trkpt lat="45.839745998382568" lon="10.815138816833496">
        <ele>763.424072265625</ele>
        <time>2006-11-26T11:50:53Z</time>
      </trkpt>
      <trkpt lat="45.839724540710449" lon="10.815117359161377">
        <ele>763.904541015625</ele>
        <time>2006-11-26T11:50:56Z</time>
      </trkpt>
      <trkpt lat="45.839767456054688" lon="10.815095901489258">
        <ele>763.424072265625</ele>
        <time>2006-11-26T11:50:58Z</time>
      </trkpt>
      <trkpt lat="45.839896202087402" lon="10.81505298614502">
        <ele>763.424072265625</ele>
        <time>2006-11-26T11:51:07Z</time>
      </trkpt>
      <trkpt lat="45.83996057510376" lon="10.814967155456543">
        <ele>767.26953125</ele>
        <time>2006-11-26T11:51:16Z</time>
      </trkpt>
      <trkpt lat="45.839982032775879" lon="10.814945697784424">
        <ele>767.26953125</ele>
        <time>2006-11-26T11:51:19Z</time>
      </trkpt>
      <trkpt lat="45.840110778808594" lon="10.814881324768066">
        <ele>768.230712890625</ele>
        <time>2006-11-26T11:51:32Z</time>
      </trkpt>
      <trkpt lat="45.840175151824951" lon="10.814945697784424">
        <ele>769.6728515625</ele>
        <time>2006-11-26T11:51:41Z</time>
      </trkpt>
      <trkpt lat="45.840218067169189" lon="10.815074443817139">
        <ele>772.075927734375</ele>
        <time>2006-11-26T11:51:55Z</time>
      </trkpt>
      <trkpt lat="45.840303897857666" lon="10.815181732177734">
        <ele>773.037353515625</ele>
        <time>2006-11-26T11:52:07Z</time>
      </trkpt>
      <trkpt lat="45.840475559234619" lon="10.815095901489258">
        <ele>774.9599609375</ele>
        <time>2006-11-26T11:52:24Z</time>
      </trkpt>
      <trkpt lat="45.840497016906738" lon="10.815095901489258">
        <ele>775.4404296875</ele>
        <time>2006-11-26T11:52:26Z</time>
      </trkpt>
      <trkpt lat="45.840668678283691" lon="10.815117359161377">
        <ele>777.36328125</ele>
        <time>2006-11-26T11:52:44Z</time>
      </trkpt>
      <trkpt lat="45.84071159362793" lon="10.815074443817139">
        <ele>779.28564453125</ele>
        <time>2006-11-26T11:52:52Z</time>
      </trkpt>
      <trkpt lat="45.840840339660645" lon="10.814967155456543">
        <ele>782.650634765625</ele>
        <time>2006-11-26T11:53:09Z</time>
      </trkpt>
      <trkpt lat="45.841012001037598" lon="10.81479549407959">
        <ele>784.092529296875</ele>
        <time>2006-11-26T11:53:32Z</time>
      </trkpt>
      <trkpt lat="45.841162204742432" lon="10.814623832702637">
        <ele>784.5732421875</ele>
        <time>2006-11-26T11:53:51Z</time>
      </trkpt>
      <trkpt lat="45.841140747070313" lon="10.81453800201416">
        <ele>786.495849609375</ele>
        <time>2006-11-26T11:54:08Z</time>
      </trkpt>
      <trkpt lat="45.840904712677002" lon="10.814666748046875">
        <ele>787.937744140625</ele>
        <time>2006-11-26T11:54:25Z</time>
      </trkpt>
      <trkpt lat="45.840754508972168" lon="10.814752578735352">
        <ele>790.341064453125</ele>
        <time>2006-11-26T11:54:38Z</time>
      </trkpt>
      <trkpt lat="45.840690135955811" lon="10.814752578735352">
        <ele>790.821533203125</ele>
        <time>2006-11-26T11:54:45Z</time>
      </trkpt>
      <trkpt lat="45.840582847595215" lon="10.814709663391113">
        <ele>791.782958984375</ele>
        <time>2006-11-26T11:54:54Z</time>
      </trkpt>
      <trkpt lat="45.840518474578857" lon="10.814623832702637">
        <ele>793.224853515625</ele>
        <time>2006-11-26T11:55:05Z</time>
      </trkpt>
      <trkpt lat="45.840475559234619" lon="10.814495086669922">
        <ele>794.186279296875</ele>
        <time>2006-11-26T11:55:15Z</time>
      </trkpt>
      <trkpt lat="45.840475559234619" lon="10.814387798309326">
        <ele>797.0703125</ele>
        <time>2006-11-26T11:55:23Z</time>
      </trkpt>
      <trkpt lat="45.840475559234619" lon="10.814259052276611">
        <ele>799.4736328125</ele>
        <time>2006-11-26T11:55:34Z</time>
      </trkpt>
      <trkpt lat="45.840475559234619" lon="10.814130306243896">
        <ele>800.91552734375</ele>
        <time>2006-11-26T11:55:45Z</time>
      </trkpt>
      <trkpt lat="45.840497016906738" lon="10.814087390899658">
        <ele>800.43505859375</ele>
        <time>2006-11-26T11:55:54Z</time>
      </trkpt>
      <trkpt lat="45.840497016906738" lon="10.814087390899658">
        <ele>800.91552734375</ele>
        <time>2006-11-26T11:55:58Z</time>
      </trkpt>
      <trkpt lat="45.840539932250977" lon="10.813958644866943">
        <ele>801.876953125</ele>
        <time>2006-11-26T11:56:07Z</time>
      </trkpt>
      <trkpt lat="45.840539932250977" lon="10.813851356506348">
        <ele>801.876953125</ele>
        <time>2006-11-26T11:56:16Z</time>
      </trkpt>
      <trkpt lat="45.840539932250977" lon="10.813829898834229">
        <ele>801.876953125</ele>
        <time>2006-11-26T11:56:17Z</time>
      </trkpt>
      <trkpt lat="45.840475559234619" lon="10.813701152801514">
        <ele>804.7607421875</ele>
        <time>2006-11-26T11:56:28Z</time>
      </trkpt>
      <trkpt lat="45.840475559234619" lon="10.813593864440918">
        <ele>805.241455078125</ele>
        <time>2006-11-26T11:56:37Z</time>
      </trkpt>
      <trkpt lat="45.840497016906738" lon="10.813443660736084">
        <ele>805.72216796875</ele>
        <time>2006-11-26T11:56:48Z</time>
      </trkpt>
      <trkpt lat="45.840497016906738" lon="10.813336372375488">
        <ele>805.72216796875</ele>
        <time>2006-11-26T11:56:57Z</time>
      </trkpt>
      <trkpt lat="45.840432643890381" lon="10.813186168670654">
        <ele>811.970703125</ele>
        <time>2006-11-26T11:57:08Z</time>
      </trkpt>
      <trkpt lat="45.840368270874023" lon="10.812950134277344">
        <ele>811.970703125</ele>
        <time>2006-11-26T11:57:29Z</time>
      </trkpt>
      <trkpt lat="45.840325355529785" lon="10.812907218933105">
        <ele>812.451416015625</ele>
        <time>2006-11-26T11:57:36Z</time>
      </trkpt>
      <trkpt lat="45.84019660949707" lon="10.81279993057251">
        <ele>812.93212890625</ele>
        <time>2006-11-26T11:57:48Z</time>
      </trkpt>
      <trkpt lat="45.84019660949707" lon="10.812714099884033">
        <ele>812.93212890625</ele>
        <time>2006-11-26T11:57:54Z</time>
      </trkpt>
      <trkpt lat="45.840153694152832" lon="10.81254243850708">
        <ele>815.33544921875</ele>
        <time>2006-11-26T11:58:07Z</time>
      </trkpt>
      <trkpt lat="45.840132236480713" lon="10.812435150146484">
        <ele>818.699951171875</ele>
        <time>2006-11-26T11:58:16Z</time>
      </trkpt>
      <trkpt lat="45.840089321136475" lon="10.812327861785889">
        <ele>817.258056640625</ele>
        <time>2006-11-26T11:58:29Z</time>
      </trkpt>
      <trkpt lat="45.840003490447998" lon="10.812220573425293">
        <ele>816.77734375</ele>
        <time>2006-11-26T11:58:47Z</time>
      </trkpt>
      <trkpt lat="45.83996057510376" lon="10.812177658081055">
        <ele>816.77734375</ele>
        <time>2006-11-26T11:58:58Z</time>
      </trkpt>
      <trkpt lat="45.839896202087402" lon="10.812070369720459">
        <ele>819.661376953125</ele>
        <time>2006-11-26T11:59:07Z</time>
      </trkpt>
      <trkpt lat="45.839853286743164" lon="10.811920166015625">
        <ele>822.545166015625</ele>
        <time>2006-11-26T11:59:21Z</time>
      </trkpt>
      <trkpt lat="45.839767456054688" lon="10.811920166015625">
        <ele>824.948486328125</ele>
        <time>2006-11-26T11:59:33Z</time>
      </trkpt>
      <trkpt lat="45.839681625366211" lon="10.812027454376221">
        <ele>825.428955078125</ele>
        <time>2006-11-26T11:59:42Z</time>
      </trkpt>
      <trkpt lat="45.839574337005615" lon="10.812177658081055">
        <ele>827.351806640625</ele>
        <time>2006-11-26T11:59:55Z</time>
      </trkpt>
      <trkpt lat="45.839488506317139" lon="10.812349319458008">
        <ele>828.7939453125</ele>
        <time>2006-11-26T12:00:09Z</time>
      </trkpt>
      <trkpt lat="45.839488506317139" lon="10.812456607818604">
        <ele>831.197265625</ele>
        <time>2006-11-26T12:00:17Z</time>
      </trkpt>
      <trkpt lat="45.83946704864502" lon="10.812606811523437">
        <ele>833.600341796875</ele>
        <time>2006-11-26T12:00:28Z</time>
      </trkpt>
      <trkpt lat="45.839402675628662" lon="10.812735557556152">
        <ele>834.0810546875</ele>
        <time>2006-11-26T12:00:37Z</time>
      </trkpt>
      <trkpt lat="45.839381217956543" lon="10.812821388244629">
        <ele>835.52294921875</ele>
        <time>2006-11-26T12:00:44Z</time>
      </trkpt>
      <trkpt lat="45.839359760284424" lon="10.812971591949463">
        <ele>835.52294921875</ele>
        <time>2006-11-26T12:00:55Z</time>
      </trkpt>
      <trkpt lat="45.839338302612305" lon="10.813100337982178">
        <ele>835.04248046875</ele>
        <time>2006-11-26T12:01:05Z</time>
      </trkpt>
      <trkpt lat="45.839252471923828" lon="10.813207626342773">
        <ele>838.406982421875</ele>
        <time>2006-11-26T12:01:16Z</time>
      </trkpt>
      <trkpt lat="45.839231014251709" lon="10.813271999359131">
        <ele>838.406982421875</ele>
        <time>2006-11-26T12:01:20Z</time>
      </trkpt>
      <trkpt lat="45.83920955657959" lon="10.813400745391846">
        <ele>839.848876953125</ele>
        <time>2006-11-26T12:01:31Z</time>
      </trkpt>
      <trkpt lat="45.839188098907471" lon="10.813508033752441">
        <ele>841.771484375</ele>
        <time>2006-11-26T12:01:38Z</time>
      </trkpt>
      <trkpt lat="45.839102268218994" lon="10.81355094909668">
        <ele>842.73291015625</ele>
        <time>2006-11-26T12:01:47Z</time>
      </trkpt>
      <trkpt lat="45.838994979858398" lon="10.813572406768799">
        <ele>844.655517578125</ele>
        <time>2006-11-26T12:01:58Z</time>
      </trkpt>
      <trkpt lat="45.838909149169922" lon="10.813572406768799">
        <ele>847.53955078125</ele>
        <time>2006-11-26T12:02:06Z</time>
      </trkpt>
      <trkpt lat="45.838780403137207" lon="10.813572406768799">
        <ele>848.9814453125</ele>
        <time>2006-11-26T12:02:20Z</time>
      </trkpt>
      <trkpt lat="45.83869457244873" lon="10.813615322113037">
        <ele>848.9814453125</ele>
        <time>2006-11-26T12:02:32Z</time>
      </trkpt>
      <trkpt lat="45.838587284088135" lon="10.813701152801514">
        <ele>850.423583984375</ele>
        <time>2006-11-26T12:02:48Z</time>
      </trkpt>
      <trkpt lat="45.838501453399658" lon="10.813765525817871">
        <ele>851.865478515625</ele>
        <time>2006-11-26T12:03:00Z</time>
      </trkpt>
      <trkpt lat="45.838394165039063" lon="10.813808441162109">
        <ele>853.307373046875</ele>
        <time>2006-11-26T12:03:10Z</time>
      </trkpt>
      <trkpt lat="45.838243961334229" lon="10.813808441162109">
        <ele>856.671875</ele>
        <time>2006-11-26T12:03:23Z</time>
      </trkpt>
      <trkpt lat="45.838158130645752" lon="10.813808441162109">
        <ele>856.671875</ele>
        <time>2006-11-26T12:03:30Z</time>
      </trkpt>
      <trkpt lat="45.838050842285156" lon="10.813765525817871">
        <ele>859.0751953125</ele>
        <time>2006-11-26T12:03:43Z</time>
      </trkpt>
      <trkpt lat="45.838007926940918" lon="10.813765525817871">
        <ele>860.03662109375</ele>
        <time>2006-11-26T12:03:46Z</time>
      </trkpt>
      <trkpt lat="45.837900638580322" lon="10.813829898834229">
        <ele>860.998046875</ele>
        <time>2006-11-26T12:03:58Z</time>
      </trkpt>
      <trkpt lat="45.837793350219727" lon="10.813829898834229">
        <ele>861.95947265625</ele>
        <time>2006-11-26T12:04:10Z</time>
      </trkpt>
      <trkpt lat="45.837643146514893" lon="10.81378698348999">
        <ele>864.362548828125</ele>
        <time>2006-11-26T12:04:24Z</time>
      </trkpt>
      <trkpt lat="45.837471485137939" lon="10.813829898834229">
        <ele>865.323974609375</ele>
        <time>2006-11-26T12:04:47Z</time>
      </trkpt>
      <trkpt lat="45.837321281433105" lon="10.813894271850586">
        <ele>867.24658203125</ele>
        <time>2006-11-26T12:05:03Z</time>
      </trkpt>
      <trkpt lat="45.837256908416748" lon="10.813937187194824">
        <ele>867.72705078125</ele>
        <time>2006-11-26T12:05:10Z</time>
      </trkpt>
      <trkpt lat="45.837128162384033" lon="10.814065933227539">
        <ele>872.052978515625</ele>
        <time>2006-11-26T12:05:25Z</time>
      </trkpt>
      <trkpt lat="45.836977958679199" lon="10.814216136932373">
        <ele>880.224365234375</ele>
        <time>2006-11-26T12:05:43Z</time>
      </trkpt>
      <trkpt lat="45.836870670318604" lon="10.814344882965088">
        <ele>877.821044921875</ele>
        <time>2006-11-26T12:05:59Z</time>
      </trkpt>
      <trkpt lat="45.836870670318604" lon="10.814387798309326">
        <ele>877.821044921875</ele>
        <time>2006-11-26T12:06:01Z</time>
      </trkpt>
      <trkpt lat="45.836849212646484" lon="10.814602375030518">
        <ele>878.782470703125</ele>
        <time>2006-11-26T12:06:14Z</time>
      </trkpt>
      <trkpt lat="45.836827754974365" lon="10.814731121063232">
        <ele>880.224365234375</ele>
        <time>2006-11-26T12:06:23Z</time>
      </trkpt>
      <trkpt lat="45.836806297302246" lon="10.814881324768066">
        <ele>880.705078125</ele>
        <time>2006-11-26T12:06:32Z</time>
      </trkpt>
      <trkpt lat="45.836784839630127" lon="10.815010070800781">
        <ele>881.185791015625</ele>
        <time>2006-11-26T12:06:42Z</time>
      </trkpt>
      <trkpt lat="45.836784839630127" lon="10.815010070800781">
        <ele>881.185791015625</ele>
        <time>2006-11-26T12:06:48Z</time>
      </trkpt>
      <trkpt lat="45.836763381958008" lon="10.81505298614502">
        <ele>880.705078125</ele>
        <time>2006-11-26T12:07:42Z</time>
      </trkpt>
      <trkpt lat="45.836763381958008" lon="10.81505298614502">
        <ele>879.74365234375</ele>
        <time>2006-11-26T12:07:55Z</time>
      </trkpt>
      <trkpt lat="45.836763381958008" lon="10.8150315284729">
        <ele>876.379150390625</ele>
        <time>2006-11-26T12:08:38Z</time>
      </trkpt>
      <trkpt lat="45.836741924285889" lon="10.81505298614502">
        <ele>877.340576171875</ele>
        <time>2006-11-26T12:08:52Z</time>
      </trkpt>
      <trkpt lat="45.83672046661377" lon="10.81505298614502">
        <ele>879.262939453125</ele>
        <time>2006-11-26T12:10:26Z</time>
      </trkpt>
      <trkpt lat="45.83669900894165" lon="10.815267562866211">
        <ele>878.782470703125</ele>
        <time>2006-11-26T12:10:32Z</time>
      </trkpt>
      <trkpt lat="45.83669900894165" lon="10.815417766571045">
        <ele>878.3017578125</ele>
        <time>2006-11-26T12:10:39Z</time>
      </trkpt>
      <trkpt lat="45.836634635925293" lon="10.815675258636475">
        <ele>878.782470703125</ele>
        <time>2006-11-26T12:10:48Z</time>
      </trkpt>
      <trkpt lat="45.836484432220459" lon="10.815954208374023">
        <ele>879.74365234375</ele>
        <time>2006-11-26T12:11:00Z</time>
      </trkpt>
      <trkpt lat="45.836334228515625" lon="10.816147327423096">
        <ele>879.262939453125</ele>
        <time>2006-11-26T12:11:12Z</time>
      </trkpt>
      <trkpt lat="45.836098194122314" lon="10.816254615783691">
        <ele>879.74365234375</ele>
        <time>2006-11-26T12:11:24Z</time>
      </trkpt>
      <trkpt lat="45.835990905761719" lon="10.816318988800049">
        <ele>879.74365234375</ele>
        <time>2006-11-26T12:11:31Z</time>
      </trkpt>
      <trkpt lat="45.83594799041748" lon="10.81629753112793">
        <ele>881.185791015625</ele>
        <time>2006-11-26T12:11:36Z</time>
      </trkpt>
      <trkpt lat="45.835883617401123" lon="10.81629753112793">
        <ele>881.666259765625</ele>
        <time>2006-11-26T12:11:47Z</time>
      </trkpt>
      <trkpt lat="45.835819244384766" lon="10.81629753112793">
        <ele>882.627685546875</ele>
        <time>2006-11-26T12:11:54Z</time>
      </trkpt>
      <trkpt lat="45.835754871368408" lon="10.81629753112793">
        <ele>884.069580078125</ele>
        <time>2006-11-26T12:12:02Z</time>
      </trkpt>
      <trkpt lat="45.835626125335693" lon="10.816233158111572">
        <ele>888.876220703125</ele>
        <time>2006-11-26T12:12:14Z</time>
      </trkpt>
      <trkpt lat="45.835561752319336" lon="10.816211700439453">
        <ele>891.760009765625</ele>
        <time>2006-11-26T12:12:24Z</time>
      </trkpt>
      <trkpt lat="45.835497379302979" lon="10.816211700439453">
        <ele>896.56689453125</ele>
        <time>2006-11-26T12:12:33Z</time>
      </trkpt>
      <trkpt lat="45.835411548614502" lon="10.816233158111572">
        <ele>898.0087890625</ele>
        <time>2006-11-26T12:12:44Z</time>
      </trkpt>
      <trkpt lat="45.835325717926025" lon="10.816276073455811">
        <ele>898.4892578125</ele>
        <time>2006-11-26T12:12:55Z</time>
      </trkpt>
      <trkpt lat="45.835261344909668" lon="10.816318988800049">
        <ele>897.528076171875</ele>
        <time>2006-11-26T12:13:05Z</time>
      </trkpt>
      <trkpt lat="45.835239887237549" lon="10.816318988800049">
        <ele>897.04736328125</ele>
        <time>2006-11-26T12:13:06Z</time>
      </trkpt>
      <trkpt lat="45.835239887237549" lon="10.816340446472168">
        <ele>896.56689453125</ele>
        <time>2006-11-26T12:13:15Z</time>
      </trkpt>
      <trkpt lat="45.835239887237549" lon="10.816340446472168">
        <ele>894.16357421875</ele>
        <time>2006-11-26T12:13:37Z</time>
      </trkpt>
      <trkpt lat="45.835261344909668" lon="10.816340446472168">
        <ele>894.64404296875</ele>
        <time>2006-11-26T12:14:53Z</time>
      </trkpt>
      <trkpt lat="45.835261344909668" lon="10.816361904144287">
        <ele>895.124755859375</ele>
        <time>2006-11-26T12:15:19Z</time>
      </trkpt>
      <trkpt lat="45.835261344909668" lon="10.816383361816406">
        <ele>894.16357421875</ele>
        <time>2006-11-26T12:15:29Z</time>
      </trkpt>
      <trkpt lat="45.835261344909668" lon="10.816426277160645">
        <ele>892.240966796875</ele>
        <time>2006-11-26T12:15:38Z</time>
      </trkpt>
      <trkpt lat="45.835261344909668" lon="10.816490650177002">
        <ele>892.240966796875</ele>
        <time>2006-11-26T12:15:45Z</time>
      </trkpt>
      <trkpt lat="45.835282802581787" lon="10.816490650177002">
        <ele>893.2021484375</ele>
        <time>2006-11-26T12:16:06Z</time>
      </trkpt>
      <trkpt lat="45.835261344909668" lon="10.816490650177002">
        <ele>894.16357421875</ele>
        <time>2006-11-26T12:16:38Z</time>
      </trkpt>
      <trkpt lat="45.835239887237549" lon="10.816426277160645">
        <ele>893.682861328125</ele>
        <time>2006-11-26T12:16:55Z</time>
      </trkpt>
      <trkpt lat="45.835239887237549" lon="10.816404819488525">
        <ele>894.16357421875</ele>
        <time>2006-11-26T12:17:04Z</time>
      </trkpt>
      <trkpt lat="45.835239887237549" lon="10.816361904144287">
        <ele>894.64404296875</ele>
        <time>2006-11-26T12:17:15Z</time>
      </trkpt>
      <trkpt lat="45.835261344909668" lon="10.816318988800049">
        <ele>894.64404296875</ele>
        <time>2006-11-26T12:17:22Z</time>
      </trkpt>
      <trkpt lat="45.835282802581787" lon="10.81629753112793">
        <ele>895.124755859375</ele>
        <time>2006-11-26T12:17:28Z</time>
      </trkpt>
      <trkpt lat="45.835325717926025" lon="10.816340446472168">
        <ele>894.64404296875</ele>
        <time>2006-11-26T12:17:35Z</time>
      </trkpt>
      <trkpt lat="45.835304260253906" lon="10.816383361816406">
        <ele>895.124755859375</ele>
        <time>2006-11-26T12:17:41Z</time>
      </trkpt>
      <trkpt lat="45.835282802581787" lon="10.816404819488525">
        <ele>896.086181640625</ele>
        <time>2006-11-26T12:17:52Z</time>
      </trkpt>
      <trkpt lat="45.835282802581787" lon="10.816426277160645">
        <ele>896.56689453125</ele>
        <time>2006-11-26T12:18:00Z</time>
      </trkpt>
      <trkpt lat="45.835282802581787" lon="10.816404819488525">
        <ele>897.04736328125</ele>
        <time>2006-11-26T12:18:09Z</time>
      </trkpt>
      <trkpt lat="45.835282802581787" lon="10.816426277160645">
        <ele>898.0087890625</ele>
        <time>2006-11-26T12:18:25Z</time>
      </trkpt>
      <trkpt lat="45.835304260253906" lon="10.816447734832764">
        <ele>892.7216796875</ele>
        <time>2006-11-26T12:26:08Z</time>
      </trkpt>
      <trkpt lat="45.835304260253906" lon="10.816383361816406">
        <ele>896.086181640625</ele>
        <time>2006-11-26T12:26:33Z</time>
      </trkpt>
      <trkpt lat="45.835325717926025" lon="10.816340446472168">
        <ele>897.04736328125</ele>
        <time>2006-11-26T12:26:42Z</time>
      </trkpt>
      <trkpt lat="45.835325717926025" lon="10.816318988800049">
        <ele>897.528076171875</ele>
        <time>2006-11-26T12:26:49Z</time>
      </trkpt>
      <trkpt lat="45.835390090942383" lon="10.816276073455811">
        <ele>896.56689453125</ele>
        <time>2006-11-26T12:26:53Z</time>
      </trkpt>
      <trkpt lat="45.835540294647217" lon="10.816233158111572">
        <ele>893.682861328125</ele>
        <time>2006-11-26T12:27:00Z</time>
      </trkpt>
      <trkpt lat="45.835669040679932" lon="10.816276073455811">
        <ele>891.760009765625</ele>
        <time>2006-11-26T12:27:07Z</time>
      </trkpt>
      <trkpt lat="45.835797786712646" lon="10.81629753112793">
        <ele>889.83740234375</ele>
        <time>2006-11-26T12:27:15Z</time>
      </trkpt>
      <trkpt lat="45.83594799041748" lon="10.816318988800049">
        <ele>888.876220703125</ele>
        <time>2006-11-26T12:27:23Z</time>
      </trkpt>
      <trkpt lat="45.836076736450195" lon="10.816276073455811">
        <ele>887.43408203125</ele>
        <time>2006-11-26T12:27:28Z</time>
      </trkpt>
      <trkpt lat="45.836098194122314" lon="10.816254615783691">
        <ele>890.798583984375</ele>
        <time>2006-11-26T12:27:33Z</time>
      </trkpt>
      <trkpt lat="45.836162567138672" lon="10.816254615783691">
        <ele>888.876220703125</ele>
        <time>2006-11-26T12:27:45Z</time>
      </trkpt>
      <trkpt lat="45.836226940155029" lon="10.816233158111572">
        <ele>889.356689453125</ele>
        <time>2006-11-26T12:27:51Z</time>
      </trkpt>
      <trkpt lat="45.836334228515625" lon="10.816125869750977">
        <ele>889.83740234375</ele>
        <time>2006-11-26T12:28:03Z</time>
      </trkpt>
      <trkpt lat="45.83646297454834" lon="10.815997123718262">
        <ele>888.876220703125</ele>
        <time>2006-11-26T12:28:15Z</time>
      </trkpt>
      <trkpt lat="45.836634635925293" lon="10.815610885620117">
        <ele>888.3955078125</ele>
        <time>2006-11-26T12:28:27Z</time>
      </trkpt>
      <trkpt lat="45.836656093597412" lon="10.815482139587402">
        <ele>889.356689453125</ele>
        <time>2006-11-26T12:28:30Z</time>
      </trkpt>
      <trkpt lat="45.83669900894165" lon="10.815138816833496">
        <ele>888.3955078125</ele>
        <time>2006-11-26T12:28:36Z</time>
      </trkpt>
      <trkpt lat="45.836741924285889" lon="10.8150315284729">
        <ele>887.914794921875</ele>
        <time>2006-11-26T12:28:42Z</time>
      </trkpt>
      <trkpt lat="45.836763381958008" lon="10.815010070800781">
        <ele>887.914794921875</ele>
        <time>2006-11-26T12:28:51Z</time>
      </trkpt>
      <trkpt lat="45.836763381958008" lon="10.815010070800781">
        <ele>889.83740234375</ele>
        <time>2006-11-26T12:29:06Z</time>
      </trkpt>
      <trkpt lat="45.836741924285889" lon="10.814967155456543">
        <ele>896.56689453125</ele>
        <time>2006-11-26T12:29:39Z</time>
      </trkpt>
      <trkpt lat="45.836784839630127" lon="10.814774036407471">
        <ele>892.240966796875</ele>
        <time>2006-11-26T12:29:45Z</time>
      </trkpt>
      <trkpt lat="45.836827754974365" lon="10.814065933227539">
        <ele>890.798583984375</ele>
        <time>2006-11-26T12:29:58Z</time>
      </trkpt>
      <trkpt lat="45.836827754974365" lon="10.814001560211182">
        <ele>890.798583984375</ele>
        <time>2006-11-26T12:29:59Z</time>
      </trkpt>
      <trkpt lat="45.836935043334961" lon="10.813872814178467">
        <ele>889.83740234375</ele>
        <time>2006-11-26T12:30:02Z</time>
      </trkpt>
      <trkpt lat="45.837643146514893" lon="10.813593864440918">
        <ele>889.356689453125</ele>
        <time>2006-11-26T12:30:09Z</time>
      </trkpt>
      <trkpt lat="45.837836265563965" lon="10.813937187194824">
        <ele>889.356689453125</ele>
        <time>2006-11-26T12:30:15Z</time>
      </trkpt>
      <trkpt lat="45.838673114776611" lon="10.813829898834229">
        <ele>886.472900390625</ele>
        <time>2006-11-26T12:30:20Z</time>
      </trkpt>
      <trkpt lat="45.83869457244873" lon="10.813465118408203">
        <ele>885.9921875</ele>
        <time>2006-11-26T12:30:26Z</time>
      </trkpt>
      <trkpt lat="45.838973522186279" lon="10.813529491424561">
        <ele>885.031005859375</ele>
        <time>2006-11-26T12:30:28Z</time>
      </trkpt>
      <trkpt lat="45.839166641235352" lon="10.813314914703369">
        <ele>880.705078125</ele>
        <time>2006-11-26T12:30:32Z</time>
      </trkpt>
      <trkpt lat="45.839166641235352" lon="10.813229084014893">
        <ele>879.262939453125</ele>
        <time>2006-11-26T12:30:33Z</time>
      </trkpt>
      <trkpt lat="45.839381217956543" lon="10.812435150146484">
        <ele>805.241455078125</ele>
        <time>2006-11-26T12:30:40Z</time>
      </trkpt>
      <trkpt lat="45.839552879333496" lon="10.811491012573242">
        <ele>802.357421875</ele>
        <time>2006-11-26T12:30:49Z</time>
      </trkpt>
      <trkpt lat="45.839638710021973" lon="10.811491012573242">
        <ele>802.357421875</ele>
        <time>2006-11-26T12:30:51Z</time>
      </trkpt>
      <trkpt lat="45.839917659759521" lon="10.81228494644165">
        <ele>811.00927734375</ele>
        <time>2006-11-26T12:30:55Z</time>
      </trkpt>
      <trkpt lat="45.83996057510376" lon="10.812327861785889">
        <ele>811.00927734375</ele>
        <time>2006-11-26T12:30:56Z</time>
      </trkpt>
      <trkpt lat="45.840067863464355" lon="10.81228494644165">
        <ele>810.528564453125</ele>
        <time>2006-11-26T12:30:58Z</time>
      </trkpt>
      <trkpt lat="45.840132236480713" lon="10.813057422637939">
        <ele>814.3740234375</ele>
        <time>2006-11-26T12:31:04Z</time>
      </trkpt>
      <trkpt lat="45.840153694152832" lon="10.813143253326416">
        <ele>814.3740234375</ele>
        <time>2006-11-26T12:31:05Z</time>
      </trkpt>
      <trkpt lat="45.8404541015625" lon="10.813465118408203">
        <ele>813.893310546875</ele>
        <time>2006-11-26T12:31:10Z</time>
      </trkpt>
      <trkpt lat="45.840497016906738" lon="10.813958644866943">
        <ele>813.412841796875</ele>
        <time>2006-11-26T12:31:15Z</time>
      </trkpt>
      <trkpt lat="45.840497016906738" lon="10.814194679260254">
        <ele>810.528564453125</ele>
        <time>2006-11-26T12:31:18Z</time>
      </trkpt>
      <trkpt lat="45.840411186218262" lon="10.814602375030518">
        <ele>809.086669921875</ele>
        <time>2006-11-26T12:31:22Z</time>
      </trkpt>
      <trkpt lat="45.840668678283691" lon="10.814881324768066">
        <ele>807.644775390625</ele>
        <time>2006-11-26T12:31:28Z</time>
      </trkpt>
      <trkpt lat="45.840754508972168" lon="10.814859867095947">
        <ele>807.644775390625</ele>
        <time>2006-11-26T12:31:30Z</time>
      </trkpt>
      <trkpt lat="45.840904712677002" lon="10.814752578735352">
        <ele>806.20263671875</ele>
        <time>2006-11-26T12:31:33Z</time>
      </trkpt>
      <trkpt lat="45.840969085693359" lon="10.814774036407471">
        <ele>805.241455078125</ele>
        <time>2006-11-26T12:31:37Z</time>
      </trkpt>
      <trkpt lat="45.840861797332764" lon="10.814859867095947">
        <ele>804.7607421875</ele>
        <time>2006-11-26T12:31:40Z</time>
      </trkpt>
      <trkpt lat="45.840754508972168" lon="10.814945697784424">
        <ele>804.7607421875</ele>
        <time>2006-11-26T12:31:43Z</time>
      </trkpt>
      <trkpt lat="45.840497016906738" lon="10.815160274505615">
        <ele>803.799560546875</ele>
        <time>2006-11-26T12:31:48Z</time>
      </trkpt>
      <trkpt lat="45.840218067169189" lon="10.815138816833496">
        <ele>803.31884765625</ele>
        <time>2006-11-26T12:31:52Z</time>
      </trkpt>
      <trkpt lat="45.840132236480713" lon="10.815095901489258">
        <ele>802.838134765625</ele>
        <time>2006-11-26T12:31:54Z</time>
      </trkpt>
      <trkpt lat="45.840046405792236" lon="10.815010070800781">
        <ele>802.838134765625</ele>
        <time>2006-11-26T12:31:56Z</time>
      </trkpt>
      <trkpt lat="45.839874744415283" lon="10.814816951751709">
        <ele>802.838134765625</ele>
        <time>2006-11-26T12:32:00Z</time>
      </trkpt>
      <trkpt lat="45.839638710021973" lon="10.8150315284729">
        <ele>802.838134765625</ele>
        <time>2006-11-26T12:32:05Z</time>
      </trkpt>
      <trkpt lat="45.839617252349854" lon="10.815224647521973">
        <ele>801.396240234375</ele>
        <time>2006-11-26T12:32:09Z</time>
      </trkpt>
      <trkpt lat="45.83970308303833" lon="10.815267562866211">
        <ele>801.396240234375</ele>
        <time>2006-11-26T12:32:12Z</time>
      </trkpt>
      <trkpt lat="45.83970308303833" lon="10.815310478210449">
        <ele>801.396240234375</ele>
        <time>2006-11-26T12:32:13Z</time>
      </trkpt>
      <trkpt lat="45.839745998382568" lon="10.815632343292236">
        <ele>800.91552734375</ele>
        <time>2006-11-26T12:32:17Z</time>
      </trkpt>
      <trkpt lat="45.840368270874023" lon="10.816490650177002">
        <ele>795.1474609375</ele>
        <time>2006-11-26T12:32:23Z</time>
      </trkpt>
      <trkpt lat="45.840346813201904" lon="10.816597938537598">
        <ele>793.224853515625</ele>
        <time>2006-11-26T12:32:24Z</time>
      </trkpt>
      <trkpt lat="45.840346813201904" lon="10.816662311553955">
        <ele>793.224853515625</ele>
        <time>2006-11-26T12:32:26Z</time>
      </trkpt>
      <trkpt lat="45.840389728546143" lon="10.816812515258789">
        <ele>793.224853515625</ele>
        <time>2006-11-26T12:32:28Z</time>
      </trkpt>
      <trkpt lat="45.840582847595215" lon="10.816769599914551">
        <ele>792.744384765625</ele>
        <time>2006-11-26T12:32:34Z</time>
      </trkpt>
      <trkpt lat="45.840389728546143" lon="10.816662311553955">
        <ele>792.744384765625</ele>
        <time>2006-11-26T12:32:38Z</time>
      </trkpt>
      <trkpt lat="45.841162204742432" lon="10.816726684570313">
        <ele>784.5732421875</ele>
        <time>2006-11-26T12:32:43Z</time>
      </trkpt>
      <trkpt lat="45.841290950775146" lon="10.816941261291504">
        <ele>782.169921875</ele>
        <time>2006-11-26T12:32:45Z</time>
      </trkpt>
      <trkpt lat="45.841526985168457" lon="10.817563533782959">
        <ele>775.921142578125</ele>
        <time>2006-11-26T12:32:51Z</time>
      </trkpt>
      <trkpt lat="45.841591358184814" lon="10.817606449127197">
        <ele>773.99853515625</ele>
        <time>2006-11-26T12:32:53Z</time>
      </trkpt>
      <trkpt lat="45.841763019561768" lon="10.817456245422363">
        <ele>773.51806640625</ele>
        <time>2006-11-26T12:32:58Z</time>
      </trkpt>
      <trkpt lat="45.841913223266602" lon="10.817370414733887">
        <ele>773.037353515625</ele>
        <time>2006-11-26T12:33:01Z</time>
      </trkpt>
      <trkpt lat="45.841977596282959" lon="10.817499160766602">
        <ele>770.634033203125</ele>
        <time>2006-11-26T12:33:05Z</time>
      </trkpt>
      <trkpt lat="45.84195613861084" lon="10.817520618438721">
        <ele>768.230712890625</ele>
        <time>2006-11-26T12:33:06Z</time>
      </trkpt>
      <trkpt lat="45.841848850250244" lon="10.817584991455078">
        <ele>765.346923828125</ele>
        <time>2006-11-26T12:33:09Z</time>
      </trkpt>
      <trkpt lat="45.84169864654541" lon="10.817756652832031">
        <ele>764.385498046875</ele>
        <time>2006-11-26T12:33:12Z</time>
      </trkpt>
      <trkpt lat="45.841548442840576" lon="10.817885398864746">
        <ele>763.424072265625</ele>
        <time>2006-11-26T12:33:15Z</time>
      </trkpt>
      <trkpt lat="45.841183662414551" lon="10.818057060241699">
        <ele>762.943359375</ele>
        <time>2006-11-26T12:33:20Z</time>
      </trkpt>
      <trkpt lat="45.841119289398193" lon="10.818142890930176">
        <ele>762.943359375</ele>
        <time>2006-11-26T12:33:22Z</time>
      </trkpt>
      <trkpt lat="45.84120512008667" lon="10.818228721618652">
        <ele>762.462646484375</ele>
        <time>2006-11-26T12:33:26Z</time>
      </trkpt>
      <trkpt lat="45.841312408447266" lon="10.818228721618652">
        <ele>762.462646484375</ele>
        <time>2006-11-26T12:33:29Z</time>
      </trkpt>
      <trkpt lat="45.841505527496338" lon="10.818378925323486">
        <ele>762.462646484375</ele>
        <time>2006-11-26T12:33:33Z</time>
      </trkpt>
      <trkpt lat="45.841591358184814" lon="10.818507671356201">
        <ele>682.67333984375</ele>
        <time>2006-11-26T12:33:35Z</time>
      </trkpt>
      <trkpt lat="45.842041969299316" lon="10.819344520568848">
        <ele>674.502197265625</ele>
        <time>2006-11-26T12:33:46Z</time>
      </trkpt>
      <trkpt lat="45.842127799987793" lon="10.819494724273682">
        <ele>673.060302734375</ele>
        <time>2006-11-26T12:33:48Z</time>
      </trkpt>
      <trkpt lat="45.842878818511963" lon="10.820267200469971">
        <ele>670.17626953125</ele>
        <time>2006-11-26T12:34:00Z</time>
      </trkpt>
      <trkpt lat="45.843758583068848" lon="10.820503234863281">
        <ele>669.69580078125</ele>
        <time>2006-11-26T12:34:05Z</time>
      </trkpt>
      <trkpt lat="45.84418773651123" lon="10.8205246925354">
        <ele>669.215087890625</ele>
        <time>2006-11-26T12:34:11Z</time>
      </trkpt>
      <trkpt lat="45.844337940216064" lon="10.820567607879639">
        <ele>668.734375</ele>
        <time>2006-11-26T12:34:13Z</time>
      </trkpt>
      <trkpt lat="45.844552516937256" lon="10.820825099945068">
        <ele>661.043701171875</ele>
        <time>2006-11-26T12:34:17Z</time>
      </trkpt>
      <trkpt lat="45.844573974609375" lon="10.820932388305664">
        <ele>657.67919921875</ele>
        <time>2006-11-26T12:34:19Z</time>
      </trkpt>
      <trkpt lat="45.844616889953613" lon="10.820953845977783">
        <ele>652.391845703125</ele>
        <time>2006-11-26T12:34:24Z</time>
      </trkpt>
      <trkpt lat="45.844638347625732" lon="10.820953845977783">
        <ele>647.1044921875</ele>
        <time>2006-11-26T12:34:30Z</time>
      </trkpt>
      <trkpt lat="45.844681262969971" lon="10.820975303649902">
        <ele>621.629638671875</ele>
        <time>2006-11-26T12:35:37Z</time>
      </trkpt>
      <trkpt lat="45.844681262969971" lon="10.821018218994141">
        <ele>607.2099609375</ele>
        <time>2006-11-26T12:38:19Z</time>
      </trkpt>
      <trkpt lat="45.844659805297852" lon="10.821018218994141">
        <ele>619.226318359375</ele>
        <time>2006-11-26T12:42:30Z</time>
      </trkpt>
      <trkpt lat="45.844681262969971" lon="10.820846557617188">
        <ele>617.3037109375</ele>
        <time>2006-11-26T12:42:36Z</time>
      </trkpt>
      <trkpt lat="45.844616889953613" lon="10.820653438568115">
        <ele>615.86181640625</ele>
        <time>2006-11-26T12:42:40Z</time>
      </trkpt>
      <trkpt lat="45.844573974609375" lon="10.82054615020752">
        <ele>615.381103515625</ele>
        <time>2006-11-26T12:42:43Z</time>
      </trkpt>
      <trkpt lat="45.844638347625732" lon="10.820438861846924">
        <ele>614.900390625</ele>
        <time>2006-11-26T12:42:49Z</time>
      </trkpt>
      <trkpt lat="45.844659805297852" lon="10.820438861846924">
        <ele>614.900390625</ele>
        <time>2006-11-26T12:42:50Z</time>
      </trkpt>
      <trkpt lat="45.844852924346924" lon="10.820589065551758">
        <ele>613.93896484375</ele>
        <time>2006-11-26T12:42:55Z</time>
      </trkpt>
      <trkpt lat="45.845088958740234" lon="10.821018218994141">
        <ele>611.535888671875</ele>
        <time>2006-11-26T12:43:00Z</time>
      </trkpt>
      <trkpt lat="45.845153331756592" lon="10.821189880371094">
        <ele>610.574462890625</ele>
        <time>2006-11-26T12:43:02Z</time>
      </trkpt>
      <trkpt lat="45.845324993133545" lon="10.821361541748047">
        <ele>608.17138671875</ele>
        <time>2006-11-26T12:43:06Z</time>
      </trkpt>
      <trkpt lat="45.845539569854736" lon="10.821382999420166">
        <ele>606.24853515625</ele>
        <time>2006-11-26T12:43:10Z</time>
      </trkpt>
      <trkpt lat="45.845732688903809" lon="10.821447372436523">
        <ele>603.84521484375</ele>
        <time>2006-11-26T12:43:14Z</time>
      </trkpt>
      <trkpt lat="45.846118927001953" lon="10.821490287780762">
        <ele>600.480712890625</ele>
        <time>2006-11-26T12:43:21Z</time>
      </trkpt>
      <trkpt lat="45.846097469329834" lon="10.821597576141357">
        <ele>599.03857421875</ele>
        <time>2006-11-26T12:43:25Z</time>
      </trkpt>
      <trkpt lat="45.846011638641357" lon="10.821683406829834">
        <ele>598.077392578125</ele>
        <time>2006-11-26T12:43:28Z</time>
      </trkpt>
      <trkpt lat="45.846118927001953" lon="10.821769237518311">
        <ele>596.15478515625</ele>
        <time>2006-11-26T12:43:31Z</time>
      </trkpt>
      <trkpt lat="45.846290588378906" lon="10.821683406829834">
        <ele>593.75146484375</ele>
        <time>2006-11-26T12:43:34Z</time>
      </trkpt>
      <trkpt lat="45.84644079208374" lon="10.821597576141357">
        <ele>593.270751953125</ele>
        <time>2006-11-26T12:43:37Z</time>
      </trkpt>
      <trkpt lat="45.846612453460693" lon="10.821597576141357">
        <ele>591.828857421875</ele>
        <time>2006-11-26T12:43:40Z</time>
      </trkpt>
      <trkpt lat="45.846848487854004" lon="10.821533203125">
        <ele>589.90625</ele>
        <time>2006-11-26T12:43:44Z</time>
      </trkpt>
      <trkpt lat="45.847384929656982" lon="10.821382999420166">
        <ele>586.54150390625</ele>
        <time>2006-11-26T12:43:51Z</time>
      </trkpt>
      <trkpt lat="45.847792625427246" lon="10.821211338043213">
        <ele>582.215576171875</ele>
        <time>2006-11-26T12:43:56Z</time>
      </trkpt>
      <trkpt lat="45.848028659820557" lon="10.821297168731689">
        <ele>579.33154296875</ele>
        <time>2006-11-26T12:44:00Z</time>
      </trkpt>
      <trkpt lat="45.848050117492676" lon="10.821554660797119">
        <ele>576.928466796875</ele>
        <time>2006-11-26T12:44:03Z</time>
      </trkpt>
      <trkpt lat="45.848071575164795" lon="10.821747779846191">
        <ele>575.005859375</ele>
        <time>2006-11-26T12:44:06Z</time>
      </trkpt>
      <trkpt lat="45.848157405853271" lon="10.82179069519043">
        <ele>575.005859375</ele>
        <time>2006-11-26T12:44:08Z</time>
      </trkpt>
      <trkpt lat="45.848307609558105" lon="10.821855068206787">
        <ele>572.6025390625</ele>
        <time>2006-11-26T12:44:12Z</time>
      </trkpt>
      <trkpt lat="45.848329067230225" lon="10.82202672958374">
        <ele>571.640869140625</ele>
        <time>2006-11-26T12:44:16Z</time>
      </trkpt>
      <trkpt lat="45.848329067230225" lon="10.822391510009766">
        <ele>570.198974609375</ele>
        <time>2006-11-26T12:44:23Z</time>
      </trkpt>
      <trkpt lat="45.848329067230225" lon="10.822455883026123">
        <ele>568.757080078125</ele>
        <time>2006-11-26T12:44:25Z</time>
      </trkpt>
      <trkpt lat="45.848393440246582" lon="10.822627544403076">
        <ele>565.392578125</ele>
        <time>2006-11-26T12:44:32Z</time>
      </trkpt>
      <trkpt lat="45.848457813262939" lon="10.822734832763672">
        <ele>564.911865234375</ele>
        <time>2006-11-26T12:44:35Z</time>
      </trkpt>
      <trkpt lat="45.84869384765625" lon="10.822799205780029">
        <ele>564.43115234375</ele>
        <time>2006-11-26T12:44:39Z</time>
      </trkpt>
      <trkpt lat="45.849251747131348" lon="10.82277774810791">
        <ele>562.508544921875</ele>
        <time>2006-11-26T12:44:46Z</time>
      </trkpt>
      <trkpt lat="45.849788188934326" lon="10.82303524017334">
        <ele>557.7021484375</ele>
        <time>2006-11-26T12:44:52Z</time>
      </trkpt>
      <trkpt lat="45.849874019622803" lon="10.823078155517578">
        <ele>557.221435546875</ele>
        <time>2006-11-26T12:44:53Z</time>
      </trkpt>
      <trkpt lat="45.850024223327637" lon="10.823335647583008">
        <ele>554.81787109375</ele>
        <time>2006-11-26T12:44:57Z</time>
      </trkpt>
      <trkpt lat="45.85019588470459" lon="10.823678970336914">
        <ele>552.895263671875</ele>
        <time>2006-11-26T12:45:02Z</time>
      </trkpt>
      <trkpt lat="45.850389003753662" lon="10.823743343353271">
        <ele>550.011474609375</ele>
        <time>2006-11-26T12:45:06Z</time>
      </trkpt>
      <trkpt lat="45.850474834442139" lon="10.823721885681152">
        <ele>549.53076171875</ele>
        <time>2006-11-26T12:45:09Z</time>
      </trkpt>
      <trkpt lat="45.850775241851807" lon="10.823678970336914">
        <ele>545.204833984375</ele>
        <time>2006-11-26T12:45:14Z</time>
      </trkpt>
      <trkpt lat="45.851054191589355" lon="10.823807716369629">
        <ele>541.8402099609375</ele>
        <time>2006-11-26T12:45:18Z</time>
      </trkpt>
      <trkpt lat="45.851204395294189" lon="10.823979377746582">
        <ele>538.4757080078125</ele>
        <time>2006-11-26T12:45:21Z</time>
      </trkpt>
      <trkpt lat="45.8514404296875" lon="10.824258327484131">
        <ele>533.6689453125</ele>
        <time>2006-11-26T12:45:26Z</time>
      </trkpt>
      <trkpt lat="45.851397514343262" lon="10.824408531188965">
        <ele>532.22705078125</ele>
        <time>2006-11-26T12:45:30Z</time>
      </trkpt>
      <trkpt lat="45.851354598999023" lon="10.824429988861084">
        <ele>530.78515625</ele>
        <time>2006-11-26T12:45:35Z</time>
      </trkpt>
      <trkpt lat="45.851311683654785" lon="10.824451446533203">
        <ele>526.9398193359375</ele>
        <time>2006-11-26T12:46:16Z</time>
      </trkpt>
      <trkpt lat="45.851268768310547" lon="10.824494361877441">
        <ele>526.9398193359375</ele>
        <time>2006-11-26T12:46:17Z</time>
      </trkpt>
      <trkpt lat="45.851118564605713" lon="10.824451446533203">
        <ele>525.497802734375</ele>
        <time>2006-11-26T12:46:21Z</time>
      </trkpt>
      <trkpt lat="45.851011276245117" lon="10.824451446533203">
        <ele>523.5751953125</ele>
        <time>2006-11-26T12:46:24Z</time>
      </trkpt>
      <trkpt lat="45.851032733917236" lon="10.824558734893799">
        <ele>520.6912841796875</ele>
        <time>2006-11-26T12:46:28Z</time>
      </trkpt>
      <trkpt lat="45.851075649261475" lon="10.824601650238037">
        <ele>519.7298583984375</ele>
        <time>2006-11-26T12:46:29Z</time>
      </trkpt>
      <trkpt lat="45.851204395294189" lon="10.824816226959229">
        <ele>516.845947265625</ele>
        <time>2006-11-26T12:46:33Z</time>
      </trkpt>
      <trkpt lat="45.851612091064453" lon="10.825116634368896">
        <ele>512.52001953125</ele>
        <time>2006-11-26T12:46:39Z</time>
      </trkpt>
      <trkpt lat="45.851762294769287" lon="10.825223922729492">
        <ele>510.11669921875</ele>
        <time>2006-11-26T12:46:41Z</time>
      </trkpt>
      <trkpt lat="45.852019786834717" lon="10.825674533843994">
        <ele>505.3101806640625</ele>
        <time>2006-11-26T12:46:45Z</time>
      </trkpt>
      <trkpt lat="45.852234363555908" lon="10.826253890991211">
        <ele>500.5035400390625</ele>
        <time>2006-11-26T12:46:50Z</time>
      </trkpt>
      <trkpt lat="45.85242748260498" lon="10.82653284072876">
        <ele>498.100341796875</ele>
        <time>2006-11-26T12:46:54Z</time>
      </trkpt>
      <trkpt lat="45.8524489402771" lon="10.826661586761475">
        <ele>496.6583251953125</ele>
        <time>2006-11-26T12:46:58Z</time>
      </trkpt>
      <trkpt lat="45.852363109588623" lon="10.826597213745117">
        <ele>497.138916015625</ele>
        <time>2006-11-26T12:47:01Z</time>
      </trkpt>
      <trkpt lat="45.852062702178955" lon="10.826382637023926">
        <ele>493.7742919921875</ele>
        <time>2006-11-26T12:47:07Z</time>
      </trkpt>
      <trkpt lat="45.851633548736572" lon="10.826060771942139">
        <ele>490.890380859375</ele>
        <time>2006-11-26T12:47:13Z</time>
      </trkpt>
      <trkpt lat="45.851547718048096" lon="10.8260178565979">
        <ele>489.9290771484375</ele>
        <time>2006-11-26T12:47:14Z</time>
      </trkpt>
      <trkpt lat="45.851225852966309" lon="10.826082229614258">
        <ele>487.0450439453125</ele>
        <time>2006-11-26T12:47:18Z</time>
      </trkpt>
      <trkpt lat="45.851032733917236" lon="10.826361179351807">
        <ele>484.641845703125</ele>
        <time>2006-11-26T12:47:21Z</time>
      </trkpt>
      <trkpt lat="45.850861072540283" lon="10.826489925384521">
        <ele>482.71923828125</ele>
        <time>2006-11-26T12:47:23Z</time>
      </trkpt>
      <trkpt lat="45.850560665130615" lon="10.826897621154785">
        <ele>477.431884765625</ele>
        <time>2006-11-26T12:47:28Z</time>
      </trkpt>
      <trkpt lat="45.850667953491211" lon="10.827176570892334">
        <ele>475.50927734375</ele>
        <time>2006-11-26T12:47:31Z</time>
      </trkpt>
      <trkpt lat="45.850903987884521" lon="10.827069282531738">
        <ele>475.50927734375</ele>
        <time>2006-11-26T12:47:34Z</time>
      </trkpt>
      <trkpt lat="45.851225852966309" lon="10.826897621154785">
        <ele>474.5479736328125</ele>
        <time>2006-11-26T12:47:38Z</time>
      </trkpt>
      <trkpt lat="45.851504802703857" lon="10.826983451843262">
        <ele>470.70263671875</ele>
        <time>2006-11-26T12:47:43Z</time>
      </trkpt>
      <trkpt lat="45.851612091064453" lon="10.827240943908691">
        <ele>468.29931640625</ele>
        <time>2006-11-26T12:47:46Z</time>
      </trkpt>
      <trkpt lat="45.851869583129883" lon="10.827584266662598">
        <ele>463.4927978515625</ele>
        <time>2006-11-26T12:47:51Z</time>
      </trkpt>
      <trkpt lat="45.85193395614624" lon="10.827627182006836">
        <ele>462.5313720703125</ele>
        <time>2006-11-26T12:47:52Z</time>
      </trkpt>
      <trkpt lat="45.852363109588623" lon="10.827841758728027">
        <ele>459.1668701171875</ele>
        <time>2006-11-26T12:47:57Z</time>
      </trkpt>
      <trkpt lat="45.852878093719482" lon="10.828142166137695">
        <ele>452.918212890625</ele>
        <time>2006-11-26T12:48:03Z</time>
      </trkpt>
      <trkpt lat="45.853328704833984" lon="10.828185081481934">
        <ele>448.5924072265625</ele>
        <time>2006-11-26T12:48:08Z</time>
      </trkpt>
      <trkpt lat="45.853500366210938" lon="10.828464031219482">
        <ele>447.1502685546875</ele>
        <time>2006-11-26T12:48:11Z</time>
      </trkpt>
      <trkpt lat="45.853564739227295" lon="10.828549861907959">
        <ele>446.669677734375</ele>
        <time>2006-11-26T12:48:12Z</time>
      </trkpt>
      <trkpt lat="45.854315757751465" lon="10.829064846038818">
        <ele>442.824462890625</ele>
        <time>2006-11-26T12:48:20Z</time>
      </trkpt>
      <trkpt lat="45.854744911193848" lon="10.829172134399414">
        <ele>439.459716796875</ele>
        <time>2006-11-26T12:48:24Z</time>
      </trkpt>
      <trkpt lat="45.854916572570801" lon="10.82927942276001">
        <ele>437.537109375</ele>
        <time>2006-11-26T12:48:26Z</time>
      </trkpt>
      <trkpt lat="45.855410099029541" lon="10.829751491546631">
        <ele>431.7691650390625</ele>
        <time>2006-11-26T12:48:32Z</time>
      </trkpt>
      <trkpt lat="45.855817794799805" lon="10.829837322235107">
        <ele>429.365966796875</ele>
        <time>2006-11-26T12:48:36Z</time>
      </trkpt>
      <trkpt lat="45.856289863586426" lon="10.830073356628418">
        <ele>422.63671875</ele>
        <time>2006-11-26T12:48:42Z</time>
      </trkpt>
      <trkpt lat="45.856354236602783" lon="10.830137729644775">
        <ele>421.6754150390625</ele>
        <time>2006-11-26T12:48:43Z</time>
      </trkpt>
      <trkpt lat="45.856504440307617" lon="10.830373764038086">
        <ele>417.349609375</ele>
        <time>2006-11-26T12:48:48Z</time>
      </trkpt>
      <trkpt lat="45.856547355651855" lon="10.830330848693848">
        <ele>414.4654541015625</ele>
        <time>2006-11-26T12:48:52Z</time>
      </trkpt>
      <trkpt lat="45.856568813323975" lon="10.830073356628418">
        <ele>412.5428466796875</ele>
        <time>2006-11-26T12:48:59Z</time>
      </trkpt>
      <trkpt lat="45.856611728668213" lon="10.829837322235107">
        <ele>410.1396484375</ele>
        <time>2006-11-26T12:49:05Z</time>
      </trkpt>
      <trkpt lat="45.85667610168457" lon="10.829708576202393">
        <ele>409.1783447265625</ele>
        <time>2006-11-26T12:49:12Z</time>
      </trkpt>
      <trkpt lat="45.856783390045166" lon="10.829536914825439">
        <ele>408.217041015625</ele>
        <time>2006-11-26T12:49:20Z</time>
      </trkpt>
      <trkpt lat="45.856869220733643" lon="10.829451084136963">
        <ele>407.736328125</ele>
        <time>2006-11-26T12:49:26Z</time>
      </trkpt>
      <trkpt lat="45.856976509094238" lon="10.82927942276001">
        <ele>406.77490234375</ele>
        <time>2006-11-26T12:49:33Z</time>
      </trkpt>
      <trkpt lat="45.857040882110596" lon="10.829193592071533">
        <ele>407.255615234375</ele>
        <time>2006-11-26T12:49:37Z</time>
      </trkpt>
      <trkpt lat="45.857062339782715" lon="10.82927942276001">
        <ele>405.813720703125</ele>
        <time>2006-11-26T12:49:41Z</time>
      </trkpt>
      <trkpt lat="45.856912136077881" lon="10.829536914825439">
        <ele>401.968505859375</ele>
        <time>2006-11-26T12:49:46Z</time>
      </trkpt>
      <trkpt lat="45.856783390045166" lon="10.829815864562988">
        <ele>400.0458984375</ele>
        <time>2006-11-26T12:49:50Z</time>
      </trkpt>
      <trkpt lat="45.856804847717285" lon="10.829987525939941">
        <ele>400.0458984375</ele>
        <time>2006-11-26T12:49:52Z</time>
      </trkpt>
      <trkpt lat="45.856869220733643" lon="10.830245018005371">
        <ele>401.48779296875</ele>
        <time>2006-11-26T12:49:55Z</time>
      </trkpt>
      <trkpt lat="45.856955051422119" lon="10.830309391021729">
        <ele>399.0843505859375</ele>
        <time>2006-11-26T12:49:59Z</time>
      </trkpt>
      <trkpt lat="45.856890678405762" lon="10.829730033874512">
        <ele>393.3165283203125</ele>
        <time>2006-11-26T12:50:06Z</time>
      </trkpt>
      <trkpt lat="45.857169628143311" lon="10.829343795776367">
        <ele>391.393798828125</ele>
        <time>2006-11-26T12:50:12Z</time>
      </trkpt>
      <trkpt lat="45.857577323913574" lon="10.829536914825439">
        <ele>390.9132080078125</ele>
        <time>2006-11-26T12:50:18Z</time>
      </trkpt>
      <trkpt lat="45.857641696929932" lon="10.829601287841797">
        <ele>390.9132080078125</ele>
        <time>2006-11-26T12:50:19Z</time>
      </trkpt>
      <trkpt lat="45.858113765716553" lon="10.829558372497559">
        <ele>388.9906005859375</ele>
        <time>2006-11-26T12:50:24Z</time>
      </trkpt>
      <trkpt lat="45.858371257781982" lon="10.829601287841797">
        <ele>384.664794921875</ele>
        <time>2006-11-26T12:50:28Z</time>
      </trkpt>
      <trkpt lat="45.858521461486816" lon="10.829665660858154">
        <ele>382.2613525390625</ele>
        <time>2006-11-26T12:50:30Z</time>
      </trkpt>
      <trkpt lat="45.858736038208008" lon="10.829687118530273">
        <ele>380.3387451171875</ele>
        <time>2006-11-26T12:50:33Z</time>
      </trkpt>
      <trkpt lat="45.858778953552246" lon="10.829837322235107">
        <ele>378.8968505859375</ele>
        <time>2006-11-26T12:50:36Z</time>
      </trkpt>
      <trkpt lat="45.858757495880127" lon="10.829794406890869">
        <ele>377.9354248046875</ele>
        <time>2006-11-26T12:50:37Z</time>
      </trkpt>
      <trkpt lat="45.858564376831055" lon="10.829708576202393">
        <ele>375.5321044921875</ele>
        <time>2006-11-26T12:50:41Z</time>
      </trkpt>
      <trkpt lat="45.858242511749268" lon="10.829601287841797">
        <ele>373.12890625</ele>
        <time>2006-11-26T12:50:46Z</time>
      </trkpt>
      <trkpt lat="45.857963562011719" lon="10.82977294921875">
        <ele>369.7642822265625</ele>
        <time>2006-11-26T12:50:50Z</time>
      </trkpt>
      <trkpt lat="45.857641696929932" lon="10.829730033874512">
        <ele>365.9189453125</ele>
        <time>2006-11-26T12:50:54Z</time>
      </trkpt>
      <trkpt lat="45.857405662536621" lon="10.829923152923584">
        <ele>363.996337890625</ele>
        <time>2006-11-26T12:50:58Z</time>
      </trkpt>
      <trkpt lat="45.857405662536621" lon="10.830159187316895">
        <ele>363.5157470703125</ele>
        <time>2006-11-26T12:51:00Z</time>
      </trkpt>
      <trkpt lat="45.85742712020874" lon="10.830502510070801">
        <ele>358.2283935546875</ele>
        <time>2006-11-26T12:51:04Z</time>
      </trkpt>
      <trkpt lat="45.857491493225098" lon="10.830481052398682">
        <ele>356.786376953125</ele>
        <time>2006-11-26T12:51:06Z</time>
      </trkpt>
      <trkpt lat="45.857555866241455" lon="10.830223560333252">
        <ele>354.3831787109375</ele>
        <time>2006-11-26T12:51:09Z</time>
      </trkpt>
      <trkpt lat="45.857663154602051" lon="10.829880237579346">
        <ele>351.4991455078125</ele>
        <time>2006-11-26T12:51:13Z</time>
      </trkpt>
      <trkpt lat="45.857834815979004" lon="10.829794406890869">
        <ele>351.0184326171875</ele>
        <time>2006-11-26T12:51:15Z</time>
      </trkpt>
      <trkpt lat="45.858135223388672" lon="10.829730033874512">
        <ele>350.0572509765625</ele>
        <time>2006-11-26T12:51:18Z</time>
      </trkpt>
      <trkpt lat="45.858714580535889" lon="10.829837322235107">
        <ele>345.7313232421875</ele>
        <time>2006-11-26T12:51:24Z</time>
      </trkpt>
      <trkpt lat="45.859036445617676" lon="10.830094814300537">
        <ele>342.36669921875</ele>
        <time>2006-11-26T12:51:28Z</time>
      </trkpt>
      <trkpt lat="45.859315395355225" lon="10.830245018005371">
        <ele>339.96337890625</ele>
        <time>2006-11-26T12:51:31Z</time>
      </trkpt>
      <trkpt lat="45.859551429748535" lon="10.830180644989014">
        <ele>339.0020751953125</ele>
        <time>2006-11-26T12:51:35Z</time>
      </trkpt>
      <trkpt lat="45.859637260437012" lon="10.830245018005371">
        <ele>339.0020751953125</ele>
        <time>2006-11-26T12:51:38Z</time>
      </trkpt>
      <trkpt lat="45.859615802764893" lon="10.830309391021729">
        <ele>338.521484375</ele>
        <time>2006-11-26T12:51:39Z</time>
      </trkpt>
      <trkpt lat="45.859487056732178" lon="10.830502510070801">
        <ele>335.15673828125</ele>
        <time>2006-11-26T12:51:42Z</time>
      </trkpt>
      <trkpt lat="45.859315395355225" lon="10.830545425415039">
        <ele>330.8309326171875</ele>
        <time>2006-11-26T12:51:46Z</time>
      </trkpt>
      <trkpt lat="45.85892915725708" lon="10.830309391021729">
        <ele>325.06298828125</ele>
        <time>2006-11-26T12:51:52Z</time>
      </trkpt>
      <trkpt lat="45.85869312286377" lon="10.830180644989014">
        <ele>321.6983642578125</ele>
        <time>2006-11-26T12:51:55Z</time>
      </trkpt>
      <trkpt lat="45.858285427093506" lon="10.830245018005371">
        <ele>317.85302734375</ele>
        <time>2006-11-26T12:52:00Z</time>
      </trkpt>
      <trkpt lat="45.858221054077148" lon="10.830373764038086">
        <ele>315.4498291015625</ele>
        <time>2006-11-26T12:52:03Z</time>
      </trkpt>
      <trkpt lat="45.858242511749268" lon="10.830395221710205">
        <ele>314.4884033203125</ele>
        <time>2006-11-26T12:52:04Z</time>
      </trkpt>
      <trkpt lat="45.858414173126221" lon="10.830352306365967">
        <ele>314.0078125</ele>
        <time>2006-11-26T12:52:08Z</time>
      </trkpt>
      <trkpt lat="45.85869312286377" lon="10.830395221710205">
        <ele>310.1624755859375</ele>
        <time>2006-11-26T12:52:12Z</time>
      </trkpt>
      <trkpt lat="45.858864784240723" lon="10.830502510070801">
        <ele>308.720458984375</ele>
        <time>2006-11-26T12:52:14Z</time>
      </trkpt>
      <trkpt lat="45.859165191650391" lon="10.830888748168945">
        <ele>307.278564453125</ele>
        <time>2006-11-26T12:52:19Z</time>
      </trkpt>
      <trkpt lat="45.859251022338867" lon="10.831081867218018">
        <ele>305.35595703125</ele>
        <time>2006-11-26T12:52:21Z</time>
      </trkpt>
      <trkpt lat="45.859487056732178" lon="10.831253528594971">
        <ele>302.471923828125</ele>
        <time>2006-11-26T12:52:25Z</time>
      </trkpt>
      <trkpt lat="45.859615802764893" lon="10.830996036529541">
        <ele>299.5880126953125</ele>
        <time>2006-11-26T12:52:28Z</time>
      </trkpt>
      <trkpt lat="45.859744548797607" lon="10.830695629119873">
        <ele>296.7041015625</ele>
        <time>2006-11-26T12:52:31Z</time>
      </trkpt>
      <trkpt lat="45.859894752502441" lon="10.830502510070801">
        <ele>295.74267578125</ele>
        <time>2006-11-26T12:52:34Z</time>
      </trkpt>
      <trkpt lat="45.860044956207275" lon="10.830309391021729">
        <ele>293.820068359375</ele>
        <time>2006-11-26T12:52:37Z</time>
      </trkpt>
      <trkpt lat="45.860216617584229" lon="10.830094814300537">
        <ele>292.8587646484375</ele>
        <time>2006-11-26T12:52:40Z</time>
      </trkpt>
      <trkpt lat="45.860517024993896" lon="10.829987525939941">
        <ele>290.9361572265625</ele>
        <time>2006-11-26T12:52:44Z</time>
      </trkpt>
      <trkpt lat="45.860624313354492" lon="10.829837322235107">
        <ele>289.0135498046875</ele>
        <time>2006-11-26T12:52:46Z</time>
      </trkpt>
      <trkpt lat="45.860710144042969" lon="10.829622745513916">
        <ele>287.0908203125</ele>
        <time>2006-11-26T12:52:48Z</time>
      </trkpt>
      <trkpt lat="45.861096382141113" lon="10.828936100006104">
        <ele>284.6876220703125</ele>
        <time>2006-11-26T12:52:55Z</time>
      </trkpt>
      <trkpt lat="45.86118221282959" lon="10.828635692596436">
        <ele>284.2069091796875</ele>
        <time>2006-11-26T12:52:58Z</time>
      </trkpt>
      <trkpt lat="45.861482620239258" lon="10.828206539154053">
        <ele>280.8424072265625</ele>
        <time>2006-11-26T12:53:03Z</time>
      </trkpt>
      <trkpt lat="45.861611366271973" lon="10.82801342010498">
        <ele>280.8424072265625</ele>
        <time>2006-11-26T12:53:05Z</time>
      </trkpt>
      <trkpt lat="45.861804485321045" lon="10.82801342010498">
        <ele>279.880859375</ele>
        <time>2006-11-26T12:53:09Z</time>
      </trkpt>
      <trkpt lat="45.861890316009521" lon="10.828335285186768">
        <ele>276.03564453125</ele>
        <time>2006-11-26T12:53:13Z</time>
      </trkpt>
      <trkpt lat="45.861911773681641" lon="10.828506946563721">
        <ele>274.113037109375</ele>
        <time>2006-11-26T12:53:15Z</time>
      </trkpt>
      <trkpt lat="45.86193323135376" lon="10.828700065612793">
        <ele>272.1904296875</ele>
        <time>2006-11-26T12:53:17Z</time>
      </trkpt>
      <trkpt lat="45.862147808074951" lon="10.829493999481201">
        <ele>271.709716796875</ele>
        <time>2006-11-26T12:53:26Z</time>
      </trkpt>
      <trkpt lat="45.862233638763428" lon="10.82977294921875">
        <ele>269.3065185546875</ele>
        <time>2006-11-26T12:53:31Z</time>
      </trkpt>
      <trkpt lat="45.862255096435547" lon="10.829880237579346">
        <ele>265.94189453125</ele>
        <time>2006-11-26T12:53:37Z</time>
      </trkpt>
      <trkpt lat="45.862276554107666" lon="10.829901695251465">
        <ele>261.13525390625</ele>
        <time>2006-11-26T12:53:52Z</time>
      </trkpt>
      <trkpt lat="45.862362384796143" lon="10.829966068267822">
        <ele>250.0802001953125</ele>
        <time>2006-11-26T12:55:07Z</time>
      </trkpt>
      <trkpt lat="45.862362384796143" lon="10.829901695251465">
        <ele>250.560791015625</ele>
        <time>2006-11-26T12:55:23Z</time>
      </trkpt>
      <trkpt lat="45.862362384796143" lon="10.829858779907227">
        <ele>252.9639892578125</ele>
        <time>2006-11-26T12:55:48Z</time>
      </trkpt>
      <trkpt lat="45.862383842468262" lon="10.829858779907227">
        <ele>247.6767578125</ele>
        <time>2006-11-26T12:57:29Z</time>
      </trkpt>
      <trkpt lat="45.862362384796143" lon="10.829644203186035">
        <ele>246.7154541015625</ele>
        <time>2006-11-26T12:57:36Z</time>
      </trkpt>
      <trkpt lat="45.862190723419189" lon="10.829107761383057">
        <ele>246.7154541015625</ele>
        <time>2006-11-26T12:57:46Z</time>
      </trkpt>
      <trkpt lat="45.862083435058594" lon="10.828936100006104">
        <ele>246.23486328125</ele>
        <time>2006-11-26T12:57:50Z</time>
      </trkpt>
      <trkpt lat="45.862019062042236" lon="10.828678607940674">
        <ele>246.23486328125</ele>
        <time>2006-11-26T12:57:55Z</time>
      </trkpt>
      <trkpt lat="45.861976146697998" lon="10.828206539154053">
        <ele>246.23486328125</ele>
        <time>2006-11-26T12:58:04Z</time>
      </trkpt>
      <trkpt lat="45.861868858337402" lon="10.828056335449219">
        <ele>247.6767578125</ele>
        <time>2006-11-26T12:58:09Z</time>
      </trkpt>
      <trkpt lat="45.861718654632568" lon="10.828142166137695">
        <ele>250.560791015625</ele>
        <time>2006-11-26T12:58:14Z</time>
      </trkpt>
      <trkpt lat="45.861504077911377" lon="10.828464031219482">
        <ele>251.0413818359375</ele>
        <time>2006-11-26T12:58:25Z</time>
      </trkpt>
      <trkpt lat="45.861332416534424" lon="10.82878589630127">
        <ele>254.406005859375</ele>
        <time>2006-11-26T12:58:36Z</time>
      </trkpt>
      <trkpt lat="45.861096382141113" lon="10.829086303710938">
        <ele>256.3287353515625</ele>
        <time>2006-11-26T12:58:48Z</time>
      </trkpt>
      <trkpt lat="45.861032009124756" lon="10.829257965087891">
        <ele>257.2900390625</ele>
        <time>2006-11-26T12:58:55Z</time>
      </trkpt>
      <trkpt lat="45.860967636108398" lon="10.829365253448486">
        <ele>258.73193359375</ele>
        <time>2006-11-26T12:59:04Z</time>
      </trkpt>
      <trkpt lat="45.860967636108398" lon="10.829365253448486">
        <ele>260.1739501953125</ele>
        <time>2006-11-26T12:59:15Z</time>
      </trkpt>
      <trkpt lat="45.860989093780518" lon="10.829386711120605">
        <ele>259.212646484375</ele>
        <time>2006-11-26T12:59:35Z</time>
      </trkpt>
      <trkpt lat="45.861032009124756" lon="10.829408168792725">
        <ele>263.057861328125</ele>
        <time>2006-11-26T12:59:56Z</time>
      </trkpt>
      <trkpt lat="45.861010551452637" lon="10.829429626464844">
        <ele>261.615966796875</ele>
        <time>2006-11-26T13:00:04Z</time>
      </trkpt>
      <trkpt lat="45.861010551452637" lon="10.829451084136963">
        <ele>260.1739501953125</ele>
        <time>2006-11-26T13:00:11Z</time>
      </trkpt>
      <trkpt lat="45.861010551452637" lon="10.829472541809082">
        <ele>259.212646484375</ele>
        <time>2006-11-26T13:00:24Z</time>
      </trkpt>
      <trkpt lat="45.860989093780518" lon="10.829472541809082">
        <ele>260.654541015625</ele>
        <time>2006-11-26T13:00:35Z</time>
      </trkpt>
      <trkpt lat="45.860967636108398" lon="10.829536914825439">
        <ele>261.13525390625</ele>
        <time>2006-11-26T13:01:27Z</time>
      </trkpt>
      <trkpt lat="45.860946178436279" lon="10.829558372497559">
        <ele>261.13525390625</ele>
        <time>2006-11-26T13:01:36Z</time>
      </trkpt>
      <trkpt lat="45.86092472076416" lon="10.829622745513916">
        <ele>259.693359375</ele>
        <time>2006-11-26T13:01:48Z</time>
      </trkpt>
      <trkpt lat="45.860903263092041" lon="10.829687118530273">
        <ele>257.770751953125</ele>
        <time>2006-11-26T13:01:57Z</time>
      </trkpt>
      <trkpt lat="45.86092472076416" lon="10.829751491546631">
        <ele>257.770751953125</ele>
        <time>2006-11-26T13:02:06Z</time>
      </trkpt>
      <trkpt lat="45.860989093780518" lon="10.829880237579346">
        <ele>256.809326171875</ele>
        <time>2006-11-26T13:02:20Z</time>
      </trkpt>
      <trkpt lat="45.861074924468994" lon="10.829880237579346">
        <ele>257.2900390625</ele>
        <time>2006-11-26T13:02:34Z</time>
      </trkpt>
      <trkpt lat="45.861117839813232" lon="10.829815864562988">
        <ele>254.406005859375</ele>
        <time>2006-11-26T13:02:43Z</time>
      </trkpt>
      <trkpt lat="45.861160755157471" lon="10.829815864562988">
        <ele>253.4447021484375</ele>
        <time>2006-11-26T13:02:50Z</time>
      </trkpt>
      <trkpt lat="45.861203670501709" lon="10.829858779907227">
        <ele>252.4833984375</ele>
        <time>2006-11-26T13:03:00Z</time>
      </trkpt>
      <trkpt lat="45.861203670501709" lon="10.829858779907227">
        <ele>251.5220947265625</ele>
        <time>2006-11-26T13:03:02Z</time>
      </trkpt>
      <trkpt lat="45.861160755157471" lon="10.83003044128418">
        <ele>248.63818359375</ele>
        <time>2006-11-26T13:03:11Z</time>
      </trkpt>
      <trkpt lat="45.861074924468994" lon="10.830287933349609">
        <ele>244.312255859375</ele>
        <time>2006-11-26T13:03:21Z</time>
      </trkpt>
      <trkpt lat="45.86092472076416" lon="10.830588340759277">
        <ele>239.5054931640625</ele>
        <time>2006-11-26T13:03:33Z</time>
      </trkpt>
      <trkpt lat="45.860753059387207" lon="10.830867290496826">
        <ele>237.102294921875</ele>
        <time>2006-11-26T13:03:43Z</time>
      </trkpt>
      <trkpt lat="45.860645771026611" lon="10.830996036529541">
        <ele>237.5828857421875</ele>
        <time>2006-11-26T13:03:51Z</time>
      </trkpt>
      <trkpt lat="45.860559940338135" lon="10.83101749420166">
        <ele>236.6217041015625</ele>
        <time>2006-11-26T13:03:59Z</time>
      </trkpt>
      <trkpt lat="45.860538482666016" lon="10.831060409545898">
        <ele>230.373046875</ele>
        <time>2006-11-26T13:04:09Z</time>
      </trkpt>
      <trkpt lat="45.860474109649658" lon="10.831081867218018">
        <ele>226.52783203125</ele>
        <time>2006-11-26T13:04:18Z</time>
      </trkpt>
      <trkpt lat="45.860388278961182" lon="10.831189155578613">
        <ele>222.6824951171875</ele>
        <time>2006-11-26T13:04:36Z</time>
      </trkpt>
      <trkpt lat="45.860366821289063" lon="10.831210613250732">
        <ele>220.2791748046875</ele>
        <time>2006-11-26T13:04:52Z</time>
      </trkpt>
      <trkpt lat="45.860302448272705" lon="10.831296443939209">
        <ele>245.754150390625</ele>
        <time>2006-11-26T13:07:42Z</time>
      </trkpt>
      <trkpt lat="45.860302448272705" lon="10.831253528594971">
        <ele>200.0916748046875</ele>
        <time>2006-11-26T13:08:57Z</time>
      </trkpt>
      <trkpt lat="45.860238075256348" lon="10.831446647644043">
        <ele>202.0142822265625</ele>
        <time>2006-11-26T13:09:08Z</time>
      </trkpt>
      <trkpt lat="45.860216617584229" lon="10.83153247833252">
        <ele>201.5335693359375</ele>
        <time>2006-11-26T13:09:14Z</time>
      </trkpt>
      <trkpt lat="45.860216617584229" lon="10.831639766693115">
        <ele>200.572265625</ele>
        <time>2006-11-26T13:09:21Z</time>
      </trkpt>
      <trkpt lat="45.860238075256348" lon="10.831704139709473">
        <ele>198.1689453125</ele>
        <time>2006-11-26T13:09:31Z</time>
      </trkpt>
      <trkpt lat="45.860238075256348" lon="10.83176851272583">
        <ele>199.61083984375</ele>
        <time>2006-11-26T13:09:41Z</time>
      </trkpt>
      <trkpt lat="45.860302448272705" lon="10.831789970397949">
        <ele>197.688232421875</ele>
        <time>2006-11-26T13:09:51Z</time>
      </trkpt>
      <trkpt lat="45.860366821289063" lon="10.831789970397949">
        <ele>195.765625</ele>
        <time>2006-11-26T13:09:59Z</time>
      </trkpt>
      <trkpt lat="45.860409736633301" lon="10.83176851272583">
        <ele>194.8043212890625</ele>
        <time>2006-11-26T13:10:08Z</time>
      </trkpt>
      <trkpt lat="45.860495567321777" lon="10.831747055053711">
        <ele>191.9202880859375</ele>
        <time>2006-11-26T13:10:16Z</time>
      </trkpt>
      <trkpt lat="45.860602855682373" lon="10.831704139709473">
        <ele>189.5169677734375</ele>
        <time>2006-11-26T13:10:27Z</time>
      </trkpt>
      <trkpt lat="45.860710144042969" lon="10.831661224365234">
        <ele>184.2298583984375</ele>
        <time>2006-11-26T13:10:37Z</time>
      </trkpt>
      <trkpt lat="45.860774517059326" lon="10.831618309020996">
        <ele>181.3458251953125</ele>
        <time>2006-11-26T13:10:45Z</time>
      </trkpt>
      <trkpt lat="45.860795974731445" lon="10.8315110206604">
        <ele>178.942626953125</ele>
        <time>2006-11-26T13:10:54Z</time>
      </trkpt>
      <trkpt lat="45.860838890075684" lon="10.831382274627686">
        <ele>177.02001953125</ele>
        <time>2006-11-26T13:11:06Z</time>
      </trkpt>
      <trkpt lat="45.860967636108398" lon="10.831210613250732">
        <ele>176.539306640625</ele>
        <time>2006-11-26T13:11:23Z</time>
      </trkpt>
      <trkpt lat="45.861117839813232" lon="10.831124782562256">
        <ele>172.6939697265625</ele>
        <time>2006-11-26T13:11:36Z</time>
      </trkpt>
      <trkpt lat="45.861332416534424" lon="10.830996036529541">
        <ele>171.732666015625</ele>
        <time>2006-11-26T13:11:54Z</time>
      </trkpt>
      <trkpt lat="45.861396789550781" lon="10.830974578857422">
        <ele>170.7713623046875</ele>
        <time>2006-11-26T13:12:04Z</time>
      </trkpt>
      <trkpt lat="45.86143970489502" lon="10.831038951873779">
        <ele>171.2520751953125</ele>
        <time>2006-11-26T13:12:11Z</time>
      </trkpt>
      <trkpt lat="45.861353874206543" lon="10.831296443939209">
        <ele>169.3294677734375</ele>
        <time>2006-11-26T13:12:21Z</time>
      </trkpt>
      <trkpt lat="45.86118221282959" lon="10.831596851348877">
        <ele>165.9647216796875</ele>
        <time>2006-11-26T13:12:31Z</time>
      </trkpt>
      <trkpt lat="45.861160755157471" lon="10.831875801086426">
        <ele>160.1968994140625</ele>
        <time>2006-11-26T13:12:42Z</time>
      </trkpt>
      <trkpt lat="45.861203670501709" lon="10.831983089447021">
        <ele>158.7547607421875</ele>
        <time>2006-11-26T13:12:49Z</time>
      </trkpt>
      <trkpt lat="45.861375331878662" lon="10.831897258758545">
        <ele>157.3128662109375</ele>
        <time>2006-11-26T13:13:11Z</time>
      </trkpt>
      <trkpt lat="45.861375331878662" lon="10.831983089447021">
        <ele>156.3515625</ele>
        <time>2006-11-26T13:13:27Z</time>
      </trkpt>
      <trkpt lat="45.861268043518066" lon="10.832219123840332">
        <ele>153.9483642578125</ele>
        <time>2006-11-26T13:13:33Z</time>
      </trkpt>
      <trkpt lat="45.861246585845947" lon="10.832240581512451">
        <ele>149.1416015625</ele>
        <time>2006-11-26T13:13:38Z</time>
      </trkpt>
      <trkpt lat="45.861203670501709" lon="10.832455158233643">
        <ele>147.69970703125</ele>
        <time>2006-11-26T13:13:46Z</time>
      </trkpt>
      <trkpt lat="45.861117839813232" lon="10.832562446594238">
        <ele>134.2412109375</ele>
        <time>2006-11-26T13:13:59Z</time>
      </trkpt>
      <trkpt lat="45.861117839813232" lon="10.832562446594238">
        <ele>133.2799072265625</ele>
        <time>2006-11-26T13:14:00Z</time>
      </trkpt>
      <trkpt lat="45.86118221282959" lon="10.832562446594238">
        <ele>131.837890625</ele>
        <time>2006-11-26T13:14:09Z</time>
      </trkpt>
      <trkpt lat="45.86118221282959" lon="10.832498073577881">
        <ele>128.473388671875</ele>
        <time>2006-11-26T13:14:20Z</time>
      </trkpt>
      <trkpt lat="45.86118221282959" lon="10.832433700561523">
        <ele>120.3021240234375</ele>
        <time>2006-11-26T13:14:35Z</time>
      </trkpt>
      <trkpt lat="45.86118221282959" lon="10.832390785217285">
        <ele>119.3408203125</ele>
        <time>2006-11-26T13:15:38Z</time>
      </trkpt>
      <trkpt lat="45.861246585845947" lon="10.832455158233643">
        <ele>119.3408203125</ele>
        <time>2006-11-26T13:15:44Z</time>
      </trkpt>
      <trkpt lat="45.861268043518066" lon="10.832476615905762">
        <ele>119.3408203125</ele>
        <time>2006-11-26T13:15:56Z</time>
      </trkpt>
      <trkpt lat="45.861225128173828" lon="10.832540988922119">
        <ele>119.3408203125</ele>
        <time>2006-11-26T13:16:31Z</time>
      </trkpt>
      <trkpt lat="45.86118221282959" lon="10.832583904266357">
        <ele>119.3408203125</ele>
        <time>2006-11-26T13:16:45Z</time>
      </trkpt>
      <trkpt lat="45.861139297485352" lon="10.832626819610596">
        <ele>119.3408203125</ele>
        <time>2006-11-26T13:16:56Z</time>
      </trkpt>
      <trkpt lat="45.861074924468994" lon="10.832755565643311">
        <ele>119.3408203125</ele>
        <time>2006-11-26T13:17:11Z</time>
      </trkpt>
      <trkpt lat="45.861053466796875" lon="10.832841396331787">
        <ele>119.3408203125</ele>
        <time>2006-11-26T13:17:15Z</time>
      </trkpt>
      <trkpt lat="45.861074924468994" lon="10.832884311676025">
        <ele>117.8988037109375</ele>
        <time>2006-11-26T13:17:18Z</time>
      </trkpt>
      <trkpt lat="45.861203670501709" lon="10.832905769348145">
        <ele>112.1309814453125</ele>
        <time>2006-11-26T13:17:24Z</time>
      </trkpt>
      <trkpt lat="45.86143970489502" lon="10.833034515380859">
        <ele>111.1695556640625</ele>
        <time>2006-11-26T13:17:41Z</time>
      </trkpt>
      <trkpt lat="45.863821506500244" lon="10.834343433380127">
        <ele>111.1695556640625</ele>
        <time>2006-11-26T13:20:40Z</time>
      </trkpt>
      <trkpt lat="45.871181488037109" lon="10.836210250854492">
        <ele>111.1695556640625</ele>
        <time>2006-11-26T13:21:05Z</time>
      </trkpt>
      <trkpt lat="45.877103805541992" lon="10.84050178527832">
        <ele>61.6617431640625</ele>
        <time>2006-11-26T13:23:30Z</time>
      </trkpt>
      <trkpt lat="45.881502628326416" lon="10.838119983673096">
        <ele>76.0814208984375</ele>
        <time>2006-11-26T13:23:41Z</time>
      </trkpt>
      <trkpt lat="45.882382392883301" lon="10.838227272033691">
        <ele>72.7169189453125</ele>
        <time>2006-11-26T13:23:53Z</time>
      </trkpt>
      <trkpt lat="45.883026123046875" lon="10.838441848754883">
        <ele>71.27490234375</ele>
        <time>2006-11-26T13:24:02Z</time>
      </trkpt>
      <trkpt lat="45.883433818817139" lon="10.838634967803955">
        <ele>69.8328857421875</ele>
        <time>2006-11-26T13:24:08Z</time>
      </trkpt>
      <trkpt lat="45.883541107177734" lon="10.838656425476074">
        <ele>70.3134765625</ele>
        <time>2006-11-26T13:24:12Z</time>
      </trkpt>
      <trkpt lat="45.883541107177734" lon="10.838656425476074">
        <ele>71.7554931640625</ele>
        <time>2006-11-26T13:24:21Z</time>
      </trkpt>
      <trkpt lat="45.883541107177734" lon="10.838656425476074">
        <ele>70.3134765625</ele>
        <time>2006-11-26T13:24:39Z</time>
      </trkpt>
      <trkpt lat="45.883541107177734" lon="10.838656425476074">
        <ele>69.8328857421875</ele>
        <time>2006-11-26T13:24:40Z</time>
      </trkpt>
      <trkpt lat="45.883691310882568" lon="10.838806629180908">
        <ele>69.8328857421875</ele>
        <time>2006-11-26T13:24:48Z</time>
      </trkpt>
      <trkpt lat="45.883798599243164" lon="10.838849544525146">
        <ele>69.8328857421875</ele>
        <time>2006-11-26T13:24:52Z</time>
      </trkpt>
      <trkpt lat="45.883884429931641" lon="10.838871002197266">
        <ele>70.3134765625</ele>
        <time>2006-11-26T13:24:59Z</time>
      </trkpt>
      <trkpt lat="45.88390588760376" lon="10.838849544525146">
        <ele>69.8328857421875</ele>
        <time>2006-11-26T13:25:07Z</time>
      </trkpt>
      <trkpt lat="45.88390588760376" lon="10.838849544525146">
        <ele>70.794189453125</ele>
        <time>2006-11-26T13:25:16Z</time>
      </trkpt>
      <trkpt lat="45.883948802947998" lon="10.838699340820313">
        <ele>56.37451171875</ele>
        <time>2006-11-26T14:26:05Z</time>
      </trkpt>
    </trkseg>
  </trk>

</gpx>
